Provisional Data: Sing Sing Creek near Big Flats, NY


Please select a monitoring station.
Please select start date.
Please select start date.

Toggle Unit: C/F Toggle Unit: C/F
Sample Time Temperature (C) Temperature (F) Specific Conductivity (mS/cm) pH   Turbidity (NTU+) DO (mg/L)
10/20/2020 12:00:00 AM 10.6 51.08 0.64 7.82 5.57 7.56
10/20/2020 12:15:00 AM 10.61 51.098 0.64 7.83 5.34 7.47
10/20/2020 12:30:00 AM 10.62 51.116 0.642 7.81 5.76 7.23
10/20/2020 12:45:00 AM 10.63 51.134 0.642 7.8 5.48 6.9
10/20/2020 1:00:00 AM 10.64 51.152 0.642 7.78 5.72 6.77
10/20/2020 1:15:00 AM 10.64 51.152 0.641 7.78 5.4 6.91
10/20/2020 1:30:00 AM 10.65 51.17 0.641 7.77 5.45 6.59
10/20/2020 1:45:00 AM 10.66 51.188 0.641 7.76 5.38 6.29
10/20/2020 2:00:00 AM 10.67 51.206 0.642 7.74 5.48 6
10/20/2020 2:15:00 AM 10.68 51.224 0.642 7.7 5.52 5.55
10/20/2020 2:30:00 AM 10.7 51.26 0.642 7.69 5.23 5.5
10/20/2020 2:45:00 AM 10.72 51.296 0.642 7.66 5.03 4.93
10/20/2020 3:00:00 AM 10.73 51.314 0.641 7.66 5.21 4.78
10/20/2020 3:15:00 AM 10.75 51.35 0.642 7.64 5.06 4.87
10/20/2020 3:30:00 AM 10.77 51.386 0.642 7.63 5.62 4.99
10/20/2020 3:45:00 AM 10.79 51.422 0.642 7.65 5.67 4.73
10/20/2020 4:00:00 AM 10.81 51.458 0.642 7.63 5.5 4.47
10/20/2020 4:15:00 AM 10.82 51.476 0.641 7.62 5.27 4.13
10/20/2020 4:30:00 AM 10.84 51.512 0.643 7.61 5.57 3.92
10/20/2020 4:45:00 AM 10.85 51.53 0.644 7.58 5.66 3.68
10/20/2020 5:00:00 AM 10.87 51.566 0.643 7.56 6.93 3.6
10/20/2020 5:15:00 AM 10.89 51.602 0.643 7.59 6.95 4.02
10/20/2020 5:30:00 AM 10.92 51.656 0.641 7.69 8.66 5.34
10/20/2020 5:45:00 AM 10.93 51.674 0.641 7.68 7.38 5.4
10/20/2020 6:00:00 AM 10.94 51.692 0.641 7.65 5.73 4.98
10/20/2020 6:15:00 AM 10.95 51.71 0.641 7.64 5.25 4.51
10/20/2020 6:30:00 AM 10.96 51.728 0.641 7.61 5.15 4.14
10/20/2020 6:45:00 AM 10.97 51.746 0.642 7.61 5.33 3.9
10/20/2020 7:00:00 AM 10.99 51.782 0.641 7.6 5.43 3.86
10/20/2020 7:15:00 AM 11.01 51.818 0.645 7.6 9.89 3.4
10/20/2020 7:30:00 AM 11.03 51.854 0.642 7.62 5.72 4.02
10/20/2020 7:45:00 AM 11.04 51.872 0.642 7.61 5.9 4.07
10/20/2020 8:00:00 AM 11.05 51.89 0.644 7.65 13.51 4.35
10/20/2020 8:15:00 AM 11.07 51.926 0.649 7.64 18.69 4.69
10/20/2020 8:30:00 AM 11.08 51.944 0.64 7.62 6.87 4.71
10/20/2020 8:45:00 AM 11.09 51.962 0.64 7.64 6.13 4.59
10/20/2020 9:00:00 AM 11.1 51.98 0.64 7.63 5.72 4.31
10/20/2020 9:15:00 AM 11.11 51.998 0.64 7.62 5.69 4.15
10/20/2020 9:30:00 AM 11.12 52.016 0.641 7.61 5.77 4.04
10/20/2020 9:45:00 AM 11.14 52.052 0.641 7.63 5.82 4.3
10/20/2020 10:00:00 AM 11.15 52.07 0.642 7.62 6.89 4.94
10/20/2020 10:15:00 AM 11.17 52.106 0.64 7.68 6.43 5.42
10/20/2020 10:30:00 AM 11.18 52.124 0.641 7.7 6.18 5.31
10/20/2020 10:45:00 AM 11.2 52.16 0.641 7.68 5.61 4.9
10/20/2020 11:00:00 AM 11.23 52.214 0.641 7.69 5.59 5.44
10/20/2020 11:15:00 AM 11.25 52.25 0.641 7.69 5.78 5.29
10/20/2020 11:30:00 AM 11.28 52.304 0.641 7.7 5.69 5.25
10/20/2020 11:45:00 AM 11.3 52.34 0.641 7.68 5.51 5.21
10/20/2020 12:00:00 PM 11.32 52.376 0.642 7.69 5.53 5.06
10/20/2020 12:15:00 PM 11.33 52.394 0.642 7.66 5.15 4.64
10/20/2020 12:30:00 PM 11.35 52.43 0.642 7.64 5.71 4.66
10/20/2020 12:45:00 PM 11.37 52.466 0.642 7.67 5.97 4.87
10/20/2020 1:00:00 PM 11.4 52.52 0.641 7.74 8.2 6.53
10/20/2020 1:15:00 PM 11.4 52.52 0.641 7.74 6.36 6.31
10/20/2020 1:30:00 PM 11.41 52.538 0.641 7.73 6.22 6.04
10/20/2020 1:45:00 PM 11.42 52.556 0.642 7.71 6.4 6.01
10/20/2020 2:00:00 PM 11.42 52.556 0.642 7.7 5.68 5.24
10/20/2020 2:15:00 PM 11.42 52.556 0.643 7.68 5.53 5.41
10/20/2020 2:30:00 PM 11.44 52.592 0.643 7.69 5.54 5.45
10/20/2020 2:45:00 PM 11.45 52.61 0.642 7.73 5.57 5.82
10/20/2020 3:00:00 PM 11.46 52.628 0.642 7.75 5.69 6.53
10/20/2020 3:15:00 PM 11.46 52.628 0.642 7.77 5.85 6.4
10/20/2020 3:30:00 PM 11.46 52.628 0.643 7.76 5.61 6.37
10/20/2020 3:45:00 PM 11.46 52.628 0.642 7.78 5.63 6.66
10/20/2020 4:00:00 PM 11.45 52.61 0.641 7.83 5.55 7.39
10/20/2020 4:15:00 PM 11.44 52.592 0.641 7.87 5.88 8.05
10/20/2020 4:30:00 PM 11.44 52.592 0.64 7.89 6.25 8.27
10/20/2020 4:45:00 PM 11.42 52.556 0.64 7.93 5.85 8.58
10/20/2020 5:00:00 PM 11.41 52.538 0.64 7.92 5.44 8.56
10/20/2020 5:15:00 PM 11.4 52.52 0.64 7.92 5.6 8.55
10/20/2020 5:30:00 PM 11.39 52.502 0.641 7.91 5.42 8.31
10/20/2020 5:45:00 PM 11.37 52.466 0.641 7.92 5.44 8.46
10/20/2020 6:00:00 PM 11.36 52.448 0.641 7.92 5.42 8.43
10/20/2020 6:15:00 PM 11.36 52.448 0.642 7.91 5.4 8.21
10/20/2020 6:30:00 PM 11.34 52.412 0.642 7.91 5.35 8.09
10/20/2020 6:45:00 PM 11.33 52.394 0.642 7.9 5.55 8.14
10/20/2020 7:00:00 PM 11.31 52.358 0.642 7.9 5.62 8.25
10/20/2020 7:15:00 PM 11.3 52.34 0.642 7.91 5.5 8.22
10/20/2020 7:30:00 PM 11.29 52.322 0.642 7.91 5.46 8.28
10/20/2020 7:45:00 PM 11.28 52.304 0.642 7.9 5.56 8.3
10/20/2020 8:00:00 PM 11.27 52.286 0.642 7.89 5.48 8.14
10/20/2020 8:15:00 PM 11.26 52.268 0.643 7.9 5.42 8.14
10/20/2020 8:30:00 PM 11.24 52.232 0.643 7.9 5.49 8.2
10/20/2020 8:45:00 PM 11.24 52.232 0.643 7.89 5.47 8.13
10/20/2020 9:00:00 PM 11.22 52.196 0.643 7.89 5.67 8.12
10/20/2020 9:15:00 PM 11.22 52.196 0.644 7.89 5.59 7.97
10/20/2020 9:30:00 PM 11.22 52.196 0.644 7.87 7.39 7.69
10/20/2020 9:45:00 PM 11.21 52.178 0.644 7.83 7.81 7.35
10/20/2020 10:00:00 PM 11.19 52.142 0.644 7.86 5.88 7.57
10/20/2020 10:15:00 PM 11.18 52.124 0.644 7.86 5.94 7.59
10/20/2020 10:30:00 PM 11.17 52.106 0.644 7.87 5.79 7.71
10/20/2020 10:45:00 PM 11.16 52.088 0.645 7.85 5.56 7.59
10/20/2020 11:00:00 PM 11.16 52.088 0.645 7.86 5.7 7.78
10/20/2020 11:15:00 PM 11.15 52.07 0.645 7.86 6.04 7.7
10/20/2020 11:30:00 PM 11.14 52.052 0.64 7.84 6.45 7.54
10/20/2020 11:45:00 PM 11.13 52.034 0.646 7.81 6.73 7.21
10/21/2020 12:00:00 AM 11.13 52.034 0.646 7.81 50.25 7.02
10/21/2020 12:15:00 AM 11.13 52.034 0.646 7.79 11.72 6.92
10/21/2020 12:30:00 AM 11.11 51.998 0.646 7.81 33.46 7.19
10/21/2020 12:45:00 AM 11.11 51.998 0.646 7.82 7.53 7.23
10/21/2020 1:00:00 AM 11.1 51.98 0.646 7.82 6.58 7.24
10/21/2020 1:15:00 AM 11.09 51.962 0.646 7.83 6.03 7.31
10/21/2020 1:30:00 AM 11.08 51.944 0.646 7.83 6.05 7.35
10/21/2020 1:45:00 AM 11.08 51.944 0.646 7.83 5.92 7.37
10/21/2020 2:00:00 AM 11.07 51.926 0.646 7.83 6.15 7.29
10/21/2020 2:15:00 AM 11.06 51.908 0.646 7.83 6.27 7.37
10/21/2020 2:30:00 AM 11.06 51.908 0.646 7.82 6.09 7.36
10/21/2020 2:45:00 AM 11.05 51.89 0.646 7.83 6.02 7.35
10/21/2020 3:00:00 AM 11.05 51.89 0.646 7.83 5.94 7.32
10/21/2020 3:15:00 AM 11.04 51.872 0.646 7.83 6.13 7.28
10/21/2020 3:30:00 AM 11.03 51.854 0.646 7.82 6.12 7.22
10/21/2020 3:45:00 AM 11.03 51.854 0.647 7.82 6.1 7.12
10/21/2020 4:00:00 AM 11.03 51.854 0.647 7.82 6.07 7.09
10/21/2020 4:15:00 AM 11.03 51.854 0.647 7.81 6 7.08
10/21/2020 4:30:00 AM 11.02 51.836 0.646 7.82 6.12 7
10/21/2020 4:45:00 AM 11.01 51.818 0.646 7.81 6.35 7.01
10/21/2020 5:00:00 AM 11.01 51.818 0.646 7.82 6.16 7.05
10/21/2020 5:15:00 AM 11 51.8 0.646 7.81 7.13 7.07
10/21/2020 5:30:00 AM 11 51.8 0.646 7.79 5.91 6.88
10/21/2020 5:45:00 AM 10.98 51.764 0.646 7.82 6.23 6.99
10/21/2020 6:00:00 AM 10.98 51.764 0.646 7.82 6.24 7
10/21/2020 6:15:00 AM 10.97 51.746 0.646 7.82 6.44 6.97
10/21/2020 6:30:00 AM 10.96 51.728 0.646 7.81 6.22 6.96
10/21/2020 6:45:00 AM 10.96 51.728 0.646 7.81 5.94 6.9
10/21/2020 7:00:00 AM 10.96 51.728 0.646 7.82 6.45 6.93
10/21/2020 7:15:00 AM 10.96 51.728 0.646 7.8 6.51 6.68
10/21/2020 7:30:00 AM 10.95 51.71 0.646 7.81 6.62 6.75
10/21/2020 7:45:00 AM 10.95 51.71 0.646 7.81 6.56 6.81
10/21/2020 8:00:00 AM 10.95 51.71 0.647 7.79 6.65 6.54
10/21/2020 8:15:00 AM 10.94 51.692 0.646 7.81 6.96 6.86
10/21/2020 8:30:00 AM 10.94 51.692 0.646 7.82 7.02 6.91
10/21/2020 8:45:00 AM 10.96 51.728 0.646 7.82 6.05 6.85
10/21/2020 9:00:00 AM 10.97 51.746 0.646 7.81 7.32 6.81
10/21/2020 9:15:00 AM 10.99 51.782 0.647 7.81 34.46 6.79
10/21/2020 9:30:00 AM 11.01 51.818 0.647 7.8 7.25 6.55
10/21/2020 9:45:00 AM 11.05 51.89 0.647 7.79 8.01 6.46
10/21/2020 10:00:00 AM 11.08 51.944 0.647 7.79 6.61 6.52
10/21/2020 10:15:00 AM 11.12 52.016 0.647 7.79 6.01 6.65
10/21/2020 10:30:00 AM 11.17 52.106 0.647 7.78 6.48 6.21
10/21/2020 10:45:00 AM 11.23 52.214 0.646 7.8 5.98 7.04
10/21/2020 11:00:00 AM 11.27 52.286 0.646 7.79 6.25 6.84
10/21/2020 11:15:00 AM 11.31 52.358 0.647 7.78 6.46 6.51
10/21/2020 11:30:00 AM 11.39 52.502 0.646 7.79 5.91 6.62
10/21/2020 11:45:00 AM 11.49 52.682 0.647 7.81 8.35 7.25
10/21/2020 12:00:00 PM 11.53 52.754 0.646 7.79 6.01 6.89
10/21/2020 12:15:00 PM 11.65 52.97 0.646 7.76 6.39 6.53
10/21/2020 12:30:00 PM 11.75 53.15 0.646 7.79 6.09 6.74
10/21/2020 12:45:00 PM 11.87 53.366 0.647 7.75 5.98 6.15
10/21/2020 1:00:00 PM 12.04 53.672 0.646 7.75 6.4 6.08
10/21/2020 1:15:00 PM 12.22 53.996 0.646 7.76 6.26 6.36
10/21/2020 1:30:00 PM 12.38 54.284 0.646 7.73 5.74 5.96
10/21/2020 1:45:00 PM 12.57 54.626 0.645 7.76 6.46 7.13
10/21/2020 2:00:00 PM 12.72 54.896 0.645 7.76 6.86 6.82
10/21/2020 2:15:00 PM 12.89 55.202 0.645 7.82 5.92 7.31
10/21/2020 2:30:00 PM 13.04 55.472 0.644 7.81 6.02 6.89
10/21/2020 2:45:00 PM 13.19 55.742 0.645 7.83 6.34 7.7
10/21/2020 3:00:00 PM 13.27 55.886 0.644 7.8 6.02 7.35
10/21/2020 3:15:00 PM 13.36 56.048 0.644 7.79 6.49 8.03
10/21/2020 3:30:00 PM 13.4 56.12 0.643 7.83 6.24 7.51
10/21/2020 3:45:00 PM 13.46 56.228 0.643 7.79 6.98 6.56
10/21/2020 4:00:00 PM 13.46 56.228 0.645 7.76 6.47 6.36
10/21/2020 4:15:00 PM 13.46 56.228 0.644 7.72 5.64 6.68
10/21/2020 4:30:00 PM 13.55 56.39 0.643 7.75 6.75 6.92
10/21/2020 4:45:00 PM 13.56 56.408 0.643 7.73 5.98 7.17
10/21/2020 5:00:00 PM 13.57 56.426 0.643 7.8 6.1 7.77
10/21/2020 5:15:00 PM 13.62 56.516 0.642 7.8 7.09 8.04
10/21/2020 5:30:00 PM 13.64 56.552 0.642 7.8 5.7 8
10/21/2020 5:45:00 PM 13.65 56.57 0.642 7.8 5.79 7.63
10/21/2020 6:00:00 PM 13.65 56.57 0.643 7.76 5.59 7.46
10/21/2020 6:15:00 PM 13.67 56.606 0.642 7.73 5.35 6.83
10/21/2020 6:30:00 PM 13.69 56.642 0.643 7.74 5.58 6.55
10/21/2020 6:45:00 PM 13.68 56.624 0.643 7.69 5.59 6.31
10/21/2020 7:00:00 PM 13.65 56.57 0.644 7.66 5.92 5.65
10/21/2020 7:15:00 PM 13.66 56.588 0.643 7.62 5.84 5.24
10/21/2020 7:30:00 PM 13.65 56.57 0.645 7.61 7.48 4.87
10/21/2020 7:45:00 PM 13.63 56.534 0.644 7.59 7.59 4.05
10/21/2020 8:00:00 PM 13.65 56.57 0.643 7.62 6.79 4.77
10/21/2020 8:15:00 PM 13.62 56.516 0.645 7.62 6.91 5.16
10/21/2020 8:30:00 PM 13.61 56.498 0.644 7.61 6.09 4.63
10/21/2020 8:45:00 PM 13.59 56.462 0.645 7.59 6.12 4.62
10/21/2020 9:00:00 PM 13.59 56.462 0.645 7.6 6.09 5.2
10/21/2020 9:15:00 PM 13.55 56.39 0.646 7.63 9.2 5.04
10/21/2020 9:30:00 PM 13.53 56.354 0.645 7.62 6.84 5.01
10/21/2020 9:45:00 PM 13.51 56.318 0.645 7.62 8.95 4.96
10/21/2020 10:00:00 PM 13.49 56.282 0.645 7.59 6.43 4.93
10/21/2020 10:15:00 PM 13.47 56.246 0.645 7.59 6.27 4.84
10/21/2020 10:30:00 PM 13.44 56.192 0.646 7.59 6.33 5.57
10/21/2020 10:45:00 PM 13.41 56.138 0.645 7.6 6.77 4.66
10/21/2020 11:00:00 PM 13.4 56.12 0.646 7.64 6.56 5.82
10/21/2020 11:15:00 PM 13.37 56.066 0.645 7.61 6.4 4.88
10/21/2020 11:30:00 PM 13.35 56.03 0.646 7.6 7.15 4.6
10/21/2020 11:45:00 PM 13.33 55.994 0.648 7.56 7.05 4.29
10/22/2020 12:00:00 AM 13.32 55.976 0.651 7.55 8.88 4.04
10/22/2020 12:15:00 AM 13.31 55.958 0.649 7.53 6.28 3.83
10/22/2020 12:30:00 AM 13.35 56.03 0.647 7.64 58.85 6.14
10/22/2020 12:45:00 AM 13.34 56.012 0.645 7.66 15.81 6.17
10/22/2020 1:00:00 AM 13.33 55.994 0.645 7.65 10.75 5.59
10/22/2020 1:15:00 AM 13.34 56.012 0.645 7.64 16.81 5.69
10/22/2020 1:30:00 AM 13.31 55.958 0.645 7.65 13.79 5.1
10/22/2020 1:45:00 AM 13.32 55.976 0.646 7.6 9.25 4.49
10/22/2020 2:00:00 AM 13.33 55.994 0.645 7.62 6.8 4.48
10/22/2020 2:15:00 AM 13.33 55.994 0.645 7.62 6.25 4.41
10/22/2020 2:30:00 AM 13.34 56.012 0.646 7.59 6.06 4.09
10/22/2020 2:45:00 AM 13.33 55.994 0.647 7.56 6.08 3.16
10/22/2020 3:00:00 AM 13.35 56.03 0.647 7.59 10.65 4.09
10/22/2020 3:15:00 AM 13.35 56.03 0.647 7.58 7.89 4.08
10/22/2020 3:30:00 AM 13.35 56.03 0.647 7.56 6.33 3.59
10/22/2020 3:45:00 AM 13.35 56.03 0.647 7.54 6.13 3.19
10/22/2020 4:00:00 AM 13.35 56.03 0.649 7.51 5.71 3.21
10/22/2020 4:15:00 AM 13.36 56.048 0.649 7.51 5.99 3
10/22/2020 4:30:00 AM 13.37 56.066 0.65 7.53 5.86 3.2
10/22/2020 4:45:00 AM 13.39 56.102 0.649 7.51 6.43 3.06
10/22/2020 5:00:00 AM 13.39 56.102 0.649 7.52 8.08 2.96
10/22/2020 5:15:00 AM 13.44 56.192 0.648 7.58 14.24 3.53
10/22/2020 5:30:00 AM 13.43 56.174 0.649 7.57 7.84 3.85
10/22/2020 5:45:00 AM 13.44 56.192 0.648 7.54 7.43 3.33
10/22/2020 6:00:00 AM 13.44 56.192 0.649 7.54 9.16 3.44
10/22/2020 6:15:00 AM 13.45 56.21 0.649 7.54 6.18 2.92
10/22/2020 6:30:00 AM 13.45 56.21 0.648 7.54 5.93 2.55
10/22/2020 6:45:00 AM 13.45 56.21 0.649 7.52 6.47 2.35
10/22/2020 7:00:00 AM 13.44 56.192 0.65 7.51 6.32 2.27
10/22/2020 7:15:00 AM 13.44 56.192 0.651 7.49 5.94 1.98
10/22/2020 7:30:00 AM 13.44 56.192 0.65 7.48 6.69 1.83
10/22/2020 7:45:00 AM 13.45 56.21 0.652 7.52 8.83 2.33
10/22/2020 8:00:00 AM 13.46 56.228 0.652 7.51 6.9 2.59
10/22/2020 8:15:00 AM 13.45 56.21 0.654 7.49 6.24 2.5
10/22/2020 8:30:00 AM 13.46 56.228 0.654 7.47 7.62 2.75
10/22/2020 8:45:00 AM 13.46 56.228 0.651 7.49 11.44 2.32
10/22/2020 9:00:00 AM 13.44 56.192 0.655 7.47 7.49 1.89
10/22/2020 9:15:00 AM 13.45 56.21 0.654 7.47 6.3 2.38
10/22/2020 9:30:00 AM 13.45 56.21 0.654 7.48 6.66 2.13
10/22/2020 9:45:00 AM 13.47 56.246 0.655 7.5 6.99 2.49
10/22/2020 10:00:00 AM 13.47 56.246 0.654 7.48 6.94 2.64
10/22/2020 10:15:00 AM 13.54 56.372 0.652 7.62 7.03 3.61
10/22/2020 10:30:00 AM 13.52 56.336 0.653 7.55 6.57 3.35
10/22/2020 10:45:00 AM 13.54 56.372 0.654 7.53 6.02 3.31
10/22/2020 11:00:00 AM 13.55 56.39 0.654 7.51 5.99 3.1
10/22/2020 11:15:00 AM 13.59 56.462 0.655 7.53 6.09 3.15
10/22/2020 11:30:00 AM 13.61 56.498 0.654 7.51 8.18 2.75
10/22/2020 11:45:00 AM 13.64 56.552 0.653 7.52 5.81 2.94
10/22/2020 12:00:00 PM 13.68 56.624 0.652 7.55 6.01 3.27
10/22/2020 12:15:00 PM 13.74 56.732 0.652 7.6 5.96 3.24
10/22/2020 12:30:00 PM 13.79 56.822 0.653 7.63 5.93 3.88
10/22/2020 12:45:00 PM 13.86 56.948 0.652 7.61 6.22 3.9
10/22/2020 1:00:00 PM 13.96 57.128 0.652 7.62 5.76 4.03
10/22/2020 1:15:00 PM 14.08 57.344 0.652 7.64 5.75 4.36
10/22/2020 1:30:00 PM 14.26 57.668 0.651 7.67 6.33 4.93
10/22/2020 1:45:00 PM 14.44 57.992 0.651 7.7 5.73 4.97
10/22/2020 2:00:00 PM 14.6 58.28 0.651 7.69 5.94 5.49
10/22/2020 2:15:00 PM 14.73 58.514 0.651 7.71 6.24 5.84
10/22/2020 2:30:00 PM 14.86 58.748 0.65 7.7 6.69 5.78
10/22/2020 2:45:00 PM 14.95 58.91 0.65 7.69 6.49 5.55
10/22/2020 3:00:00 PM 15.03 59.054 0.65 7.68 6.15 5.39
10/22/2020 3:15:00 PM 15.1 59.18 0.649 7.7 5.83 5.68
10/22/2020 3:30:00 PM 15.17 59.306 0.649 7.69 8.91 6.46
10/22/2020 3:45:00 PM 15.25 59.45 0.647 7.75 7.52 7.17
10/22/2020 4:00:00 PM 15.28 59.504 0.647 7.75 7.34 6.68
10/22/2020 4:15:00 PM 15.32 59.576 0.648 7.79 6.65 7.04
10/22/2020 4:30:00 PM 15.33 59.594 0.648 7.74 5.94 6.1
10/22/2020 4:45:00 PM 15.36 59.648 0.648 7.73 6.13 6.14
10/22/2020 5:00:00 PM 15.35 59.63 0.649 7.68 5.71 5.96
10/22/2020 5:15:00 PM 15.33 59.594 0.649 7.64 6.04 5.5
10/22/2020 5:30:00 PM 15.33 59.594 0.65 7.62 9.88 5.36
10/22/2020 5:45:00 PM 15.36 59.648 0.651 7.64 5.91 5.56
10/22/2020 6:00:00 PM 15.38 59.684 0.649 7.62 5.79 5.8
10/22/2020 6:15:00 PM 15.35 59.63 0.649 7.6 5.92 5.32
10/22/2020 6:30:00 PM 15.33 59.594 0.649 7.54 5.8 4.24
10/22/2020 6:45:00 PM 15.29 59.522 0.652 7.53 6.21 4.53
10/22/2020 7:00:00 PM 15.26 59.468 0.652 7.53 5.92 3.76
10/22/2020 7:15:00 PM 15.25 59.45 0.65 7.52 5.94 3.7
10/22/2020 7:30:00 PM 15.24 59.432 0.65 7.53 6.06 3.74
10/22/2020 7:45:00 PM 15.21 59.378 0.651 7.51 5.9 3.57
10/22/2020 8:00:00 PM 15.17 59.306 0.651 7.5 6.08 3.42
10/22/2020 8:15:00 PM 15.14 59.252 0.651 7.5 6.83 3.24
10/22/2020 8:30:00 PM 15.11 59.198 0.652 7.5 6.29 3.68
10/22/2020 8:45:00 PM 15.09 59.162 0.651 7.53 6.63 3.96
10/22/2020 9:00:00 PM 15.07 59.126 0.649 7.53 6.89 4.51
10/22/2020 9:15:00 PM 15.03 59.054 0.65 7.54 6.61 4.16
10/22/2020 9:30:00 PM 14.99 58.982 0.649 7.54 6.32 3.73
10/22/2020 9:45:00 PM 14.96 58.928 0.649 7.57 6.54 4.9
10/22/2020 10:00:00 PM 14.91 58.838 0.648 7.61 6.91 4.82
10/22/2020 10:15:00 PM 14.87 58.766 0.648 7.61 6.5 5.46
10/22/2020 10:30:00 PM 14.83 58.694 0.647 7.63 6.94 6.07
10/22/2020 10:45:00 PM 14.79 58.622 0.647 7.62 6.54 5.24
10/22/2020 11:00:00 PM 14.74 58.532 0.647 7.64 6.47 6.13
10/22/2020 11:15:00 PM 14.7 58.46 0.647 7.65 6.58 5.89
10/22/2020 11:30:00 PM 14.67 58.406 0.646 7.68 6.43 6.18
10/22/2020 11:45:00 PM 14.64 58.352 0.645 7.69 6.27 6.16
10/23/2020 12:00:00 AM 14.6 58.28 0.645 7.73 7.2 6.66
10/23/2020 12:15:00 AM 14.57 58.226 0.645 7.73 6.77 6.73
10/23/2020 12:30:00 AM 14.54 58.172 0.645 7.72 6.41 6.74
10/23/2020 12:45:00 AM 14.52 58.136 0.644 7.7 6.66 6.65
10/23/2020 1:00:00 AM 14.5 58.1 0.645 7.69 6.58 6.49
10/23/2020 1:15:00 AM 14.49 58.082 0.644 7.7 7.29 6.15
10/23/2020 1:30:00 AM 14.47 58.046 0.644 7.71 6.69 6.52
10/23/2020 1:45:00 AM 14.46 58.028 0.644 7.74 6.25 6.56
10/23/2020 2:00:00 AM 14.45 58.01 0.644 7.71 6.65 6.56
10/23/2020 2:15:00 AM 14.44 57.992 0.644 7.7 6.42 6.4
10/23/2020 2:30:00 AM 14.44 57.992 0.644 7.69 8.38 6.04
10/23/2020 2:45:00 AM 14.43 57.974 0.644 7.67 7.11 5.52
10/23/2020 3:00:00 AM 14.42 57.956 0.644 7.68 10.37 5.95
10/23/2020 3:15:00 AM 14.41 57.938 0.643 7.71 6.71 5.83
10/23/2020 3:30:00 AM 14.39 57.902 0.644 7.7 7.62 5.89
10/23/2020 3:45:00 AM 14.38 57.884 0.642 7.71 7.3 6.03
10/23/2020 4:00:00 AM 14.37 57.866 0.643 7.71 6.67 6.17
10/23/2020 4:15:00 AM 14.36 57.848 0.643 7.71 6.72 6.22
10/23/2020 4:30:00 AM 14.35 57.83 0.643 7.7 6.95 5.94
10/23/2020 4:45:00 AM 14.34 57.812 0.643 7.73 6.81 6.03
10/23/2020 5:00:00 AM 14.33 57.794 0.643 7.73 8.83 6.1
10/23/2020 5:15:00 AM 14.32 57.776 0.642 7.74 6.8 6.11
10/23/2020 5:30:00 AM 14.31 57.758 0.642 7.73 9.5 6.41
10/23/2020 5:45:00 AM 14.29 57.722 0.643 7.74 6.76 6.01
10/23/2020 6:00:00 AM 14.27 57.686 0.643 7.74 6.66 6.08
10/23/2020 6:15:00 AM 14.25 57.65 0.642 7.75 6.86 6.14
10/23/2020 6:30:00 AM 14.23 57.614 0.642 7.75 7.65 6.12
10/23/2020 6:45:00 AM 14.22 57.596 0.643 7.74 6.72 5.93
10/23/2020 7:00:00 AM 14.2 57.56 0.643 7.74 6.96 5.89
10/23/2020 7:15:00 AM 14.19 57.542 0.645 7.69 34.04 5.19
10/23/2020 7:30:00 AM 14.18 57.524 0.645 7.7 19.95 5.46
10/23/2020 7:45:00 AM 14.17 57.506 0.643 7.72 6.96 5.62
10/23/2020 8:00:00 AM 14.16 57.488 0.643 7.73 6.21 5.98
10/23/2020 8:15:00 AM 14.14 57.452 0.643 7.75 6.4 5.97
10/23/2020 8:30:00 AM 14.13 57.434 0.644 7.74 7.19 6.06
10/23/2020 8:45:00 AM 14.12 57.416 0.644 7.76 6.75 5.9
10/23/2020 9:00:00 AM 14.1 57.38 0.644 7.76 6.23 6.07
10/23/2020 9:15:00 AM 14.09 57.362 0.644 7.77 6.15 6.12
10/23/2020 9:30:00 AM 14.08 57.344 0.645 7.76 6.23 6
10/23/2020 9:45:00 AM 14.08 57.344 0.645 7.76 6.19 6.12
10/23/2020 10:00:00 AM 14.09 57.362 0.645 7.76 6.26 5.93
10/23/2020 10:15:00 AM 14.09 57.362 0.646 7.75 5.7 5.73
10/23/2020 10:30:00 AM 14.1 57.38 0.646 7.74 6.14 5.4
10/23/2020 10:45:00 AM 14.14 57.452 0.646 7.77 7.47 6.39
10/23/2020 11:00:00 AM 14.16 57.488 0.646 7.75 8.34 6.12
10/23/2020 11:15:00 AM 14.2 57.56 0.646 7.76 6.02 5.82
10/23/2020 11:30:00 AM 14.28 57.704 0.646 7.79 6.2 6.08
10/23/2020 11:45:00 AM 14.34 57.812 0.647 7.73 6.05 5.43
10/23/2020 12:00:00 PM 14.5 58.1 0.647 7.71 6.34 5.2
10/23/2020 12:15:00 PM 14.63 58.334 0.648 7.72 6.14 4.62
10/23/2020 12:30:00 PM 14.8 58.64 0.647 7.75 5.84 5.15
10/23/2020 12:45:00 PM 14.92 58.856 0.648 7.71 5.69 4.79
10/23/2020 1:00:00 PM 15.1 59.18 0.649 7.71 5.77 4.63
10/23/2020 1:15:00 PM 15.27 59.486 0.648 7.72 5.75 5.03
10/23/2020 1:30:00 PM 15.46 59.828 0.648 7.74 5.67 5.16
10/23/2020 1:45:00 PM 15.67 60.206 0.648 7.75 5.9 6.01
10/23/2020 2:00:00 PM 15.92 60.656 0.647 7.78 5.8 6.21
10/23/2020 2:15:00 PM 16.08 60.944 0.647 7.81 5.94 6.81
10/23/2020 2:30:00 PM 16.27 61.286 0.647 7.82 6.08 6.94
10/23/2020 2:45:00 PM 16.39 61.502 0.647 7.82 6.14 6.95
10/23/2020 3:00:00 PM 16.49 61.682 0.647 7.81 6.13 7.47
10/23/2020 3:15:00 PM 16.65 61.97 0.645 7.84 6.22 7.47
10/23/2020 3:30:00 PM 16.65 61.97 0.646 7.82 7.34 7.06
10/23/2020 3:45:00 PM 16.67 62.006 0.646 7.81 5.68 6.81
10/23/2020 4:00:00 PM 16.73 62.114 0.646 7.82 5.59 6.78
10/23/2020 4:15:00 PM 16.7 62.06 0.647 7.79 5.79 6.48
10/23/2020 4:30:00 PM 16.72 62.096 0.647 7.77 6.08 6.57
10/23/2020 4:45:00 PM 16.75 62.15 0.646 7.79 5.72 6.73
10/23/2020 5:00:00 PM 16.72 62.096 0.646 7.73 5.79 6.33
10/23/2020 5:15:00 PM 16.67 62.006 0.647 7.73 5.78 6.13
10/23/2020 5:30:00 PM 16.64 61.952 0.647 7.72 5.86 5.74
10/23/2020 5:45:00 PM 16.6 61.88 0.647 7.7 5.59 6.24
10/23/2020 6:00:00 PM 16.55 61.79 0.648 7.7 5.79 5.38
10/23/2020 6:15:00 PM 16.52 61.736 0.647 7.66 5.83 5.69
10/23/2020 6:30:00 PM 16.49 61.682 0.648 7.67 6.06 5.21
10/23/2020 6:45:00 PM 16.46 61.628 0.649 7.67 5.8 5.54
10/23/2020 7:00:00 PM 16.43 61.574 0.649 7.65 6.03 5.61
10/23/2020 7:15:00 PM 16.38 61.484 0.65 7.64 6.38 4.37
10/23/2020 7:30:00 PM 16.34 61.412 0.649 7.63 6.29 5.43
10/23/2020 7:45:00 PM 16.26 61.268 0.65 7.59 6.4 4.19
10/23/2020 8:00:00 PM 16.25 61.25 0.65 7.59 6.28 4.43
10/23/2020 8:15:00 PM 16.22 61.196 0.65 7.64 6.68 4.74
10/23/2020 8:30:00 PM 16.17 61.106 0.651 7.63 6.5 4.63
10/23/2020 8:45:00 PM 16.14 61.052 0.65 7.61 6.73 4.21
10/23/2020 9:00:00 PM 16.08 60.944 0.652 7.57 6.54 3.99
10/23/2020 9:15:00 PM 16.05 60.89 0.651 7.57 6.62 4.14
10/23/2020 9:30:00 PM 16 60.8 0.651 7.59 6.47 4.47
10/23/2020 9:45:00 PM 15.96 60.728 0.652 7.61 6.04 4.52
10/23/2020 10:00:00 PM 15.93 60.674 0.651 7.65 6.45 5.16
10/23/2020 10:15:00 PM 15.89 60.602 0.651 7.67 6.43 4.59
10/23/2020 10:30:00 PM 15.85 60.53 0.651 7.68 6.86 5.43
10/23/2020 10:45:00 PM 15.82 60.476 0.65 7.7 6.13 5.15
10/23/2020 11:00:00 PM 15.79 60.422 0.651 7.72 6.2 5.38
10/23/2020 11:15:00 PM 15.76 60.368 0.651 7.74 6.48 5.72
10/23/2020 11:30:00 PM 15.74 60.332 0.651 7.73 6.28 5.53
10/23/2020 11:45:00 PM 15.72 60.296 0.65 7.73 6.49 5.5
10/24/2020 12:00:00 AM 15.7 60.26 0.65 7.72 5.85 5.71
10/24/2020 12:15:00 AM 15.68 60.224 0.651 7.71 6 5.16
10/24/2020 12:30:00 AM 15.66 60.188 0.65 7.71 6.25 5.55
10/24/2020 12:45:00 AM 15.64 60.152 0.65 7.71 6.2 5.36
10/24/2020 1:00:00 AM 15.62 60.116 0.651 7.69 6.38 5.13
10/24/2020 1:15:00 AM 15.61 60.098 0.651 7.68 5.95 4.69
10/24/2020 1:30:00 AM 15.6 60.08 0.651 7.66 6.36 4.57
10/24/2020 1:45:00 AM 15.6 60.08 0.651 7.66 6.19 4.71
10/24/2020 2:00:00 AM 15.58 60.044 0.651 7.62 7.09 4.02
10/24/2020 2:15:00 AM 15.57 60.026 0.652 7.63 6.14 3.81
10/24/2020 2:30:00 AM 15.57 60.026 0.651 7.64 6.3 4.23
10/24/2020 2:45:00 AM 15.56 60.008 0.652 7.63 6.16 4.37
10/24/2020 3:00:00 AM 15.54 59.972 0.652 7.62 6.35 3.89
10/24/2020 3:15:00 AM 15.53 59.954 0.653 7.59 6.1 3.64
10/24/2020 3:30:00 AM 15.52 59.936 0.653 7.57 6.16 2.94
10/24/2020 3:45:00 AM 15.5 59.9 0.654 7.56 6.16 3.22
10/24/2020 4:00:00 AM 15.49 59.882 0.655 7.55 6.01 2.75
10/24/2020 4:15:00 AM 15.49 59.882 0.653 7.56 6.36 2.93
10/24/2020 4:30:00 AM 15.47 59.846 0.653 7.55 6.82 3.49
10/24/2020 4:45:00 AM 15.48 59.864 0.653 7.55 6.35 3.03
10/24/2020 5:00:00 AM 15.48 59.864 0.652 7.55 5.97 2.81
10/24/2020 5:15:00 AM 15.48 59.864 0.653 7.54 6.33 2.69
10/24/2020 5:30:00 AM 15.46 59.828 0.654 7.53 5.9 2.43
10/24/2020 5:45:00 AM 15.46 59.828 0.655 7.52 5.91 1.91
10/24/2020 6:00:00 AM 15.47 59.846 0.653 7.51 6.45 1.84
10/24/2020 6:15:00 AM 15.48 59.864 0.654 7.54 6.49 2.4
10/24/2020 6:30:00 AM 15.5 59.9 0.653 7.55 6.02 2.15
10/24/2020 6:45:00 AM 15.51 59.918 0.653 7.57 5.88 3
10/24/2020 7:00:00 AM 15.49 59.882 0.652 7.59 6.12 3.74
10/24/2020 7:15:00 AM 15.47 59.846 0.651 7.59 5.91 3.67
10/24/2020 7:30:00 AM 15.43 59.774 0.651 7.61 6.03 3.8
10/24/2020 7:45:00 AM 15.38 59.684 0.65 7.65 6.41 4.4
10/24/2020 8:00:00 AM 15.33 59.594 0.65 7.7 6.86 4.96
10/24/2020 8:15:00 AM 15.28 59.504 0.648 7.71 6.53 5.33
10/24/2020 8:30:00 AM 15.2 59.36 0.648 7.75 11.99 5.53
10/24/2020 8:45:00 AM 15.15 59.27 0.648 7.74 6.8 5.48
10/24/2020 9:00:00 AM 15.09 59.162 0.647 7.76 6.11 5.58
10/24/2020 9:15:00 AM 15.03 59.054 0.647 7.76 6.43 5.78
10/24/2020 9:30:00 AM 14.96 58.928 0.646 7.79 6.17 5.94
10/24/2020 9:45:00 AM 14.92 58.856 0.647 7.79 6.37 5.85
10/24/2020 10:00:00 AM 14.89 58.802 0.647 7.78 6.37 5.95
10/24/2020 10:15:00 AM 14.87 58.766 0.647 7.79 6.72 6.06
10/24/2020 10:30:00 AM 14.84 58.712 0.647 7.82 6.27 6.3
10/24/2020 10:45:00 AM 14.83 58.694 0.647 7.82 5.81 6.47
10/24/2020 11:00:00 AM 14.8 58.64 0.647 7.83 6.15 6.85
10/24/2020 11:15:00 AM 14.78 58.604 0.648 7.83 6.2 6.64
10/24/2020 11:30:00 AM 14.77 58.586 0.647 7.84 5.8 7.1
10/24/2020 11:45:00 AM 14.76 58.568 0.647 7.88 8.19 7.53
10/24/2020 12:00:00 PM 14.75 58.55 0.647 7.89 6.72 7.76
10/24/2020 12:15:00 PM 14.75 58.55 0.647 7.88 5.85 7.48
10/24/2020 12:30:00 PM 14.75 58.55 0.647 7.87 5.96 7.61
10/24/2020 12:45:00 PM 14.74 58.532 0.647 7.94 5.8 8.25
10/24/2020 1:00:00 PM 14.73 58.514 0.647 7.94 5.74 8.55
10/24/2020 1:15:00 PM 14.73 58.514 0.647 7.96 5.95 8.59
10/24/2020 1:30:00 PM 14.73 58.514 0.646 7.96 5.83 9.11
10/24/2020 1:45:00 PM 14.73 58.514 0.646 8.02 5.74 9.56
10/24/2020 2:00:00 PM 14.73 58.514 0.646 8.01 8.39 9.25
10/24/2020 2:15:00 PM 14.73 58.514 0.646 8.07 6.53 10.09
10/24/2020 2:30:00 PM 14.72 58.496 0.645 8.1 5.75 10.61
10/24/2020 2:45:00 PM 14.71 58.478 0.645 8.12 6.39 10.66
10/24/2020 3:00:00 PM 14.72 58.496 0.645 8.12 5.92 10.84
10/24/2020 3:15:00 PM 14.71 58.478 0.644 8.14 7.9 11.16
10/24/2020 3:30:00 PM 14.71 58.478 0.644 8.16 6.1 11.34
10/24/2020 3:45:00 PM 14.7 58.46 0.645 8.08 6.62 10.64
10/24/2020 4:00:00 PM 14.65 58.37 0.644 8.18 5.92 11.62
10/24/2020 4:15:00 PM 14.61 58.298 0.644 8.19 6.19 11.56
10/24/2020 4:30:00 PM 14.54 58.172 0.644 8.2 5.66 11.78
10/24/2020 4:45:00 PM 14.47 58.046 0.644 8.2 5.66 11.9
10/24/2020 5:00:00 PM 14.41 57.938 0.644 8.2 6.32 11.84
10/24/2020 5:15:00 PM 14.34 57.812 0.644 8.19 5.67 11.67
10/24/2020 5:30:00 PM 14.25 57.65 0.644 8.18 6.08 11.57
10/24/2020 5:45:00 PM 14.19 57.542 0.645 8.17 5.69 11.42
10/24/2020 6:00:00 PM 14.12 57.416 0.645 8.15 5.67 11.25
10/24/2020 6:15:00 PM 14.06 57.308 0.646 8.14 5.68 11.1
10/24/2020 6:30:00 PM 14 57.2 0.646 8.12 5.69 10.88
10/24/2020 6:45:00 PM 13.91 57.038 0.646 8.09 5.66 10.69
10/24/2020 7:00:00 PM 13.85 56.93 0.647 8.07 5.6 10.43
10/24/2020 7:15:00 PM 13.78 56.804 0.647 8.04 5.83 10.15
10/24/2020 7:30:00 PM 13.71 56.678 0.647 8.03 5.77 9.82
10/24/2020 7:45:00 PM 13.63 56.534 0.647 8.01 6.33 9.67
10/24/2020 8:00:00 PM 13.57 56.426 0.648 7.99 5.67 9.42
10/24/2020 8:15:00 PM 13.5 56.3 0.648 7.97 5.72 9.25
10/24/2020 8:30:00 PM 13.42 56.156 0.648 7.95 5.86 8.97
10/24/2020 8:45:00 PM 13.37 56.066 0.649 7.94 5.55 8.77
10/24/2020 9:00:00 PM 13.32 55.976 0.649 7.93 5.87 8.63
10/24/2020 9:15:00 PM 13.25 55.85 0.649 7.92 5.72 8.57
10/24/2020 9:30:00 PM 13.21 55.778 0.649 7.9 5.76 8.41
10/24/2020 9:45:00 PM 13.16 55.688 0.649 7.89 8.29 8.15
10/24/2020 10:00:00 PM 13.1 55.58 0.649 7.87 6.51 8.05
10/24/2020 10:15:00 PM 13.02 55.436 0.649 7.87 5.94 8.09
10/24/2020 10:30:00 PM 12.96 55.328 0.649 7.87 5.89 7.89
10/24/2020 10:45:00 PM 12.9 55.22 0.649 7.87 6.35 7.89
10/24/2020 11:00:00 PM 12.85 55.13 0.649 7.86 5.94 7.8
10/24/2020 11:15:00 PM 12.8 55.04 0.649 7.85 5.94 7.73
10/24/2020 11:30:00 PM 12.76 54.968 0.649 7.85 5.76 7.78
10/24/2020 11:45:00 PM 12.7 54.86 0.649 7.85 5.61 7.77
10/25/2020 12:00:00 AM 12.66 54.788 0.649 7.85 5.96 7.7
10/25/2020 12:15:00 AM 12.6 54.68 0.649 7.84 6.1 7.69
10/25/2020 12:30:00 AM 12.54 54.572 0.649 7.84 5.71 7.61
10/25/2020 12:45:00 AM 12.48 54.464 0.649 7.84 5.58 7.64
10/25/2020 1:00:00 AM 12.42 54.356 0.649 7.84 5.98 7.57
10/25/2020 1:15:00 AM 12.34 54.212 0.649 7.83 5.64 7.54
10/25/2020 1:30:00 AM 12.27 54.086 0.649 7.84 5.81 7.45
10/25/2020 1:45:00 AM 12.18 53.924 0.649 7.83 5.75 7.4
10/25/2020 2:00:00 AM 12.1 53.78 0.649 7.83 5.94 7.44
10/25/2020 2:15:00 AM 12.02 53.636 0.648 7.83 6.03 7.44
10/25/2020 2:30:00 AM 11.97 53.546 0.648 7.82 6.51 7.43
10/25/2020 2:45:00 AM 11.9 53.42 0.648 7.83 6.19 7.36
10/25/2020 3:00:00 AM 11.83 53.294 0.648 7.82 5.98 7.41
10/25/2020 3:15:00 AM 11.73 53.114 0.648 7.82 5.93 7.4
10/25/2020 3:30:00 AM 11.68 53.024 0.648 7.82 6.1 7.31
10/25/2020 3:45:00 AM 11.62 52.916 0.648 7.82 5.65 7.26
10/25/2020 4:00:00 AM 11.55 52.79 0.648 7.82 5.71 7.32
10/25/2020 4:15:00 AM 11.47 52.646 0.648 7.82 6.43 7.26
10/25/2020 4:30:00 AM 11.4 52.52 0.648 7.82 5.71 7.29
10/25/2020 4:45:00 AM 11.32 52.376 0.648 7.82 6.06 7.27
10/25/2020 5:00:00 AM 11.27 52.286 0.648 7.81 6.4 7.22
10/25/2020 5:15:00 AM 11.23 52.214 0.648 7.8 8.16 7.03
10/25/2020 5:30:00 AM 11.11 51.998 0.648 7.82 5.88 7.16
10/25/2020 5:45:00 AM 11.05 51.89 0.648 7.8 5.97 7.12
10/25/2020 6:00:00 AM 10.98 51.764 0.648 7.8 6.02 7.15
10/25/2020 6:15:00 AM 10.94 51.692 0.648 7.81 7.13 7.09
10/25/2020 6:30:00 AM 10.9 51.62 0.648 7.8 6.95 7.04
10/25/2020 6:45:00 AM 10.87 51.566 0.648 7.8 5.88 7.02
10/25/2020 7:00:00 AM 10.83 51.494 0.648 7.8 6.03 7
10/25/2020 7:15:00 AM 10.8 51.44 0.648 7.8 8.52 6.93
10/25/2020 7:30:00 AM 10.77 51.386 0.648 7.81 6.04 6.95
10/25/2020 7:45:00 AM 10.74 51.332 0.648 7.8 8.49 6.88
10/25/2020 8:00:00 AM 10.68 51.224 0.648 7.81 6.1 6.98
10/25/2020 8:15:00 AM 10.67 51.206 0.648 7.81 6.18 6.92
10/25/2020 8:30:00 AM 10.64 51.152 0.648 7.8 6.38 6.9
10/25/2020 8:45:00 AM 10.63 51.134 0.648 7.81 6.04 6.95
10/25/2020 9:00:00 AM 10.62 51.116 0.648 7.81 6.64 6.88
10/25/2020 9:15:00 AM 10.6 51.08 0.648 7.81 6.05 6.93
10/25/2020 9:30:00 AM 10.6 51.08 0.648 7.81 6.01 6.95
10/25/2020 9:45:00 AM 10.59 51.062 0.648 7.82 5.99 7.1
10/25/2020 10:00:00 AM 10.61 51.098 0.649 7.83 6.09 7.19
10/25/2020 10:15:00 AM 10.63 51.134 0.649 7.82 5.91 7.27
10/25/2020 10:30:00 AM 10.65 51.17 0.649 7.84 5.95 7.4
10/25/2020 10:45:00 AM 10.67 51.206 0.649 7.85 7.08 7.56
10/25/2020 11:00:00 AM 10.73 51.314 0.649 7.87 7.05 7.84
10/25/2020 11:15:00 AM 10.76 51.368 0.648 7.89 6.32 8.24
10/25/2020 11:30:00 AM 10.83 51.494 0.648 7.91 6.12 8.42
10/25/2020 11:45:00 AM 10.89 51.602 0.648 7.9 5.85 8.36
10/25/2020 12:00:00 PM 10.97 51.746 0.649 7.88 5.88 8.17
10/25/2020 12:15:00 PM 11.07 51.926 0.649 7.88 6.19 8.12
10/25/2020 12:30:00 PM 11.16 52.088 0.649 7.89 7.59 8.21
10/25/2020 12:45:00 PM 11.26 52.268 0.649 7.89 6.01 8.2
10/25/2020 1:00:00 PM 11.35 52.43 0.65 7.85 5.91 7.67
10/25/2020 1:15:00 PM 11.45 52.61 0.649 7.87 5.74 7.85
10/25/2020 1:30:00 PM 11.57 52.826 0.648 7.89 5.89 8
10/25/2020 1:45:00 PM 11.69 53.042 0.648 7.9 5.94 8.58
10/25/2020 2:00:00 PM 11.83 53.294 0.647 7.92 5.7 8.68
10/25/2020 2:15:00 PM 11.95 53.51 0.647 7.92 6.02 8.67
10/25/2020 2:30:00 PM 12.1 53.78 0.646 7.95 5.81 9
10/25/2020 2:45:00 PM 12.18 53.924 0.647 7.95 5.76 9.22
10/25/2020 3:00:00 PM 12.31 54.158 0.646 7.98 5.84 9.41
10/25/2020 3:15:00 PM 12.38 54.284 0.646 7.98 5.7 9.63
10/25/2020 3:30:00 PM 12.42 54.356 0.645 7.98 5.71 9.41
10/25/2020 3:45:00 PM 12.46 54.428 0.645 7.99 6.4 9.8
10/25/2020 4:00:00 PM 12.47 54.446 0.645 7.98 6 9.64
10/25/2020 4:15:00 PM 12.48 54.464 0.644 8.04 5.84 10.5
10/25/2020 4:30:00 PM 12.46 54.428 0.643 8.08 5.95 11.93
10/25/2020 4:45:00 PM 12.4 54.32 0.642 8.21 6.19 12.87
10/25/2020 5:00:00 PM 12.36 54.248 0.642 8.25 6.19 12.6
10/25/2020 5:15:00 PM 12.3 54.14 0.642 8.28 5.91 13.31
10/25/2020 5:30:00 PM 12.24 54.032 0.642 8.3 5.85 13.36
10/25/2020 5:45:00 PM 12.2 53.96 0.642 8.28 5.84 13.26
10/25/2020 6:00:00 PM 12.14 53.852 0.643 8.24 5.95 12.87
10/25/2020 6:15:00 PM 12.11 53.798 0.643 8.22 5.86 12.68
10/25/2020 6:30:00 PM 12.06 53.708 0.643 8.21 6.55 12.54
10/25/2020 6:45:00 PM 12.01 53.618 0.644 8.16 6 12.18
10/25/2020 7:00:00 PM 11.95 53.51 0.644 8.12 6.09 11.77
10/25/2020 7:15:00 PM 11.9 53.42 0.644 8.12 5.87 11.65
10/25/2020 7:30:00 PM 11.85 53.33 0.645 8.09 5.83 11.29
10/25/2020 7:45:00 PM 11.8 53.24 0.645 8.07 5.85 11
10/25/2020 8:00:00 PM 11.75 53.15 0.646 8.05 5.92 10.79
10/25/2020 8:15:00 PM 11.69 53.042 0.646 8.02 6.44 10.52
10/25/2020 8:30:00 PM 11.63 52.934 0.646 7.99 6.09 10.27
10/25/2020 8:45:00 PM 11.58 52.844 0.646 7.98 5.84 10.05
10/25/2020 9:00:00 PM 11.52 52.736 0.647 7.94 5.96 9.81
10/25/2020 9:15:00 PM 11.48 52.664 0.647 7.95 6.22 9.77
10/25/2020 9:30:00 PM 11.45 52.61 0.647 7.94 5.95 9.67
10/25/2020 9:45:00 PM 11.41 52.538 0.647 7.92 6.17 9.47
10/25/2020 10:00:00 PM 11.36 52.448 0.647 7.91 5.82 9.28
10/25/2020 10:15:00 PM 11.34 52.412 0.648 7.9 5.8 9.1
10/25/2020 10:30:00 PM 11.3 52.34 0.648 7.89 5.82 9.05
10/25/2020 10:45:00 PM 11.26 52.268 0.648 7.89 6.06 8.97
10/25/2020 11:00:00 PM 11.24 52.232 0.648 7.88 6.25 8.81
10/25/2020 11:15:00 PM 11.2 52.16 0.648 7.87 5.95 8.84
10/25/2020 11:30:00 PM 11.17 52.106 0.648 7.87 6.05 8.75
10/25/2020 11:45:00 PM 11.13 52.034 0.648 7.87 6.22 8.77
10/26/2020 12:00:00 AM 11.11 51.998 0.648 7.86 6.02 8.64
10/26/2020 12:15:00 AM 11.07 51.926 0.648 7.86 6.15 8.68
10/26/2020 12:30:00 AM 11.05 51.89 0.648 7.85 5.92 8.54
10/26/2020 12:45:00 AM 11.02 51.836 0.648 7.86 5.92 8.47
10/26/2020 1:00:00 AM 11 51.8 0.648 7.85 6.48 8.41
10/26/2020 1:15:00 AM 10.98 51.764 0.647 7.84 6.42 8.22
10/26/2020 1:30:00 AM 10.96 51.728 0.647 7.84 6.08 8.29
10/26/2020 1:45:00 AM 10.93 51.674 0.648 7.83 5.82 8.19
10/26/2020 2:00:00 AM 10.92 51.656 0.648 7.83 5.87 8.1
10/26/2020 2:15:00 AM 10.88 51.584 0.648 7.83 6.45 8.11
10/26/2020 2:30:00 AM 10.85 51.53 0.648 7.83 6.17 8.1
10/26/2020 2:45:00 AM 10.84 51.512 0.648 7.82 5.82 8.12
10/26/2020 3:00:00 AM 10.83 51.494 0.648 7.82 5.77 8.11
10/26/2020 3:15:00 AM 10.81 51.458 0.648 7.82 6.02 7.96
10/26/2020 3:30:00 AM 10.8 51.44 0.648 7.81 6.19 7.97
10/26/2020 3:45:00 AM 10.79 51.422 0.648 7.82 6.18 7.9
10/26/2020 4:00:00 AM 10.78 51.404 0.648 7.81 6.17 7.7
10/26/2020 4:15:00 AM 10.77 51.386 0.648 7.81 6.53 7.65
10/26/2020 4:30:00 AM 10.76 51.368 0.648 7.8 6.18 7.68
10/26/2020 4:45:00 AM 10.75 51.35 0.649 7.81 6.14 7.67
10/26/2020 5:00:00 AM 10.75 51.35 0.649 7.8 6.32 7.58
10/26/2020 5:15:00 AM 10.74 51.332 0.649 7.81 6.24 7.59
10/26/2020 5:30:00 AM 10.72 51.296 0.649 7.8 5.99 7.61
10/26/2020 5:45:00 AM 10.73 51.314 0.649 7.8 6.03 7.52
10/26/2020 6:00:00 AM 10.73 51.314 0.649 7.79 6.19 7.5
10/26/2020 6:15:00 AM 10.72 51.296 0.649 7.81 6.17 7.44
10/26/2020 6:30:00 AM 10.72 51.296 0.649 7.81 6.05 7.59
10/26/2020 6:45:00 AM 10.72 51.296 0.649 7.81 6.19 7.34
10/26/2020 7:00:00 AM 10.72 51.296 0.648 7.8 6.3 7.36
10/26/2020 7:15:00 AM 10.73 51.314 0.648 7.81 6.26 7.3
10/26/2020 7:30:00 AM 10.74 51.332 0.648 7.81 6.4 7.38
10/26/2020 7:45:00 AM 10.75 51.35 0.648 7.8 6.24 7.16
10/26/2020 8:00:00 AM 10.76 51.368 0.648 7.79 7.01 7.16
10/26/2020 8:15:00 AM 10.76 51.368 0.648 7.8 6.29 7.35
10/26/2020 8:30:00 AM 10.77 51.386 0.648 7.79 6.41 7.22
10/26/2020 8:45:00 AM 10.77 51.386 0.647 7.8 6.19 7.29
10/26/2020 9:00:00 AM 10.78 51.404 0.647 7.83 6.31 7.46
10/26/2020 9:15:00 AM 10.8 51.44 0.647 7.83 6.47 7.42
10/26/2020 9:30:00 AM 10.81 51.458 0.647 7.83 6.02 7.4
10/26/2020 9:45:00 AM 10.84 51.512 0.648 7.82 6.1 7.11
10/26/2020 10:00:00 AM 10.85 51.53 0.647 7.84 6.4 7.3
10/26/2020 10:15:00 AM 10.86 51.548 0.647 7.83 6.32 7.52
10/26/2020 10:30:00 AM 10.88 51.584 0.647 7.85 6.11 7.51
10/26/2020 10:45:00 AM 10.9 51.62 0.647 7.85 6.31 7.52
10/26/2020 11:00:00 AM 10.93 51.674 0.647 7.86 5.99 7.52
10/26/2020 11:15:00 AM 10.98 51.764 0.647 7.87 6.11 7.67
10/26/2020 11:30:00 AM 11.01 51.818 0.647 7.87 6.04 7.73
10/26/2020 11:45:00 AM 11.04 51.872 0.647 7.86 6.19 7.56
10/26/2020 12:00:00 PM 11.07 51.926 0.647 7.87 6.01 7.81
10/26/2020 12:15:00 PM 11.11 51.998 0.647 7.9 6.56 8.03
10/26/2020 12:30:00 PM 11.13 52.034 0.646 7.89 6.02 8.15
10/26/2020 12:45:00 PM 11.17 52.106 0.648 7.89 9.77 7.81
10/26/2020 1:00:00 PM 11.2 52.16 0.647 7.92 6.35 8.12
10/26/2020 1:15:00 PM 11.22 52.196 0.646 7.92 5.93 8.32
10/26/2020 1:30:00 PM 11.24 52.232 0.647 7.93 6.02 8.59
10/26/2020 1:45:00 PM 11.26 52.268 0.646 7.94 5.91 8.69
10/26/2020 2:00:00 PM 11.29 52.322 0.646 7.96 5.85 8.84
10/26/2020 2:15:00 PM 11.3 52.34 0.646 7.97 6.21 8.86
10/26/2020 2:30:00 PM 11.32 52.376 0.646 7.99 5.95 9.21
10/26/2020 2:45:00 PM 11.34 52.412 0.647 7.98 5.95 8.89
10/26/2020 3:00:00 PM 11.36 52.448 0.647 7.99 5.91 9.14
10/26/2020 3:15:00 PM 11.38 52.484 0.647 7.98 5.9 8.76
10/26/2020 3:30:00 PM 11.41 52.538 0.647 7.96 6.58 8.79
10/26/2020 3:45:00 PM 11.44 52.592 0.647 7.98 5.91 9.25
10/26/2020 4:00:00 PM 11.46 52.628 0.647 7.97 6.01 8.95
10/26/2020 4:15:00 PM 11.47 52.646 0.646 7.98 5.76 9
10/26/2020 4:30:00 PM 11.49 52.682 0.647 7.96 5.89 8.9
10/26/2020 4:45:00 PM 11.5 52.7 0.647 7.99 5.74 8.68
10/26/2020 5:00:00 PM 11.5 52.7 0.647 8 5.8 9.11
10/26/2020 5:15:00 PM 11.5 52.7 0.647 8 5.79 9.69
10/26/2020 5:30:00 PM 11.5 52.7 0.647 8.01 6.31 9.45
10/26/2020 5:45:00 PM 11.5 52.7 0.647 8.03 6.13 9.97
10/26/2020 6:00:00 PM 11.5 52.7 0.647 8 6.66 9.78
10/26/2020 6:15:00 PM 11.49 52.682 0.647 8.02 6.18 9.93
10/26/2020 6:30:00 PM 11.48 52.664 0.648 8.02 6.28 9.98
10/26/2020 6:45:00 PM 11.47 52.646 0.648 8.01 5.68 9.75
10/26/2020 7:00:00 PM 11.46 52.628 0.648 8 5.7 9.62
10/26/2020 7:15:00 PM 11.45 52.61 0.648 7.99 6.17 9.61
10/26/2020 7:30:00 PM 11.43 52.574 0.649 7.98 5.86 9.51
10/26/2020 7:45:00 PM 11.44 52.592 0.65 7.94 6.15 9.23
10/26/2020 8:00:00 PM 11.41 52.538 0.649 7.91 6.22 9.13
10/26/2020 8:15:00 PM 11.39 52.502 0.65 7.94 6.07 9
10/26/2020 8:30:00 PM 11.35 52.43 0.649 7.93 5.73 8.99
10/26/2020 8:45:00 PM 11.32 52.376 0.65 7.93 6.4 8.9
10/26/2020 9:00:00 PM 11.29 52.322 0.65 7.91 6.37 8.76
10/26/2020 9:15:00 PM 11.26 52.268 0.65 7.91 7.39 8.76
10/26/2020 9:30:00 PM 11.24 52.232 0.65 7.89 5.96 8.48
10/26/2020 9:45:00 PM 11.21 52.178 0.65 7.89 5.87 8.51
10/26/2020 10:00:00 PM 11.18 52.124 0.65 7.89 5.72 8.57
10/26/2020 10:15:00 PM 11.16 52.088 0.65 7.89 5.9 8.42
10/26/2020 10:30:00 PM 11.14 52.052 0.65 7.87 5.79 8.4
10/26/2020 10:45:00 PM 11.12 52.016 0.65 7.87 5.79 8.32
10/26/2020 11:00:00 PM 11.1 51.98 0.65 7.87 5.75 8.27
10/26/2020 11:15:00 PM 11.08 51.944 0.65 7.86 5.97 8.17
10/26/2020 11:30:00 PM 11.03 51.854 0.65 7.86 5.62 8.14
10/26/2020 11:45:00 PM 11.01 51.818 0.65 7.86 5.68 8.1
10/27/2020 12:00:00 AM 11 51.8 0.65 7.85 6.27 7.99
10/27/2020 12:15:00 AM 10.97 51.746 0.65 7.85 5.7 7.99
10/27/2020 12:30:00 AM 10.95 51.71 0.65 7.85 6.32 8.01
10/27/2020 12:45:00 AM 10.94 51.692 0.65 7.83 5.69 7.92
10/27/2020 1:00:00 AM 10.92 51.656 0.65 7.82 6.26 7.73
10/27/2020 1:15:00 AM 10.9 51.62 0.65 7.83 5.95 7.75
10/27/2020 1:30:00 AM 10.87 51.566 0.65 7.82 6.04 7.79
10/27/2020 1:45:00 AM 10.85 51.53 0.65 7.81 5.9 7.75
10/27/2020 2:00:00 AM 10.82 51.476 0.651 7.83 5.98 7.85
10/27/2020 2:15:00 AM 10.8 51.44 0.65 7.83 5.84 7.92
10/27/2020 2:30:00 AM 10.79 51.422 0.651 7.83 5.81 7.76
10/27/2020 2:45:00 AM 10.77 51.386 0.65 7.83 5.9 7.71
10/27/2020 3:00:00 AM 10.77 51.386 0.65 7.82 6.16 7.62
10/27/2020 3:15:00 AM 10.74 51.332 0.65 7.82 5.84 7.74
10/27/2020 3:30:00 AM 10.72 51.296 0.65 7.82 5.99 7.68
10/27/2020 3:45:00 AM 10.7 51.26 0.65 7.82 6.69 7.68
10/27/2020 4:00:00 AM 10.69 51.242 0.651 7.82 15.44 7.54
10/27/2020 4:15:00 AM 10.66 51.188 0.65 7.82 7.09 7.52
10/27/2020 4:30:00 AM 10.65 51.17 0.65 7.82 6.19 7.66
10/27/2020 4:45:00 AM 10.63 51.134 0.65 7.82 6.23 7.63
10/27/2020 5:00:00 AM 10.61 51.098 0.65 7.82 5.92 7.56
10/27/2020 5:15:00 AM 10.6 51.08 0.65 7.81 5.97 7.65
10/27/2020 5:30:00 AM 10.59 51.062 0.65 7.81 5.85 7.58
10/27/2020 5:45:00 AM 10.57 51.026 0.65 7.82 6.69 7.51
10/27/2020 6:00:00 AM 10.57 51.026 0.651 7.8 6.06 7.29
10/27/2020 6:15:00 AM 10.53 50.954 0.65 7.82 7.14 7.36
10/27/2020 6:30:00 AM 10.52 50.936 0.651 7.82 7.48 7.43
10/27/2020 6:45:00 AM 10.51 50.918 0.651 7.82 6.51 7.51
10/27/2020 7:00:00 AM 10.5 50.9 0.651 7.82 5.84 7.46
10/27/2020 7:15:00 AM 10.48 50.864 0.651 7.81 6.1 7.36
10/27/2020 7:30:00 AM 10.48 50.864 0.651 7.81 5.87 7.38
10/27/2020 7:45:00 AM 10.49 50.882 0.652 7.78 5.92 6.99
10/27/2020 8:00:00 AM 10.45 50.81 0.652 7.8 6.15 7.09
10/27/2020 8:15:00 AM 10.44 50.792 0.651 7.8 5.95 7.24
10/27/2020 8:30:00 AM 10.42 50.756 0.651 7.8 6.83 7.19
10/27/2020 8:45:00 AM 10.42 50.756 0.651 7.8 7.58 6.44
10/27/2020 9:00:00 AM 10.44 50.792 0.652 7.79 7.12 6.93
10/27/2020 9:15:00 AM 10.44 50.792 0.652 7.79 6.2 6.87
10/27/2020 9:30:00 AM 10.45 50.81 0.651 7.8 6.12 7.13
10/27/2020 9:45:00 AM 10.45 50.81 0.651 7.8 6.25 7.15
10/27/2020 10:00:00 AM 10.45 50.81 0.651 7.82 6.76 7.21
10/27/2020 10:15:00 AM 10.47 50.846 0.651 7.82 6.67 7.36
10/27/2020 10:30:00 AM 10.49 50.882 0.651 7.83 5.99 7.12
10/27/2020 10:45:00 AM 10.52 50.936 0.651 7.82 6.01 7.32
10/27/2020 11:00:00 AM 10.54 50.972 0.651 7.85 6.03 7.35
10/27/2020 11:15:00 AM 10.59 51.062 0.651 7.83 6.05 7.8
10/27/2020 11:30:00 AM 10.64 51.152 0.651 7.86 5.96 7.95
10/27/2020 11:45:00 AM 10.68 51.224 0.651 7.9 6 8.44
10/27/2020 12:00:00 PM 10.74 51.332 0.65 7.91 6.13 8.99
10/27/2020 12:15:00 PM 10.79 51.422 0.65 7.94 6.07 8.95
10/27/2020 12:30:00 PM 10.84 51.512 0.65 7.95 6.21 9.46
10/27/2020 12:45:00 PM 10.9 51.62 0.649 7.96 6.08 9.72
10/27/2020 1:00:00 PM 10.94 51.692 0.649 7.98 5.89 9.85
10/27/2020 1:15:00 PM 10.98 51.764 0.649 7.96 6.07 9.84
10/27/2020 1:30:00 PM 11.03 51.854 0.649 7.97 5.89 9.84
10/27/2020 1:45:00 PM 11.08 51.944 0.648 8 6.37 9.93
10/27/2020 2:00:00 PM 11.11 51.998 0.648 8 6.08 10.03
10/27/2020 2:15:00 PM 11.14 52.052 0.648 8.04 6.28 10.59
10/27/2020 2:30:00 PM 11.16 52.088 0.648 8.08 5.78 10.79
10/27/2020 2:45:00 PM 11.17 52.106 0.647 8.1 5.94 11.4
10/27/2020 3:00:00 PM 11.17 52.106 0.647 8.12 6.71 11.53
10/27/2020 3:15:00 PM 11.17 52.106 0.646 8.14 6.18 11.8
10/27/2020 3:30:00 PM 11.17 52.106 0.647 8.14 6.34 11.56
10/27/2020 3:45:00 PM 11.17 52.106 0.647 8.11 6.77 11.35
10/27/2020 4:00:00 PM 11.16 52.088 0.647 8.12 6.46 11.49
10/27/2020 4:15:00 PM 11.14 52.052 0.646 8.16 6.68 11.55
10/27/2020 4:30:00 PM 11.13 52.034 0.646 8.18 7.76 12.18
10/27/2020 4:45:00 PM 11.13 52.034 0.443 8.16 13.27 11.4
10/27/2020 5:00:00 PM 11.12 52.016 0.646 8.15 7.5 11.6
10/27/2020 5:15:00 PM 11.08 51.944 0.646 8.18 7.75 12.26
10/27/2020 5:30:00 PM 11.08 51.944 0.646 8.18 6.28 12.3
10/27/2020 5:45:00 PM 11.05 51.89 0.646 8.15 6.44 12.02
10/27/2020 6:00:00 PM 11.04 51.872 0.647 8.15 6.21 11.97
10/27/2020 6:15:00 PM 11 51.8 0.647 8.13 6.58 11.83
10/27/2020 6:30:00 PM 10.98 51.764 0.647 8.12 6.6 11.68
10/27/2020 6:45:00 PM 10.95 51.71 0.647 8.1 6.27 11.46
10/27/2020 7:00:00 PM 10.92 51.656 0.647 8.08 6.21 11.24
10/27/2020 7:15:00 PM 10.91 51.638 0.648 8.07 6.28 11.1
10/27/2020 7:30:00 PM 10.87 51.566 0.648 8.05 6.21 10.94
10/27/2020 7:45:00 PM 10.84 51.512 0.647 8.05 6.25 10.77
10/27/2020 8:00:00 PM 10.82 51.476 0.647 8.03 6.14 10.6
10/27/2020 8:15:00 PM 10.77 51.386 0.646 8.02 6.59 10.45
10/27/2020 8:30:00 PM 10.75 51.35 0.646 8.01 6.23 10.32
10/27/2020 8:45:00 PM 10.72 51.296 0.646 8 6.32 10.23
10/27/2020 9:00:00 PM 10.69 51.242 0.646 7.98 7.51 10.06
10/27/2020 9:15:00 PM 10.68 51.224 0.646 7.96 6.21 9.78
10/27/2020 9:30:00 PM 10.63 51.134 0.645 7.96 6.15 9.77
10/27/2020 9:45:00 PM 10.61 51.098 0.646 7.94 6.31 9.61
10/27/2020 10:00:00 PM 10.6 51.08 0.646 7.93 6.49 9.45
10/27/2020 10:15:00 PM 10.57 51.026 0.646 7.93 6.68 9.47
10/27/2020 10:30:00 PM 10.55 50.99 0.646 7.92 6.17 9.41
10/27/2020 10:45:00 PM 10.52 50.936 0.646 7.92 6.69 9.31
10/27/2020 11:00:00 PM 10.5 50.9 0.646 7.92 6.49 9.28
10/27/2020 11:15:00 PM 10.48 50.864 0.646 7.91 6.54 9.14
10/27/2020 11:30:00 PM 10.45 50.81 0.647 7.9 6.87 9.1
10/27/2020 11:45:00 PM 10.43 50.774 0.647 7.9 6.85 9
10/28/2020 12:00:00 AM 10.43 50.774 0.647 7.89 6.42 8.84
10/28/2020 12:15:00 AM 10.42 50.756 0.647 7.87 6.24 8.71
10/28/2020 12:30:00 AM 10.4 50.72 0.647 7.87 6.47 8.58
10/28/2020 12:45:00 AM 10.38 50.684 0.648 7.86 6.31 8.53
10/28/2020 1:00:00 AM 10.36 50.648 0.648 7.87 6.37 8.75
10/28/2020 1:15:00 AM 10.33 50.594 0.648 7.87 6.44 8.66
10/28/2020 1:30:00 AM 10.32 50.576 0.648 7.87 6.4 8.6
10/28/2020 1:45:00 AM 10.29 50.522 0.648 7.86 6.65 8.47
10/28/2020 2:00:00 AM 10.29 50.522 0.648 7.86 6.3 8.32
10/28/2020 2:15:00 AM 10.29 50.522 0.648 7.85 6.55 8.3
10/28/2020 2:30:00 AM 10.28 50.504 0.648 7.85 6.2 8.31
10/28/2020 2:45:00 AM 10.26 50.468 0.648 7.84 6.33 8.14
10/28/2020 3:00:00 AM 10.24 50.432 0.649 7.83 7.02 8.01
10/28/2020 3:15:00 AM 10.21 50.378 0.649 7.84 6.62 8.16
10/28/2020 3:30:00 AM 10.21 50.378 0.648 7.84 6.43 8.04
10/28/2020 3:45:00 AM 10.19 50.342 0.648 7.83 6.29 8.04
10/28/2020 4:00:00 AM 10.18 50.324 0.648 7.83 6.39 7.96
10/28/2020 4:15:00 AM 10.17 50.306 0.648 7.83 6.43 8.04
10/28/2020 4:30:00 AM 10.16 50.288 0.648 7.82 6.57 8.03
10/28/2020 4:45:00 AM 10.15 50.27 0.647 7.82 6.6 7.87
10/28/2020 5:00:00 AM 10.13 50.234 0.648 7.82 6.24 7.83
10/28/2020 5:15:00 AM 10.11 50.198 0.647 7.82 6.25 7.73
10/28/2020 5:30:00 AM 10.07 50.126 0.647 7.83 6.34 7.89
10/28/2020 5:45:00 AM 10.07 50.126 0.646 7.83 6.86 7.83
10/28/2020 6:00:00 AM 10.05 50.09 0.646 7.84 6.76 7.81
10/28/2020 6:15:00 AM 10.05 50.09 0.645 7.84 6.41 7.8
10/28/2020 6:30:00 AM 10.04 50.072 0.646 7.84 6.51 7.82
10/28/2020 6:45:00 AM 10.04 50.072 0.645 7.84 6.8 7.8
10/28/2020 7:00:00 AM 10.04 50.072 0.645 7.83 6.69 7.76
10/28/2020 7:15:00 AM 10.02 50.036 0.645 7.84 6.55 7.75
10/28/2020 7:30:00 AM 10 50 0.644 7.84 6.52 7.76
10/28/2020 7:45:00 AM 10 50 0.644 7.83 6.56 7.54
10/28/2020 8:00:00 AM 9.98 49.964 0.644 7.83 7.05 7.67
10/28/2020 8:15:00 AM 9.97 49.946 0.644 7.83 6.46 7.56
10/28/2020 8:30:00 AM 9.98 49.964 0.645 7.83 6.58 7.31
10/28/2020 8:45:00 AM 9.97 49.946 0.645 7.82 7.12 7.51
10/28/2020 9:00:00 AM 9.98 49.964 0.645 7.83 7.33 7.48
10/28/2020 9:15:00 AM 9.98 49.964 0.645 7.83 7.27 7.61
10/28/2020 9:30:00 AM 10 50 0.645 7.83 6.72 7.6
10/28/2020 9:45:00 AM 10 50 0.645 7.84 6.74 7.77
10/28/2020 10:00:00 AM 10.01 50.018 0.645 7.86 7.09 7.92
10/28/2020 10:15:00 AM 10.03 50.054 0.645 7.87 7.02 8.19
10/28/2020 10:30:00 AM 10.04 50.072 0.645 7.9 6.51 8.42
10/28/2020 10:45:00 AM 10.06 50.108 0.645 7.89 6.54 8.35
10/28/2020 11:00:00 AM 10.08 50.144 0.645 7.91 6.62 8.5
10/28/2020 11:15:00 AM 10.11 50.198 0.645 7.9 7.29 8.48
10/28/2020 11:30:00 AM 10.15 50.27 0.646 7.92 6.56 8.87
10/28/2020 11:45:00 AM 10.19 50.342 0.645 7.94 6.98 9.11
10/28/2020 12:00:00 PM 10.23 50.414 0.645 7.96 11.95 9.43
10/28/2020 12:15:00 PM 10.28 50.504 0.645 7.98 7.83 9.44
10/28/2020 12:30:00 PM 10.34 50.612 0.645 7.99 6.52 9.45
10/28/2020 12:45:00 PM 10.41 50.738 0.644 8.03 7.03 10.3
10/28/2020 1:00:00 PM 10.45 50.81 0.644 8.02 7.79 9.91
10/28/2020 1:15:00 PM 10.49 50.882 0.644 8.02 6.45 9.95
10/28/2020 1:30:00 PM 10.54 50.972 0.644 8.05 6.63 10.35
10/28/2020 1:45:00 PM 10.59 51.062 0.644 8.08 6.27 10.7
10/28/2020 2:00:00 PM 10.61 51.098 0.644 8.05 6.23 10.19
10/28/2020 2:15:00 PM 10.64 51.152 0.644 8.02 6.35 9.84
10/28/2020 2:30:00 PM 10.73 51.314 0.643 8.08 6.92 10.96
10/28/2020 2:45:00 PM 10.77 51.386 0.644 8.07 6.42 10.78
10/28/2020 3:00:00 PM 10.82 51.476 0.643 8.07 6.66 10.69
10/28/2020 3:15:00 PM 10.86 51.548 0.643 8.05 6.28 10.47
10/28/2020 3:30:00 PM 10.91 51.638 0.642 8.09 6.44 11.08
10/28/2020 3:45:00 PM 10.95 51.71 0.641 8.19 6.2 12.21
10/28/2020 4:00:00 PM 10.96 51.728 0.642 8.14 6.55 11.67
10/28/2020 4:15:00 PM 11 51.8 0.641 8.17 6.36 11.99
10/28/2020 4:30:00 PM 11.02 51.836 0.641 8.16 6.62 11.85
10/28/2020 4:45:00 PM 11.04 51.872 0.641 8.18 6.48 12.45
10/28/2020 5:00:00 PM 11.03 51.854 0.64 8.21 6.22 12.74
10/28/2020 5:15:00 PM 11.02 51.836 0.64 8.26 6.37 13.11
10/28/2020 5:30:00 PM 11 51.8 0.64 8.25 6.55 13.19
10/28/2020 5:45:00 PM 10.95 51.71 0.64 8.27 6.31 13.15
10/28/2020 6:00:00 PM 10.92 51.656 0.641 8.26 6.22 13.04
10/28/2020 6:15:00 PM 10.87 51.566 0.641 8.24 6.28 12.72
10/28/2020 6:30:00 PM 10.83 51.494 0.641 8.23 6.49 12.75
10/28/2020 6:45:00 PM 10.79 51.422 0.642 8.21 6.62 12.56
10/28/2020 7:00:00 PM 10.73 51.314 0.642 8.19 8.54 12.06
10/28/2020 7:15:00 PM 10.68 51.224 0.642 8.18 6.97 12.31
10/28/2020 7:30:00 PM 10.64 51.152 0.642 8.16 6.48 12.09
10/28/2020 7:45:00 PM 10.58 51.044 0.643 8.14 6.49 11.9
10/28/2020 8:00:00 PM 10.52 50.936 0.643 8.12 6.4 11.7
10/28/2020 8:15:00 PM 10.48 50.864 0.643 8.1 6.6 11.46
10/28/2020 8:30:00 PM 10.44 50.792 0.643 8.08 6.29 11.24
10/28/2020 8:45:00 PM 10.39 50.702 0.643 8.06 6.54 11.14
10/28/2020 9:00:00 PM 10.36 50.648 0.644 8.05 6.55 10.94
10/28/2020 9:15:00 PM 10.3 50.54 0.644 8.04 6.52 10.84
10/28/2020 9:30:00 PM 10.26 50.468 0.644 8.02 6.31 10.69
10/28/2020 9:45:00 PM 10.22 50.396 0.644 8.01 6.42 10.56
10/28/2020 10:00:00 PM 10.17 50.306 0.644 7.99 6.32 10.41
10/28/2020 10:15:00 PM 10.13 50.234 0.644 7.99 6.27 10.33
10/28/2020 10:30:00 PM 10.09 50.162 0.644 7.98 6.41 10.2
10/28/2020 10:45:00 PM 10.04 50.072 0.644 7.97 6.29 10.11
10/28/2020 11:00:00 PM 10 50 0.645 7.96 6.28 10.02
10/28/2020 11:15:00 PM 9.99 49.982 0.645 7.95 6.48 9.89
10/28/2020 11:30:00 PM 9.93 49.874 0.644 7.94 6.53 9.86
10/28/2020 11:45:00 PM 9.89 49.802 0.645 7.94 6.36 9.75
10/29/2020 12:00:00 AM 9.87 49.766 0.645 7.93 6.29 9.64
10/29/2020 12:15:00 AM 9.85 49.73 0.645 7.93 6.27 9.53
10/29/2020 12:30:00 AM 9.82 49.676 0.645 7.92 6.68 9.48
10/29/2020 12:45:00 AM 9.8 49.64 0.645 7.91 6.25 9.44
10/29/2020 1:00:00 AM 9.76 49.568 0.645 7.91 6.13 9.35
10/29/2020 1:15:00 AM 9.76 49.568 0.645 7.9 6.85 9.17
10/29/2020 1:30:00 AM 9.74 49.532 0.645 7.89 6.74 9.05
10/29/2020 1:45:00 AM 9.69 49.442 0.645 7.9 6.28 9.19
10/29/2020 2:00:00 AM 9.69 49.442 0.645 7.89 6.25 9
10/29/2020 2:15:00 AM 9.67 49.406 0.645 7.88 6.52 9.01
10/29/2020 2:30:00 AM 9.66 49.388 0.645 7.88 6.14 8.9
10/29/2020 2:45:00 AM 9.64 49.352 0.645 7.88 6.25 8.81
10/29/2020 3:00:00 AM 9.62 49.316 0.645 7.87 6.04 8.81
10/29/2020 3:15:00 AM 9.6 49.28 0.646 7.86 6.23 8.75
10/29/2020 3:30:00 AM 9.58 49.244 0.646 7.86 6.43 8.53
10/29/2020 3:45:00 AM 9.55 49.19 0.646 7.87 6.28 8.6
10/29/2020 4:00:00 AM 9.52 49.136 0.646 7.87 6.29 8.77
10/29/2020 4:15:00 AM 9.51 49.118 0.646 7.86 6.42 8.7
10/29/2020 4:30:00 AM 9.47 49.046 0.646 7.88 6.33 8.79
10/29/2020 4:45:00 AM 9.45 49.01 0.646 7.87 6.58 8.73
10/29/2020 5:00:00 AM 9.43 48.974 0.646 7.87 5.95 8.62
10/29/2020 5:15:00 AM 9.42 48.956 0.646 7.87 6.28 8.56
10/29/2020 5:30:00 AM 9.41 48.938 0.646 7.86 6.4 8.51
10/29/2020 5:45:00 AM 9.39 48.902 0.646 7.86 6.35 8.56
10/29/2020 6:00:00 AM 9.39 48.902 0.646 7.86 6.35 8.44
10/29/2020 6:15:00 AM 9.37 48.866 0.646 7.86 6.8 8.4
10/29/2020 6:30:00 AM 9.36 48.848 0.646 7.86 6.85 8.3
10/29/2020 6:45:00 AM 9.35 48.83 0.646 7.85 6.44 8.41
10/29/2020 7:00:00 AM 9.34 48.812 0.646 7.85 6.2 8.39
10/29/2020 7:15:00 AM 9.33 48.794 0.646 7.85 6.14 8.34
10/29/2020 7:30:00 AM 9.33 48.794 0.646 7.85 6.49 8.23
10/29/2020 7:45:00 AM 9.28 48.704 0.646 7.87 7.11 8.42
10/29/2020 8:00:00 AM 9.31 48.758 0.646 7.86 6.5 8.4
10/29/2020 8:15:00 AM 9.31 48.758 0.645 7.87 6.39 8.17
10/29/2020 8:30:00 AM 9.3 48.74 0.645 7.87 6.18 8.2
10/29/2020 8:45:00 AM 9.31 48.758 0.645 7.87 6.82 8.24
10/29/2020 9:00:00 AM 9.31 48.758 0.645 7.86 6.72 7.87
10/29/2020 9:15:00 AM 9.26 48.668 0.644 7.87 7.23 8.18
10/29/2020 9:30:00 AM 9.29 48.722 0.644 7.87 6.38 8.06
10/29/2020 9:45:00 AM 9.27 48.686 0.643 7.88 6.18 8.32
10/29/2020 10:00:00 AM 9.28 48.704 0.642 7.89 6.27 8.33
10/29/2020 10:15:00 AM 9.29 48.722 0.642 7.88 6.23 8.08
10/29/2020 10:30:00 AM 9.22 48.596 0.639 7.91 6.43 8.65
10/29/2020 10:45:00 AM 9.28 48.704 0.639 7.9 6.36 8.19
10/29/2020 11:00:00 AM 9.24 48.632 0.636 7.92 6.86 8.57
10/29/2020 11:15:00 AM 9.24 48.632 0.634 7.92 7.65 8.63
10/29/2020 11:30:00 AM 9.23 48.614 0.634 7.94 6.37 8.91
10/29/2020 11:45:00 AM 9.24 48.632 0.633 7.96 6.83 9.02
10/29/2020 12:00:00 PM 9.24 48.632 0.632 7.96 6.91 9.19
10/29/2020 12:15:00 PM 9.26 48.668 0.631 7.96 7.78 8.92
10/29/2020 12:30:00 PM 9.25 48.65 0.628 7.97 7.15 9.05
10/29/2020 12:45:00 PM 9.23 48.614 0.625 7.99 7.36 9.26
10/29/2020 1:00:00 PM 9.23 48.614 0.624 8 7.24 9.27
10/29/2020 1:15:00 PM 9.25 48.65 0.623 8 7.38 9.51
10/29/2020 1:30:00 PM 9.25 48.65 0.622 8.01 7.27 9.54
10/29/2020 1:45:00 PM 9.27 48.686 0.622 8.03 7.2 9.76
10/29/2020 2:00:00 PM 9.27 48.686 0.621 8.05 7.51 9.84
10/29/2020 2:15:00 PM 9.27 48.686 0.621 8.05 7.33 10.08
10/29/2020 2:30:00 PM 9.28 48.704 0.621 8.04 7.08 9.89
10/29/2020 2:45:00 PM 9.26 48.668 0.619 8.08 7.03 10.16
10/29/2020 3:00:00 PM 9.25 48.65 0.618 8.08 7.59 10.29
10/29/2020 3:15:00 PM 9.26 48.668 0.618 8.06 6.9 10.39
10/29/2020 3:30:00 PM 9.26 48.668 0.616 8.08 6.76 10.35
10/29/2020 3:45:00 PM 9.24 48.632 0.615 8.06 7.06 10.03
10/29/2020 4:00:00 PM 9.2 48.56 0.61 8.08 7.01 10.31
10/29/2020 4:15:00 PM 9.19 48.542 0.609 8.08 7.49 10.28
10/29/2020 4:30:00 PM 9.16 48.488 0.606 8.1 7.48 10.4
10/29/2020 4:45:00 PM 9.13 48.434 0.605 8.1 7.86 10.43
10/29/2020 5:00:00 PM 9.11 48.398 0.603 8.09 7.58 10.4
10/29/2020 5:15:00 PM 9.11 48.398 0.603 8.08 7.78 10.14
10/29/2020 5:30:00 PM 9.11 48.398 0.605 8.07 7.5 10.09
10/29/2020 5:45:00 PM 9.11 48.398 0.605 8.06 7.62 9.96
10/29/2020 6:00:00 PM 9.1 48.38 0.606 8.03 7.58 10.15
10/29/2020 6:15:00 PM 9.08 48.344 0.607 8.04 7.38 10.13
10/29/2020 6:30:00 PM 9.07 48.326 0.608 8.03 7.64 10.14
10/29/2020 6:45:00 PM 9.05 48.29 0.608 8.01 8.17 9.92
10/29/2020 7:00:00 PM 9.03 48.254 0.611 8.02 8.33 9.91
10/29/2020 7:15:00 PM 9.02 48.236 0.612 7.99 8.58 9.75
10/29/2020 7:30:00 PM 9.01 48.218 0.608 7.97 8.87 9.74
10/29/2020 7:45:00 PM 9.02 48.236 0.608 7.94 9.66 9.57
10/29/2020 8:00:00 PM 9.02 48.236 0.608 7.91 9.38 9.44
10/29/2020 8:15:00 PM 9.03 48.254 0.608 7.92 9.44 9.43
10/29/2020 8:30:00 PM 9.03 48.254 0.604 7.92 8.87 9.26
10/29/2020 8:45:00 PM 9.05 48.29 0.603 7.92 9.26 9.26
10/29/2020 9:00:00 PM 9.05 48.29 0.601 7.92 9.11 9.62
10/29/2020 9:15:00 PM 9.07 48.326 0.602 7.96 9.05 9.48
10/29/2020 9:30:00 PM 9.08 48.344 0.6 7.98 9.45 9.39
10/29/2020 9:45:00 PM 9.08 48.344 0.601 8.02 10.25 9.45
10/29/2020 10:00:00 PM 9.07 48.326 0.601 8.03 10.41 9.58
10/29/2020 10:15:00 PM 9.05 48.29 0.604 8 10.3 9.59
10/29/2020 10:30:00 PM 9.03 48.254 0.608 8.02 10.16 9.34
10/29/2020 10:45:00 PM 9 48.2 0.61 8.02 10.22 9.41
10/29/2020 11:00:00 PM 8.96 48.128 0.613 8.01 10.27 9.3
10/29/2020 11:15:00 PM 8.93 48.074 0.615 8 10.09 9.21
10/29/2020 11:30:00 PM 8.89 48.002 0.616 8 10.29 9.35
10/29/2020 11:45:00 PM 8.86 47.948 0.617 8 9.8 9.38
10/30/2020 12:00:00 AM 8.84 47.912 0.617 8 9.87 9.23
10/30/2020 12:15:00 AM 8.81 47.858 0.617 7.98 9.72 9.21
10/30/2020 12:30:00 AM 8.77 47.786 0.616 7.99 9.91 9.14
10/30/2020 12:45:00 AM 8.75 47.75 0.614 7.99 9.82 9.29
10/30/2020 1:00:00 AM 8.73 47.714 0.614 8 10.29 9.25
10/30/2020 1:15:00 AM 8.71 47.678 0.612 8 9.7 9.17
10/30/2020 1:30:00 AM 8.7 47.66 0.612 7.97 9.59 8.92
10/30/2020 1:45:00 AM 8.69 47.642 0.61 7.97 9.49 9.12
10/30/2020 2:00:00 AM 8.68 47.624 0.609 7.94 9.81 8.89
10/30/2020 2:15:00 AM 8.66 47.588 0.606 7.9 9.58 8.87
10/30/2020 2:30:00 AM 8.64 47.552 0.605 7.9 9.29 8.63
10/30/2020 2:45:00 AM 8.64 47.552 0.607 7.92 9.71 8.87
10/30/2020 3:00:00 AM 8.62 47.516 0.601 7.91 9.43 8.74
10/30/2020 3:15:00 AM 8.62 47.516 0.606 7.87 9.16 8.59
10/30/2020 3:30:00 AM 8.61 47.498 0.605 7.89 8.86 8.6
10/30/2020 3:45:00 AM 8.6 47.48 0.602 7.86 8.73 8.48
10/30/2020 4:00:00 AM 8.58 47.444 0.598 7.89 8.7 8.28
10/30/2020 4:15:00 AM 8.56 47.408 0.596 7.87 8.69 8.32
10/30/2020 4:30:00 AM 8.55 47.39 0.595 7.87 8.83 8.49
10/30/2020 4:45:00 AM 8.51 47.318 0.595 7.81 8.77 8.58
10/30/2020 5:00:00 AM 8.48 47.264 0.586 7.87 8.77 8.6
10/30/2020 5:15:00 AM 8.48 47.264 0.585 7.81 8.61 8.68
10/30/2020 5:30:00 AM 8.47 47.246 0.589 7.84 8.21 8.45
10/30/2020 5:45:00 AM 8.45 47.21 0.585 7.83 8.16 8.49
10/30/2020 6:00:00 AM 8.44 47.192 0.585 7.85 8.18 8.5
10/30/2020 6:15:00 AM 8.41 47.138 0.586 7.85 8 8.69
10/30/2020 6:30:00 AM 8.39 47.102 0.588 7.9 8.02 8.78
10/30/2020 6:45:00 AM 8.39 47.102 0.589 7.94 7.94 8.82
10/30/2020 7:00:00 AM 8.39 47.102 0.589 7.96 7.95 8.84
10/30/2020 7:15:00 AM 8.38 47.084 0.591 7.97 8.49 8.91
10/30/2020 7:30:00 AM 8.37 47.066 0.597 7.98 8.34 9.01
10/30/2020 7:45:00 AM 8.37 47.066 0.597 7.98 8.63 9.01
10/30/2020 8:00:00 AM 8.46 47.228 0.604 7.93 7.88 8.69
10/30/2020 8:15:00 AM 8.44 47.192 0.601 7.9 8.33 8.72
10/30/2020 8:30:00 AM 8.34 47.012 0.603 7.92 8.6 8.95
10/30/2020 8:45:00 AM 8.31 46.958 0.603 7.97 8.72 8.96
10/30/2020 9:00:00 AM 8.28 46.904 0.603 7.95 8.58 9.1
10/30/2020 9:15:00 AM 8.3 46.94 0.608 7.93 8.92 8.88
10/30/2020 9:30:00 AM 8.34 47.012 0.604 7.95 8.6 8.89
10/30/2020 9:45:00 AM 8.3 46.94 0.602 7.96 8.41 9.1
10/30/2020 10:00:00 AM 8.31 46.958 0.6 7.94 11.68 9.23
10/30/2020 10:15:00 AM 8.29 46.922 0.596 7.94 9.5 9.22
10/30/2020 10:30:00 AM 8.29 46.922 0.595 7.93 9.56 9.17
10/30/2020 10:45:00 AM 8.3 46.94 0.588 7.93 9.33 9.23
10/30/2020 11:00:00 AM 8.29 46.922 0.588 7.93 9.64 9.21
10/30/2020 11:15:00 AM 8.28 46.904 0.579 7.93 9.61 9.17
10/30/2020 11:30:00 AM 8.28 46.904 0.573 7.91 10.02 9.18
10/30/2020 11:45:00 AM 8.27 46.886 0.568 7.91 9.86 9.52
10/30/2020 12:00:00 PM 8.28 46.904 0.561 7.92 9.94 9.62
10/30/2020 12:15:00 PM 8.27 46.886 0.555 7.9 10.12 9.6
10/30/2020 12:30:00 PM 8.25 46.85 0.549 7.91 10.02 9.74
10/30/2020 12:45:00 PM 8.24 46.832 0.543 7.92 10.24 9.88
10/30/2020 1:00:00 PM 8.24 46.832 0.535 7.92 10.33 10
10/30/2020 1:15:00 PM 8.25 46.85 0.529 7.93 10.85 10.05
10/30/2020 1:30:00 PM 8.23 46.814 0.522 7.92 10.55 10.1
10/30/2020 1:45:00 PM 8.23 46.814 0.517 7.91 10.72 10.07
10/30/2020 2:00:00 PM 8.24 46.832 0.509 7.92 10.95 10.23
10/30/2020 2:15:00 PM 8.24 46.832 0.502 7.93 10.99 10.27
10/30/2020 2:30:00 PM 8.28 46.904 0.497 7.93 10.89 10.29
10/30/2020 2:45:00 PM 8.28 46.904 0.489 7.94 10.81 10.41
10/30/2020 3:00:00 PM 8.29 46.922 0.483 7.94 10.94 10.45
10/30/2020 3:15:00 PM 8.32 46.976 0.477 7.95 10.83 10.46
10/30/2020 3:30:00 PM 8.38 47.084 0.471 7.95 10.41 10.57
10/30/2020 3:45:00 PM 8.39 47.102 0.464 7.95 10.42 10.61
10/30/2020 4:00:00 PM 8.38 47.084 0.456 7.95 15.99 10.54
10/30/2020 4:15:00 PM 8.37 47.066 0.445 7.96 11.4 10.67
10/30/2020 4:30:00 PM 8.37 47.066 0.434 7.97 10.58 10.67
10/30/2020 4:45:00 PM 8.37 47.066 0.425 7.98 10.48 10.73
10/30/2020 5:00:00 PM 8.36 47.048 0.413 7.97 10.37 10.72
10/30/2020 5:15:00 PM 8.34 47.012 0.404 7.98 10.53 10.74
10/30/2020 5:30:00 PM 8.32 46.976 0.397 7.97 10.07 10.67
10/30/2020 5:45:00 PM 8.3 46.94 0.392 7.96 10.09 10.64
10/30/2020 6:00:00 PM 8.27 46.886 0.389 7.96 10.28 10.61
10/30/2020 6:15:00 PM 8.25 46.85 0.388 7.95 10.18 10.59
10/30/2020 6:30:00 PM 8.23 46.814 0.388 7.94 11.44 10.48
10/30/2020 6:45:00 PM 8.19 46.742 0.387 7.95 10.32 10.63
10/30/2020 7:00:00 PM 8.17 46.706 0.387 7.95 9.98 10.58
10/30/2020 7:15:00 PM 8.15 46.67 0.386 7.95 9.66 10.6
10/30/2020 7:30:00 PM 8.12 46.616 0.385 7.94 9.96 10.55
10/30/2020 7:45:00 PM 8.11 46.598 0.385 7.94 9.49 10.58
10/30/2020 8:00:00 PM 8.08 46.544 0.383 7.93 9.76 10.54
10/30/2020 8:15:00 PM 8.07 46.526 0.381 7.93 9.95 10.54
10/30/2020 8:30:00 PM 8.05 46.49 0.379 7.92 9.38 10.48
10/30/2020 8:45:00 PM 8.04 46.472 0.376 7.92 9.76 10.42
10/30/2020 9:00:00 PM 8.05 46.49 0.376 7.9 9.26 10.53
10/30/2020 9:15:00 PM 8.04 46.472 0.37 7.91 9.77 10.42
10/30/2020 9:30:00 PM 8 46.4 0.366 7.93 11 10.6
10/30/2020 9:45:00 PM 7.97 46.346 0.363 7.94 11.07 10.6
10/30/2020 10:00:00 PM 7.96 46.328 0.361 7.93 10.37 10.55
10/30/2020 10:15:00 PM 7.93 46.274 0.36 7.92 10.35 10.51
10/30/2020 10:30:00 PM 7.91 46.238 0.358 7.91 9.86 10.51
10/30/2020 10:45:00 PM 7.88 46.184 0.358 7.9 9.6 10.43
10/30/2020 11:00:00 PM 7.87 46.166 0.357 7.89 9.5 10.43
10/30/2020 11:15:00 PM 7.85 46.13 0.357 7.89 9.47 10.42
10/30/2020 11:30:00 PM 7.83 46.094 0.358 7.88 9.2 10.33
10/30/2020 11:45:00 PM 7.81 46.058 0.357 7.7 8.98 10.27
10/31/2020 12:00:00 AM 7.8 46.04 0.357 7.68 9.48 10.21
10/31/2020 12:15:00 AM 7.77 45.986 0.357 7.67 9.53 10.08
10/31/2020 12:30:00 AM 7.75 45.95 0.358 7.68 9.01 10.2
10/31/2020 12:45:00 AM 7.73 45.914 0.358 7.69 10.06 10.02
10/31/2020 1:00:00 AM 7.7 45.86 0.357 7.7 9.6 10.05
10/31/2020 1:15:00 AM 7.68 45.824 0.357 7.7 9.32 10.06
10/31/2020 1:30:00 AM 7.66 45.788 0.358 7.71 9.2 10.04
10/31/2020 1:45:00 AM 7.61 45.698 0.359 7.71 9.47 9.95
10/31/2020 2:00:00 AM 7.6 45.68 0.358 7.71 9.47 9.89
10/31/2020 2:15:00 AM 7.58 45.644 0.358 7.71 9.38 9.87
10/31/2020 2:30:00 AM 7.56 45.608 0.358 7.7 9.12 9.84
10/31/2020 2:45:00 AM 7.52 45.536 0.357 7.72 9.11 9.87
10/31/2020 3:00:00 AM 7.5 45.5 0.358 7.73 9.06 9.84
10/31/2020 3:15:00 AM 7.47 45.446 0.361 7.73 9.08 9.76
10/31/2020 3:30:00 AM 7.45 45.41 0.358 7.73 9.1 9.76
10/31/2020 3:45:00 AM 7.45 45.41 0.363 7.72 8.75 9.68
10/31/2020 4:00:00 AM 7.42 45.356 0.362 7.72 9.15 9.69
10/31/2020 4:15:00 AM 7.4 45.32 0.364 7.72 9.03 9.68
10/31/2020 4:30:00 AM 7.37 45.266 0.363 7.73 9.05 9.69
10/31/2020 4:45:00 AM 7.32 45.176 0.365 7.74 9.13 9.67
10/31/2020 5:00:00 AM 7.3 45.14 0.366 7.75 9.13 9.69
10/31/2020 5:15:00 AM 7.27 45.086 0.368 7.73 9.09 9.68
10/31/2020 5:30:00 AM 7.27 45.086 0.37 7.74 9.08 9.67
10/31/2020 5:45:00 AM 7.26 45.068 0.371 7.74 9 9.52
10/31/2020 6:00:00 AM 7.22 44.996 0.372 7.75 8.64 9.59
10/31/2020 6:15:00 AM 7.21 44.978 0.375 7.74 8.82 9.59
10/31/2020 6:30:00 AM 7.2 44.96 0.377 7.75 8.71 9.58
10/31/2020 6:45:00 AM 7.19 44.942 0.379 7.75 8.71 9.47
10/31/2020 7:00:00 AM 7.17 44.906 0.381 7.74 8.79 9.37
10/31/2020 7:15:00 AM 7.16 44.888 0.383 7.74 8.98 9.25
10/31/2020 7:30:00 AM 7.13 44.834 0.387 7.74 8.61 9.48
10/31/2020 7:45:00 AM 7.11 44.798 0.39 7.73 25.25 9.5
10/31/2020 8:00:00 AM 7.13 44.834 0.392 7.71 10.8 9.29
10/31/2020 8:15:00 AM 7.13 44.834 0.395 7.71 8.75 9.02
10/31/2020 8:30:00 AM 7.12 44.816 0.397 7.7 12.67 8.75
10/31/2020 8:45:00 AM 7.1 44.78 0.398 7.68 12.08 9.08
10/31/2020 9:00:00 AM 7.12 44.816 0.402 7.68 10.21 9.02
10/31/2020 9:15:00 AM 7.12 44.816 0.404 7.68 10.02 8.91
10/31/2020 9:30:00 AM 7.12 44.816 0.402 7.69 8.95 8.95
10/31/2020 9:45:00 AM 7.12 44.816 0.403 7.69 9.53 9.19
10/31/2020 10:00:00 AM 7.15 44.87 0.405 7.71 8.69 9.25
10/31/2020 10:15:00 AM 7.17 44.906 0.408 7.73 9 9.21
10/31/2020 10:30:00 AM 7.19 44.942 0.407 7.7 8.69 9.36
10/31/2020 10:45:00 AM 7.19 44.942 0.406 7.75 8.96 9.48
10/31/2020 11:00:00 AM 7.21 44.978 0.408 7.76 8.57 9.68
10/31/2020 11:15:00 AM 7.23 45.014 0.408 7.79 8.45 9.81
10/31/2020 11:30:00 AM 7.25 45.05 0.405 7.81 8.92 10.02
10/31/2020 11:45:00 AM 7.29 45.122 0.406 7.82 8.52 10.16
10/31/2020 12:00:00 PM 7.33 45.194 0.408 7.81 8.45 10.29
10/31/2020 12:15:00 PM 7.38 45.284 0.407 7.81 8.39 10.15
10/31/2020 12:30:00 PM 7.43 45.374 0.408 7.83 8.53 10.34
10/31/2020 12:45:00 PM 7.47 45.446 0.408 7.82 8.71 10.1
10/31/2020 1:00:00 PM 7.53 45.554 0.41 7.83 8.14 10.42
10/31/2020 1:15:00 PM 7.58 45.644 0.406 7.84 8.76 10.41
10/31/2020 1:30:00 PM 7.65 45.77 0.415 7.82 8.37 10.13
10/31/2020 1:45:00 PM 7.73 45.914 0.411 7.83 8.42 10.29
10/31/2020 2:00:00 PM 7.83 46.094 0.41 7.85 7.96 10.27
10/31/2020 2:15:00 PM 7.93 46.274 0.408 7.87 7.61 10.48
10/31/2020 2:30:00 PM 8 46.4 0.406 7.9 7.82 10.55
10/31/2020 2:45:00 PM 8.09 46.562 0.405 7.89 7.89 10.46
10/31/2020 3:00:00 PM 8.14 46.652 0.413 7.83 8.32 10.31
10/31/2020 3:15:00 PM 8.2 46.76 0.409 7.87 7.74 10.56
10/31/2020 3:30:00 PM 8.24 46.832 0.402 7.89 7.62 10.88
10/31/2020 3:45:00 PM 8.27 46.886 0.405 7.88 7.8 10.29
10/31/2020 4:00:00 PM 8.3 46.94 0.406 7.87 7.4 10.3
10/31/2020 4:15:00 PM 8.32 46.976 0.411 7.84 8.04 10.02
10/31/2020 4:30:00 PM 8.32 46.976 0.409 7.85 7.5 10.12
10/31/2020 4:45:00 PM 8.3 46.94 0.409 7.86 7.43 10.12
10/31/2020 5:00:00 PM 8.28 46.904 0.405 7.9 7.42 10.41
10/31/2020 5:15:00 PM 8.24 46.832 0.402 7.9 8.99 10.83
10/31/2020 5:30:00 PM 8.19 46.742 0.401 7.91 8.72 11.16
10/31/2020 5:45:00 PM 8.16 46.688 0.401 7.93 8.73 10.86
10/31/2020 6:00:00 PM 8.11 46.598 0.401 7.92 7.96 10.84
10/31/2020 6:15:00 PM 8.13 46.634 0.411 7.82 9.21 10.23
10/31/2020 6:30:00 PM 8.07 46.526 0.405 7.88 8.36 10.22
10/31/2020 6:45:00 PM 8.05 46.49 0.407 7.86 7.96 10.26
10/31/2020 7:00:00 PM 7.99 46.382 0.404 7.84 7.9 10.02
10/31/2020 7:15:00 PM 7.96 46.328 0.411 7.86 7.65 9.91
10/31/2020 7:30:00 PM 7.92 46.256 0.407 7.84 7.84 9.82
10/31/2020 7:45:00 PM 7.89 46.202 0.418 7.77 8.37 9.64
10/31/2020 8:00:00 PM 7.84 46.112 0.405 7.8 7.68 9.93
10/31/2020 8:15:00 PM 7.81 46.058 0.405 7.83 7.58 10.11
10/31/2020 8:30:00 PM 7.75 45.95 0.405 7.82 7.47 9.98
10/31/2020 8:45:00 PM 7.71 45.878 0.409 7.84 7.36 9.95
10/31/2020 9:00:00 PM 7.66 45.788 0.406 7.83 7.45 10.04
10/31/2020 9:15:00 PM 7.62 45.716 0.407 7.81 8.82 9.98
10/31/2020 9:30:00 PM 7.57 45.626 0.411 7.79 8.21 9.57
10/31/2020 9:45:00 PM 7.55 45.59 0.416 7.78 7.48 9.34
10/31/2020 10:00:00 PM 7.51 45.518 0.415 7.77 7.83 9.39
10/31/2020 10:15:00 PM 7.45 45.41 0.419 7.78 7.67 9.24
10/31/2020 10:30:00 PM 7.41 45.338 0.416 7.76 7.9 9.18
10/31/2020 10:45:00 PM 7.38 45.284 0.417 7.76 7.83 9.14
10/31/2020 11:00:00 PM 7.33 45.194 0.415 7.76 7.69 9.08
10/31/2020 11:15:00 PM 7.3 45.14 0.417 7.77 7.77 9.15
10/31/2020 11:30:00 PM 7.28 45.104 0.419 7.77 7.86 9
10/31/2020 11:45:00 PM 7.23 45.014 0.421 7.74 9.34 8.77
11/1/2020 12:00:00 AM 7.2 44.96 0.421 7.73 7.78 8.61
11/1/2020 12:15:00 AM 7.18 44.924 0.422 7.74 8.2 8.42
11/1/2020 12:30:00 AM 7.17 44.906 0.425 7.73 7.74 8.37
11/1/2020 12:45:00 AM 7.12 44.816 0.425 7.71 7.69 8.35
11/1/2020 1:00:00 AM 7.1 44.78 0.429 7.71 7.92 8.13
11/1/2020 1:15:00 AM 7.05 44.69 0.423 7.72 7.79 8.1
11/1/2020 1:30:00 AM 6.99 44.582 0.422 7.72 7.63 8.06
11/1/2020 1:45:00 AM 6.97 44.546 0.427 7.67 7.99 8.09
11/1/2020 2:00:00 AM 6.94 44.492 0.431 7.71 7.66 8.26
11/1/2020 2:15:00 AM 6.91 44.438 0.428 7.67 7.28 7.87
11/1/2020 2:30:00 AM 6.87 44.366 0.431 7.71 7.82 8.03
11/1/2020 2:45:00 AM 6.84 44.312 0.428 7.69 7.67 8.05
11/1/2020 3:00:00 AM 6.83 44.294 0.433 7.7 7.73 8.17
11/1/2020 3:15:00 AM 6.82 44.276 0.429 7.7 7.54 7.9
11/1/2020 3:30:00 AM 6.79 44.222 0.431 7.7 7.62 8.34
11/1/2020 3:45:00 AM 6.77 44.186 0.43 7.69 7.46 8.16
11/1/2020 4:00:00 AM 6.77 44.186 0.44 7.69 7.69 7.65
11/1/2020 4:15:00 AM 6.78 44.204 0.445 7.69 8.25 7.61
11/1/2020 4:30:00 AM 6.75 44.15 0.431 7.67 7.65 7.8
11/1/2020 4:45:00 AM 6.74 44.132 0.434 7.69 7.49 7.9
11/1/2020 5:00:00 AM 6.71 44.078 0.431 7.69 7.53 8.08
11/1/2020 5:15:00 AM 6.71 44.078 0.435 7.7 8.39 8.15
11/1/2020 5:30:00 AM 6.73 44.114 0.44 7.69 8.02 7.9
11/1/2020 5:45:00 AM 6.71 44.078 0.44 7.69 7.58 7.69
11/1/2020 6:00:00 AM 6.71 44.078 0.437 7.68 8.27 7.99
11/1/2020 6:15:00 AM 6.71 44.078 0.439 7.7 8.17 7.84
11/1/2020 6:30:00 AM 6.73 44.114 0.439 7.65 8.01 7.85
11/1/2020 6:45:00 AM 6.71 44.078 0.443 7.61 7.7 7.75
11/1/2020 7:00:00 AM 6.73 44.114 0.441 7.65 8.1 8.04
11/1/2020 7:15:00 AM 6.72 44.096 0.443 7.64 8.1 8.03
11/1/2020 7:30:00 AM 6.74 44.132 0.441 7.62 8.03 8.03
11/1/2020 7:45:00 AM 6.75 44.15 0.445 7.64 8.26 7.9
11/1/2020 8:00:00 AM 6.74 44.132 0.441 7.65 7.43 7.94
11/1/2020 8:15:00 AM 6.72 44.096 0.443 7.64 7.95 8.32
11/1/2020 8:30:00 AM 6.71 44.078 0.441 7.65 7.69 8.43
11/1/2020 8:45:00 AM 6.73 44.114 0.441 7.65 7.74 8.29
11/1/2020 9:00:00 AM 6.76 44.168 0.442 7.67 7.42 8.45
11/1/2020 9:15:00 AM 6.76 44.168 0.447 7.68 7.7 8.55
11/1/2020 9:30:00 AM 6.79 44.222 0.446 7.68 7.69 8.92
11/1/2020 9:45:00 AM 6.81 44.258 0.444 7.69 8.1 8.91
11/1/2020 10:00:00 AM 6.85 44.33 0.444 7.71 8.12 9.25
11/1/2020 10:15:00 AM 6.88 44.384 0.443 7.74 7.53 9.36
11/1/2020 10:30:00 AM 6.93 44.474 0.446 7.75 10.42 9.25
11/1/2020 10:45:00 AM 6.98 44.564 0.444 7.78 8.18 9.93
11/1/2020 11:00:00 AM 7.04 44.672 0.445 7.85 8.18 10.26
11/1/2020 11:15:00 AM 7.11 44.798 0.448 7.85 7.75 10
11/1/2020 11:30:00 AM 7.16 44.888 0.446 7.85 8.45 9.88
11/1/2020 11:45:00 AM 7.21 44.978 0.449 7.85 8.01 10.09
11/1/2020 12:00:00 PM 7.25 45.05 0.447 7.85 8.14 9.54
11/1/2020 12:15:00 PM 7.3 45.14 0.448 7.87 7.89 10.12
11/1/2020 12:30:00 PM 7.34 45.212 0.45 7.85 7.86 9.52
11/1/2020 12:45:00 PM 7.38 45.284 0.451 7.83 17.9 9.56
11/1/2020 1:00:00 PM 7.41 45.338 0.45 7.81 12.23 10.03
11/1/2020 1:15:00 PM 7.44 45.392 0.452 7.82 9.28 10.23
11/1/2020 1:30:00 PM 7.47 45.446 0.451 7.83 9.67 10.11
11/1/2020 1:45:00 PM 7.5 45.5 0.454 7.84 8.79 10.06
11/1/2020 2:00:00 PM 7.52 45.536 0.449 7.87 10.06 9.58
11/1/2020 2:15:00 PM 7.54 45.572 0.454 7.81 8.73 9.91
11/1/2020 2:30:00 PM 7.55 45.59 0.457 7.79 8.03 9.89
11/1/2020 2:45:00 PM 7.57 45.626 0.453 7.79 8.32 9.57
11/1/2020 3:00:00 PM 7.58 45.644 0.455 7.77 8.41 9.2
11/1/2020 3:15:00 PM 7.58 45.644 0.455 7.78 7.98 9.77
11/1/2020 3:30:00 PM 7.61 45.698 0.456 7.78 7.99 9.57
11/1/2020 3:45:00 PM 7.62 45.716 0.459 7.78 8.09 9.28
11/1/2020 4:00:00 PM 7.63 45.734 0.459 7.79 7.81 9.26
11/1/2020 4:15:00 PM 7.64 45.752 0.458 7.81 8.04 8.82
11/1/2020 4:30:00 PM 7.64 45.752 0.464 7.71 8.24 8.21
11/1/2020 4:45:00 PM 7.63 45.734 0.463 7.77 8.69 8.38
11/1/2020 5:00:00 PM 7.6 45.68 0.463 7.65 8.37 8.58
11/1/2020 5:15:00 PM 7.59 45.662 0.457 7.7 7.99 9.15
11/1/2020 5:30:00 PM 7.59 45.662 0.457 7.84 8.82 9.15
11/1/2020 5:45:00 PM 7.57 45.626 0.456 7.8 8.69 8.8
11/1/2020 6:00:00 PM 7.56 45.608 0.464 7.77 7.99 8.5
11/1/2020 6:15:00 PM 7.55 45.59 0.464 7.76 14.22 8.64
11/1/2020 6:30:00 PM 7.53 45.554 0.466 7.75 8.39 8.15
11/1/2020 6:45:00 PM 7.52 45.536 0.472 7.8 8.24 8.22
11/1/2020 7:00:00 PM 7.49 45.482 0.473 7.74 8.07 8.27
11/1/2020 7:15:00 PM 7.44 45.392 0.462 7.73 7.8 8.33
11/1/2020 7:30:00 PM 7.42 45.356 0.467 7.73 7.68 8.09
11/1/2020 7:45:00 PM 7.4 45.32 0.473 7.73 7.73 8.01
11/1/2020 8:00:00 PM 7.37 45.266 0.47 7.76 7.53 8.08
11/1/2020 8:15:00 PM 7.35 45.23 0.476 7.75 7.57 7.93
11/1/2020 8:30:00 PM 7.34 45.212 0.476 7.75 7.54 7.85
11/1/2020 8:45:00 PM 7.34 45.212 0.473 7.68 7.53 7.4
11/1/2020 9:00:00 PM 7.31 45.158 0.475 7.68 7.45 7.28
11/1/2020 9:15:00 PM 7.27 45.086 0.475 7.71 7.46 7.33
11/1/2020 9:30:00 PM 7.23 45.014 0.479 7.63 7.62 7.25
11/1/2020 9:45:00 PM 7.21 44.978 0.485 7.58 7.56 7.18
11/1/2020 10:00:00 PM 7.14 44.852 0.476 7.62 7.94 7.36
11/1/2020 10:15:00 PM 7.09 44.762 0.478 7.67 8.12 7.4
11/1/2020 10:30:00 PM 7.03 44.654 0.482 7.68 7.51 7.33
11/1/2020 10:45:00 PM 6.98 44.564 0.485 7.67 7.85 7.52
11/1/2020 11:00:00 PM 6.93 44.474 0.479 7.7 7.59 7.39
11/1/2020 11:15:00 PM 6.89 44.402 0.485 7.72 7.32 7.64
11/1/2020 11:30:00 PM 6.84 44.312 0.48 7.7 7.51 7.61
11/1/2020 11:45:00 PM 6.8 44.24 0.484 7.69 7.57 7.82
11/2/2020 12:00:00 AM 6.76 44.168 0.483 7.72 7.59 7.78
11/2/2020 12:15:00 AM 6.74 44.132 0.486 7.74 7.97 7.84
11/2/2020 12:30:00 AM 6.71 44.078 0.489 7.74 7.49 7.83
11/2/2020 12:45:00 AM 6.67 44.006 0.484 7.68 7.46 7.33
11/2/2020 1:00:00 AM 6.64 43.952 0.482 7.7 7.4 7.61
11/2/2020 1:15:00 AM 6.61 43.898 0.484 7.73 7.55 7.71
11/2/2020 1:30:00 AM 6.55 43.79 0.484 7.71 7.56 7.78
11/2/2020 1:45:00 AM 6.55 43.79 0.489 7.71 7.61 7.7
11/2/2020 2:00:00 AM 6.53 43.754 0.49 7.7 7.35 7.67
11/2/2020 2:15:00 AM 6.5 43.7 0.494 7.72 7.8 7.54
11/2/2020 2:30:00 AM 6.45 43.61 0.483 7.73 7.72 7.7
11/2/2020 2:45:00 AM 6.43 43.574 0.487 7.71 7.62 7.72
11/2/2020 3:00:00 AM 6.38 43.484 0.488 7.72 7.44 8.07
11/2/2020 3:15:00 AM 6.37 43.466 0.487 7.73 7.4 8.3
11/2/2020 3:30:00 AM 6.34 43.412 0.485 7.72 7.6 8.37
11/2/2020 3:45:00 AM 6.31 43.358 0.486 7.71 7.68 8.4
11/2/2020 4:00:00 AM 6.27 43.286 0.486 7.73 7.4 8.52
11/2/2020 4:15:00 AM 6.23 43.214 0.486 7.75 7.69 8.78
11/2/2020 4:30:00 AM 6.2 43.16 0.486 7.75 7.57 8.8
11/2/2020 4:45:00 AM 6.15 43.07 0.486 7.74 7.54 8.79
11/2/2020 5:00:00 AM 6.12 43.016 0.486 7.75 7.49 8.91
11/2/2020 5:15:00 AM 6.09 42.962 0.488 7.76 7.51 8.99
11/2/2020 5:30:00 AM 6.07 42.926 0.487 7.76 8.32 8.81
11/2/2020 5:45:00 AM 6.07 42.926 0.488 7.76 7.7 8.72
11/2/2020 6:00:00 AM 6 42.8 0.488 7.76 7.59 8.95
11/2/2020 6:15:00 AM 5.96 42.728 0.488 7.77 7.56 9.06
11/2/2020 6:30:00 AM 5.92 42.656 0.487 7.79 7.57 9.24
11/2/2020 6:45:00 AM 5.87 42.566 0.488 7.8 7.53 9.32
11/2/2020 7:00:00 AM 5.88 42.584 0.49 7.79 7.46 9.19
11/2/2020 7:15:00 AM 5.87 42.566 0.492 7.76 8.01 8.75
11/2/2020 7:30:00 AM 5.84 42.512 0.491 7.75 7.66 8.55
11/2/2020 7:45:00 AM 5.8 42.44 0.494 7.75 7.52 8.65
11/2/2020 8:00:00 AM 5.79 42.422 0.493 7.75 7.85 8.7
11/2/2020 8:15:00 AM 5.69 42.242 0.493 7.78 7.6 9.1
11/2/2020 8:30:00 AM 5.65 42.17 0.492 7.82 7.65 9.35
11/2/2020 8:45:00 AM 5.6 42.08 0.491 7.81 7.63 9.53
11/2/2020 9:00:00 AM 5.57 42.026 0.492 7.85 7.7 9.81
11/2/2020 9:15:00 AM 5.51 41.918 0.493 7.88 8 10.19
11/2/2020 9:30:00 AM 5.54 41.972 0.494 7.88 7.69 9.93
11/2/2020 9:45:00 AM 5.52 41.936 0.494 7.86 7.64 9.99
11/2/2020 10:00:00 AM 5.52 41.936 0.495 7.88 7.82 10.14
11/2/2020 10:15:00 AM 5.57 42.026 0.494 7.89 8.33 10.14
11/2/2020 10:30:00 AM 5.61 42.098 0.496 7.89 7.73 10.19
11/2/2020 10:45:00 AM 5.64 42.152 0.496 7.88 8.95 9.96
11/2/2020 11:00:00 AM 5.61 42.098 0.501 7.8 8.83 9.92
11/2/2020 11:15:00 AM 5.7 42.26 0.502 7.78 9.62 9.82
11/2/2020 11:30:00 AM 5.77 42.386 0.503 7.78 9.4 9.78
11/2/2020 11:45:00 AM 5.83 42.494 0.502 7.78 7.95 9.6
11/2/2020 12:00:00 PM 5.91 42.638 0.504 7.8 7.91 9.48
11/2/2020 12:15:00 PM 5.94 42.692 0.498 7.81 7.56 9.56
11/2/2020 12:30:00 PM 6.02 42.836 0.502 7.82 7.65 9.26
11/2/2020 12:45:00 PM 6.09 42.962 0.502 7.81 7.44 9.23
11/2/2020 1:00:00 PM 6.19 43.142 0.501 7.86 7.6 9.37
11/2/2020 1:15:00 PM 6.28 43.304 0.501 7.85 7.8 9.57
11/2/2020 1:30:00 PM 6.36 43.448 0.501 7.84 7.78 9.52
11/2/2020 1:45:00 PM 6.45 43.61 0.503 7.87 7.7 9.77
11/2/2020 2:00:00 PM 6.54 43.772 0.504 7.86 7.84 9.73
11/2/2020 2:15:00 PM 6.6 43.88 0.503 7.85 7.35 9.6
11/2/2020 2:30:00 PM 6.65 43.97 0.502 7.88 7.55 9.68
11/2/2020 2:45:00 PM 6.71 44.078 0.503 7.85 7.85 9.53
11/2/2020 3:00:00 PM 6.76 44.168 0.505 7.86 7.8 9.45
11/2/2020 3:15:00 PM 6.78 44.204 0.504 7.91 7.77 9.78
11/2/2020 3:30:00 PM 6.81 44.258 0.508 7.88 7.59 10.16
11/2/2020 3:45:00 PM 6.8 44.24 0.509 7.89 8.16 10.53
11/2/2020 4:00:00 PM 6.79 44.222 0.508 7.95 7.33 10.99
11/2/2020 4:15:00 PM 6.79 44.222 0.507 7.95 7.87 10.81
11/2/2020 4:30:00 PM 6.76 44.168 0.508 7.96 7.53 10.89
11/2/2020 4:45:00 PM 6.76 44.168 0.509 7.95 8.23 10.66
11/2/2020 5:00:00 PM 6.72 44.096 0.51 7.94 7.86 10.64
11/2/2020 5:15:00 PM 6.69 44.042 0.51 7.94 7.91 10.62
11/2/2020 5:30:00 PM 6.6 43.88 0.509 7.92 7.95 10.66
11/2/2020 5:45:00 PM 6.54 43.772 0.508 7.97 7.72 11.14
11/2/2020 6:00:00 PM 6.51 43.718 0.511 7.99 7.68 11.06
11/2/2020 6:15:00 PM 6.44 43.592 0.512 7.95 7.75 10.88
11/2/2020 6:30:00 PM 6.38 43.484 0.511 7.96 7.33 10.83
11/2/2020 6:45:00 PM 6.34 43.412 0.512 7.96 8.21 10.63
11/2/2020 7:00:00 PM 6.3 43.34 0.513 7.94 7.77 10.6
11/2/2020 7:15:00 PM 6.29 43.322 0.512 7.93 8.05 10.32
11/2/2020 7:30:00 PM 6.24 43.232 0.514 7.91 7.78 10.32
11/2/2020 7:45:00 PM 6.19 43.142 0.515 7.93 7.97 10.32
11/2/2020 8:00:00 PM 6.16 43.088 0.517 7.9 8.07 10.28
11/2/2020 8:15:00 PM 6.15 43.07 0.521 7.92 8.17 10.25
11/2/2020 8:30:00 PM 6.13 43.034 0.518 7.9 7.39 9.9
11/2/2020 8:45:00 PM 6.1 42.98 0.521 7.88 8.15 9.93
11/2/2020 9:00:00 PM 6.09 42.962 0.52 7.88 7.76 9.63
11/2/2020 9:15:00 PM 6.06 42.908 0.522 7.88 8.49 9.62
11/2/2020 9:30:00 PM 6.04 42.872 0.521 7.89 7.91 9.56
11/2/2020 9:45:00 PM 6.04 42.872 0.523 7.82 7.74 8.98
11/2/2020 10:00:00 PM 6.02 42.836 0.521 7.84 7.75 9.01
11/2/2020 10:15:00 PM 5.99 42.782 0.524 7.83 7.7 9
11/2/2020 10:30:00 PM 6 42.8 0.527 7.77 7.6 8.68
11/2/2020 10:45:00 PM 6.02 42.836 0.53 7.79 8.2 8.26
11/2/2020 11:00:00 PM 5.96 42.728 0.527 7.79 8.28 8.19
11/2/2020 11:15:00 PM 5.9 42.62 0.526 7.78 8.7 8.45
11/2/2020 11:30:00 PM 5.9 42.62 0.528 7.81 8.64 8.44
11/2/2020 11:45:00 PM 5.88 42.584 0.527 7.79 8.07 8.65
11/3/2020 12:00:00 AM 5.87 42.566 0.532 7.78 8.31 8.65
11/3/2020 12:15:00 AM 5.89 42.602 0.534 7.77 8.03 8.35
11/3/2020 12:30:00 AM 5.87 42.566 0.536 7.76 9.36 8.47
11/3/2020 12:45:00 AM 5.83 42.494 0.531 7.75 8.27 8.28
11/3/2020 1:00:00 AM 5.83 42.494 0.54 7.75 10.63 8.2
11/3/2020 1:15:00 AM 5.83 42.494 0.539 7.75 9.16 7.87
11/3/2020 1:30:00 AM 5.84 42.512 0.539 7.74 8.16 7.85
11/3/2020 1:45:00 AM 5.81 42.458 0.535 7.75 8.52 7.95
11/3/2020 2:00:00 AM 5.8 42.44 0.539 7.74 7.76 8.01
11/3/2020 2:15:00 AM 5.81 42.458 0.536 7.74 8.74 7.47
11/3/2020 2:30:00 AM 5.79 42.422 0.543 7.75 8.82 7.75
11/3/2020 2:45:00 AM 5.73 42.314 0.539 7.75 8.3 7.91
11/3/2020 3:00:00 AM 5.72 42.296 0.54 7.75 14.18 7.98
11/3/2020 3:15:00 AM 5.7 42.26 0.539 7.68 13.61 8.08
11/3/2020 3:30:00 AM 5.68 42.224 0.539 7.72 10.46 8.17
11/3/2020 3:45:00 AM 5.61 42.098 0.541 7.78 9.32 8.28
11/3/2020 4:00:00 AM 5.59 42.062 0.544 7.76 9.22 8.32
11/3/2020 4:15:00 AM 5.56 42.008 0.536 7.75 8.85 8.17
11/3/2020 4:30:00 AM 5.54 41.972 0.539 7.76 8.98 7.92
11/3/2020 4:45:00 AM 5.52 41.936 0.541 7.76 8.92 8.14
11/3/2020 5:00:00 AM 5.56 42.008 0.545 7.77 9.12 7.89
11/3/2020 5:15:00 AM 5.55 41.99 0.546 7.71 8.26 7.82
11/3/2020 5:30:00 AM 5.5 41.9 0.541 7.74 8.16 7.98
11/3/2020 5:45:00 AM 5.48 41.864 0.537 7.72 8.29 7.7
11/3/2020 6:00:00 AM 5.48 41.864 0.542 7.7 8.46 7.61
11/3/2020 6:15:00 AM 5.48 41.864 0.54 7.68 8.42 7.4
11/3/2020 6:30:00 AM 5.48 41.864 0.545 7.7 8.19 7.47
11/3/2020 6:45:00 AM 5.47 41.846 0.546 7.71 8.34 7.39
11/3/2020 7:00:00 AM 5.49 41.882 0.545 7.69 8.23 7.15
11/3/2020 7:15:00 AM 5.52 41.936 0.548 7.67 9.2 6.78
11/3/2020 7:30:00 AM 5.51 41.918 0.542 7.64 9.5 6.67
11/3/2020 7:45:00 AM 5.54 41.972 0.542 7.62 8.51 6.57
11/3/2020 8:00:00 AM 5.53 41.954 0.542 7.64 8.85 6.51
11/3/2020 8:15:00 AM 5.54 41.972 0.543 7.64 8.7 6.45
11/3/2020 8:30:00 AM 5.54 41.972 0.542 7.65 8.66 6.49
11/3/2020 8:45:00 AM 5.57 42.026 0.543 7.67 8.27 6.47
11/3/2020 9:00:00 AM 5.64 42.152 0.547 7.62 8.39 5.55
11/3/2020 9:15:00 AM 5.57 42.026 0.544 7.65 8.31 6.47
11/3/2020 9:30:00 AM 5.57 42.026 0.541 7.67 8.62 7.2
11/3/2020 9:45:00 AM 5.64 42.152 0.549 7.61 9.26 6.59
11/3/2020 10:00:00 AM 5.64 42.152 0.547 7.61 10.54 6.74
11/3/2020 10:15:00 AM 5.6 42.08 0.54 7.66 8.55 7.56
11/3/2020 10:30:00 AM 5.64 42.152 0.54 7.69 9.84 7.57
11/3/2020 10:45:00 AM 5.65 42.17 0.537 7.69 10.09 7.88
11/3/2020 11:00:00 AM 5.68 42.224 0.538 7.68 10.85 7.63
11/3/2020 11:15:00 AM 5.73 42.314 0.538 7.66 9.03 7.35
11/3/2020 11:30:00 AM 5.76 42.368 0.539 7.67 10.76 7.54
11/3/2020 11:45:00 AM 5.8 42.44 0.539 7.7 8.7 7.86
11/3/2020 12:00:00 PM 5.83 42.494 0.539 7.68 9.52 7.8
11/3/2020 12:15:00 PM 5.88 42.584 0.537 7.72 30.31 8.28
11/3/2020 12:30:00 PM 5.94 42.692 0.537 7.73 9.57 8.84
11/3/2020 12:45:00 PM 5.99 42.782 0.535 7.77 9.5 9.02
11/3/2020 1:00:00 PM 6.06 42.908 0.535 7.82 8.38 9.58
11/3/2020 1:15:00 PM 6.12 43.016 0.533 7.85 8.58 10.01
11/3/2020 1:30:00 PM 6.18 43.124 0.533 7.87 8.23 9.81
11/3/2020 1:45:00 PM 6.25 43.25 0.532 7.83 8.4 9.49
11/3/2020 2:00:00 PM 6.31 43.358 0.534 7.82 9.92 9.04
11/3/2020 2:15:00 PM 6.35 43.43 0.532 7.81 8.77 9.43
11/3/2020 2:30:00 PM 6.4 43.52 0.532 7.81 8.49 9.34
11/3/2020 2:45:00 PM 6.46 43.628 0.534 7.81 8.19 9.18
11/3/2020 3:00:00 PM 6.53 43.754 0.533 7.82 9.1 9.2
11/3/2020 3:15:00 PM 6.61 43.898 0.53 7.86 8.71 10.27
11/3/2020 3:30:00 PM 6.64 43.952 0.533 7.84 9.29 9.59
11/3/2020 3:45:00 PM 6.71 44.078 0.536 7.86 15.83 9.86
11/3/2020 4:00:00 PM 6.75 44.15 0.533 7.89 9.41 10.5
11/3/2020 4:15:00 PM 6.78 44.204 0.534 7.89 9.53 10.38
11/3/2020 4:30:00 PM 6.81 44.258 0.537 7.83 9.58 9.72
11/3/2020 4:45:00 PM 6.83 44.294 0.538 7.81 9.77 9.13
11/3/2020 5:00:00 PM 6.85 44.33 0.541 7.77 9.21 8.46
11/3/2020 5:15:00 PM 6.84 44.312 0.538 7.76 9.11 9.4
11/3/2020 5:30:00 PM 6.84 44.312 0.532 7.87 8.78 10.49
11/3/2020 5:45:00 PM 6.85 44.33 0.534 7.9 8.81 10.35
11/3/2020 6:00:00 PM 6.83 44.294 0.534 7.89 9.37 9.49
11/3/2020 6:15:00 PM 6.82 44.276 0.537 7.83 9.31 9.42
11/3/2020 6:30:00 PM 6.79 44.222 0.536 7.82 8.65 8.82
11/3/2020 6:45:00 PM 6.79 44.222 0.537 7.77 9.12 8.49
11/3/2020 7:00:00 PM 6.75 44.15 0.541 7.77 8.97 8.8
11/3/2020 7:15:00 PM 6.71 44.078 0.542 7.77 9.23 8.63
11/3/2020 7:30:00 PM 6.67 44.006 0.54 7.77 8.96 8.58
11/3/2020 7:45:00 PM 6.6 43.88 0.538 7.77 8.64 8.88
11/3/2020 8:00:00 PM 6.59 43.862 0.543 7.76 9.19 8.66
11/3/2020 8:15:00 PM 6.57 43.826 0.539 7.75 9.69 8.65
11/3/2020 8:30:00 PM 6.53 43.754 0.54 7.77 9.78 8.72
11/3/2020 8:45:00 PM 6.49 43.682 0.543 7.79 8.72 8.93
11/3/2020 9:00:00 PM 6.45 43.61 0.543 7.79 9.4 8.98
11/3/2020 9:15:00 PM 6.4 43.52 0.543 7.81 8.79 8.97
11/3/2020 9:30:00 PM 6.38 43.484 0.542 7.78 8.89 8.7
11/3/2020 9:45:00 PM 6.35 43.43 0.545 7.81 9.05 8.83
11/3/2020 10:00:00 PM 6.31 43.358 0.544 7.77 9.36 8.76
11/3/2020 10:15:00 PM 6.27 43.286 0.545 7.78 8.55 8.86
11/3/2020 10:30:00 PM 6.23 43.214 0.545 7.76 9.56 8.84
11/3/2020 10:45:00 PM 6.18 43.124 0.546 7.78 8.71 8.9
11/3/2020 11:00:00 PM 6.13 43.034 0.543 7.77 9.44 9.09
11/3/2020 11:15:00 PM 6.08 42.944 0.543 7.8 9.94 8.99
11/3/2020 11:30:00 PM 6.06 42.908 0.547 7.77 9.4 9.18
11/3/2020 11:45:00 PM 6.07 42.926 0.546 7.76 10.13 8.95
11/4/2020 12:00:00 AM 6.05 42.89 0.548 7.77 10 8.79
11/4/2020 12:15:00 AM 6.05 42.89 0.549 7.73 8.93 8.37
11/4/2020 12:30:00 AM 6.02 42.836 0.546 7.74 8.81 8.35
11/4/2020 12:45:00 AM 6.02 42.836 0.552 7.75 9.17 8.36
11/4/2020 1:00:00 AM 6.02 42.836 0.552 7.73 8.8 8.23
11/4/2020 1:15:00 AM 5.93 42.674 0.549 7.74 8.57 8.32
11/4/2020 1:30:00 AM 5.92 42.656 0.551 7.73 9.41 8.15
11/4/2020 1:45:00 AM 5.9 42.62 0.551 7.71 8.88 8.05
11/4/2020 2:00:00 AM 5.87 42.566 0.554 7.72 9.14 7.93
11/4/2020 2:15:00 AM 5.83 42.494 0.552 7.72 8.88 7.99
11/4/2020 2:30:00 AM 5.81 42.458 0.552 7.72 8.48 8.02
11/4/2020 2:45:00 AM 5.78 42.404 0.553 7.72 8.95 8.08
11/4/2020 3:00:00 AM 5.77 42.386 0.554 7.7 9.1 7.79
11/4/2020 3:15:00 AM 5.77 42.386 0.557 7.69 8.91 7.62
11/4/2020 3:30:00 AM 5.71 42.278 0.557 7.69 9.4 7.5
11/4/2020 3:45:00 AM 5.7 42.26 0.562 7.69 8.92 7.86
11/4/2020 4:00:00 AM 5.68 42.224 0.56 7.67 9.45 7.79
11/4/2020 4:15:00 AM 5.64 42.152 0.56 7.66 8.98 7.59
11/4/2020 4:30:00 AM 5.62 42.116 0.562 7.66 9.46 7.48
11/4/2020 4:45:00 AM 5.55 41.99 0.556 7.67 9.18 7.68
11/4/2020 5:00:00 AM 5.5 41.9 0.557 7.69 9.19 7.98
11/4/2020 5:15:00 AM 5.45 41.81 0.559 7.7 9.1 8.14
11/4/2020 5:30:00 AM 5.43 41.774 0.563 7.7 9.02 8.06
11/4/2020 5:45:00 AM 5.39 41.702 0.563 7.72 9.35 8.08
11/4/2020 6:00:00 AM 5.34 41.612 0.561 7.72 9.29 7.85
11/4/2020 6:15:00 AM 5.34 41.612 0.565 7.72 9.22 8.05
11/4/2020 6:30:00 AM 5.37 41.666 0.565 7.69 9.67 7.72
11/4/2020 6:45:00 AM 5.34 41.612 0.57 7.65 9.59 7.54
11/4/2020 7:00:00 AM 5.35 41.63 0.565 7.65 9.49 7.17
11/4/2020 7:15:00 AM 5.39 41.702 0.575 7.59 11.33 6.59
11/4/2020 7:30:00 AM 5.36 41.648 0.574 7.59 10.7 6.79
11/4/2020 7:45:00 AM 5.39 41.702 0.571 7.59 9.99 6.56
11/4/2020 8:00:00 AM 5.28 41.504 0.567 7.6 9.85 7.11
11/4/2020 8:15:00 AM 5.15 41.27 0.56 7.66 9.72 7.88
11/4/2020 8:30:00 AM 5.11 41.198 0.558 7.7 9.68 8.42
11/4/2020 8:45:00 AM 5.17 41.306 0.56 7.71 10.3 8.09
11/4/2020 9:00:00 AM 5.2 41.36 0.559 7.7 10.28 7.99
11/4/2020 9:15:00 AM 5.12 41.216 0.563 7.7 10.92 7.76
11/4/2020 9:30:00 AM 5.24 41.432 0.566 7.67 10.95 7.41
11/4/2020 9:45:00 AM 5.24 41.432 0.567 7.65 10.68 7.34
11/4/2020 10:00:00 AM 5.23 41.414 0.565 7.64 11.52 7.09
11/4/2020 10:15:00 AM 5.26 41.468 0.568 7.57 10.93 7.08
11/4/2020 10:30:00 AM 5.29 41.522 0.57 7.57 10.74 6.67
11/4/2020 10:45:00 AM 5.3 41.54 0.57 7.58 10.5 6.84
11/4/2020 11:00:00 AM 5.21 41.378 0.565 7.65 9.6 7.2
11/4/2020 11:15:00 AM 5.26 41.468 0.565 7.64 9.83 7.75
11/4/2020 11:30:00 AM 5.31 41.558 0.566 7.65 9.97 8.04
11/4/2020 11:45:00 AM 5.34 41.612 0.563 7.68 9.94 8.06
11/4/2020 12:00:00 PM 5.34 41.612 0.562 7.72 9.55 8.59
11/4/2020 12:15:00 PM 5.4 41.72 0.561 7.78 9.7 9.13
11/4/2020 12:30:00 PM 5.48 41.864 0.559 7.77 9.59 9.04
11/4/2020 12:45:00 PM 5.56 42.008 0.556 7.88 9.35 10.05
11/4/2020 1:00:00 PM 5.77 42.386 0.56 7.8 24.63 9.83
11/4/2020 1:15:00 PM 5.9 42.62 0.556 7.89 12.33 10.81
11/4/2020 1:30:00 PM 5.98 42.764 0.554 7.88 10.89 10.79
11/4/2020 1:45:00 PM 6.08 42.944 0.554 7.94 12.38 11.34
11/4/2020 2:00:00 PM 6.17 43.106 0.552 7.98 10.57 11.62
11/4/2020 2:15:00 PM 6.3 43.34 0.553 7.96 10.37 11.38
11/4/2020 2:30:00 PM 6.42 43.556 0.552 8.01 11.09 12.03
11/4/2020 2:45:00 PM 6.51 43.718 0.551 7.99 10.05 11.75
11/4/2020 3:00:00 PM 6.67 44.006 0.553 7.95 11.47 11.01
11/4/2020 3:15:00 PM 6.75 44.15 0.553 7.9 11.04 10.57
11/4/2020 3:30:00 PM 6.87 44.366 0.552 7.91 11.4 10.48
11/4/2020 3:45:00 PM 6.93 44.474 0.554 7.86 20.5 10.43
11/4/2020 4:00:00 PM 6.97 44.546 0.554 7.86 15.9 10.24
11/4/2020 4:15:00 PM 7.02 44.636 0.553 7.85 11.71 10.08
11/4/2020 4:30:00 PM 7.06 44.708 0.553 7.84 10.34 9.91
11/4/2020 4:45:00 PM 7.1 44.78 0.553 7.82 10.07 9.75
11/4/2020 5:00:00 PM 7.17 44.906 0.552 7.81 10.79 9.64
11/4/2020 5:15:00 PM 7.19 44.942 0.552 7.83 10.37 9.63
11/4/2020 5:30:00 PM 7.23 45.014 0.551 7.82 10.46 9.54
11/4/2020 5:45:00 PM 7.25 45.05 0.551 7.84 10.3 9.89
11/4/2020 6:00:00 PM 7.26 45.068 0.552 7.83 9.88 9.76
11/4/2020 6:15:00 PM 7.27 45.086 0.552 7.9 12.25 10.9
11/4/2020 6:30:00 PM 7.27 45.086 0.552 7.91 12.49 10.95
11/4/2020 6:45:00 PM 7.28 45.104 0.552 7.9 11 10.61
11/4/2020 7:00:00 PM 7.29 45.122 0.553 7.87 13.55 10.16
11/4/2020 7:15:00 PM 7.3 45.14 0.553 7.83 14.33 9.42
11/4/2020 7:30:00 PM 7.3 45.14 0.554 7.79 11.1 8.83
11/4/2020 7:45:00 PM 7.3 45.14 0.554 7.75 10.86 8.39
11/4/2020 8:00:00 PM 7.3 45.14 0.557 7.73 9.95 7.86
11/4/2020 8:15:00 PM 7.29 45.122 0.556 7.69 10.4 7.34
11/4/2020 8:30:00 PM 7.28 45.104 0.558 7.67 10.23 6.93
11/4/2020 8:45:00 PM 7.26 45.068 0.558 7.67 10.2 6.74
11/4/2020 9:00:00 PM 7.24 45.032 0.563 7.64 10.69 6.52
11/4/2020 9:15:00 PM 7.23 45.014 0.562 7.62 11.03 6.5
11/4/2020 9:30:00 PM 7.21 44.978 0.563 7.59 10.22 6.34
11/4/2020 9:45:00 PM 7.17 44.906 0.561 7.6 10.42 6.59
11/4/2020 10:00:00 PM 7.15 44.87 0.563 7.61 10.72 6.44
11/4/2020 10:15:00 PM 7.12 44.816 0.561 7.63 10.17 6.64
11/4/2020 10:30:00 PM 7.09 44.762 0.561 7.66 10.81 6.99
11/4/2020 10:45:00 PM 7.04 44.672 0.559 7.68 9.83 7.42
11/4/2020 11:00:00 PM 7 44.6 0.56 7.71 9.78 7.76
11/4/2020 11:15:00 PM 6.95 44.51 0.559 7.73 9.65 7.87
11/4/2020 11:30:00 PM 6.97 44.546 0.559 7.79 9.57 8.7
11/4/2020 11:45:00 PM 6.99 44.582 0.56 7.78 9.7 7.91
11/5/2020 12:00:00 AM 6.98 44.564 0.562 7.73 9.49 7.38
11/5/2020 12:15:00 AM 6.99 44.582 0.564 7.7 11.28 7.06
11/5/2020 12:30:00 AM 6.98 44.564 0.564 7.66 10.16 6.74
11/5/2020 12:45:00 AM 6.97 44.546 0.563 7.67 9.74 6.67
11/5/2020 1:00:00 AM 6.95 44.51 0.566 7.65 9.83 6.57
11/5/2020 1:15:00 AM 6.96 44.528 0.566 7.62 10.37 6.24
11/5/2020 1:30:00 AM 6.96 44.528 0.565 7.61 9.58 6.35
11/5/2020 1:45:00 AM 6.94 44.492 0.564 7.63 10.13 6.28
11/5/2020 2:00:00 AM 6.93 44.474 0.565 7.63 10.04 6.49
11/5/2020 2:15:00 AM 6.9 44.42 0.564 7.66 9.46 6.56
11/5/2020 2:30:00 AM 6.91 44.438 0.566 7.66 9.53 6.49
11/5/2020 2:45:00 AM 6.85 44.33 0.563 7.65 10.35 6.87
11/5/2020 3:00:00 AM 6.78 44.204 0.566 7.67 10.52 7.04
11/5/2020 3:15:00 AM 6.74 44.132 0.564 7.77 11.43 7.72
11/5/2020 3:30:00 AM 6.68 44.024 0.562 7.76 9.77 8.51
11/5/2020 3:45:00 AM 6.73 44.114 0.563 7.8 10.5 8.45
11/5/2020 4:00:00 AM 6.72 44.096 0.562 7.86 9.47 8.4
11/5/2020 4:15:00 AM 6.65 43.97 0.56 7.81 9.6 8.61
11/5/2020 4:30:00 AM 6.63 43.934 0.561 7.81 9.46 8.87
11/5/2020 4:45:00 AM 6.56 43.808 0.561 7.81 9.84 8.26
11/5/2020 5:00:00 AM 6.44 43.592 0.56 7.8 9.65 9
11/5/2020 5:15:00 AM 6.37 43.466 0.56 7.84 10.1 9.28
11/5/2020 5:30:00 AM 6.32 43.376 0.562 7.86 9.73 9.6
11/5/2020 5:45:00 AM 6.24 43.232 0.56 7.87 9.88 9.77
11/5/2020 6:00:00 AM 6.2 43.16 0.562 7.88 9.87 9.88
11/5/2020 6:15:00 AM 6.19 43.142 0.563 7.87 9.78 9.67
11/5/2020 6:30:00 AM 6.21 43.178 0.564 7.85 11.23 9.15
11/5/2020 6:45:00 AM 6.19 43.142 0.564 7.82 10.23 8.65
11/5/2020 7:00:00 AM 6.19 43.142 0.564 7.79 10.09 8.37
11/5/2020 7:15:00 AM 6.18 43.124 0.564 7.76 10.24 7.92
11/5/2020 7:30:00 AM 6.26 43.268 0.569 7.71 13.32 6.9
11/5/2020 7:45:00 AM 6.34 43.412 0.571 7.65 11.71 6.14
11/5/2020 8:00:00 AM 6.1 42.98 0.567 7.66 25.9 7.11
11/5/2020 8:15:00 AM 6.02 42.836 0.565 7.73 12.24 8.42
11/5/2020 8:30:00 AM 6.02 42.836 0.561 7.76 11.06 8.61
11/5/2020 8:45:00 AM 5.89 42.602 0.558 7.78 10.8 8.88
11/5/2020 9:00:00 AM 5.93 42.674 0.559 7.8 10.26 8.79
11/5/2020 9:15:00 AM 6.06 42.908 0.566 7.78 11.73 8.39
11/5/2020 9:30:00 AM 6.16 43.088 0.568 7.73 11.4 7.56
11/5/2020 9:45:00 AM 6.1 42.98 0.568 7.73 11.75 7.57
11/5/2020 10:00:00 AM 6.08 42.944 0.568 7.78 10.47 8.88
11/5/2020 10:15:00 AM 6.14 43.052 0.565 7.78 10.46 8.87
11/5/2020 10:30:00 AM 6.16 43.088 0.563 7.81 10.72 9.27
11/5/2020 10:45:00 AM 6.23 43.214 0.565 7.83 10.59 9.03
11/5/2020 11:00:00 AM 6.28 43.304 0.568 7.82 9.86 8.84
11/5/2020 11:15:00 AM 6.3 43.34 0.565 7.79 10.09 8.98
11/5/2020 11:30:00 AM 6.35 43.43 0.565 7.85 10.02 9.4
11/5/2020 11:45:00 AM 6.38 43.484 0.561 7.84 9.44 9.21
11/5/2020 12:00:00 PM 6.48 43.664 0.563 7.85 9.3 9.76
11/5/2020 12:15:00 PM 6.56 43.808 0.562 7.86 9.46 9.68
11/5/2020 12:30:00 PM 6.82 44.276 0.565 7.83 10.5 9.84
11/5/2020 12:45:00 PM 6.84 44.312 0.567 7.77 10.87 8.68
11/5/2020 1:00:00 PM 6.95 44.51 0.563 7.78 10.31 9.01
11/5/2020 1:15:00 PM 6.97 44.546 0.565 7.74 11.05 8.12
11/5/2020 1:30:00 PM 7.11 44.798 0.56 7.72 9.76 8.19
11/5/2020 1:45:00 PM 7.2 44.96 0.561 7.78 9.78 9.25
11/5/2020 2:00:00 PM 7.32 45.176 0.558 7.85 10.19 10.44
11/5/2020 2:15:00 PM 7.42 45.356 0.558 7.87 9.82 9.85
11/5/2020 2:30:00 PM 7.45 45.41 0.559 7.82 9.66 9.69
11/5/2020 2:45:00 PM 7.77 45.986 0.558 7.9 10.48 10.98
11/5/2020 3:00:00 PM 7.76 45.968 0.566 7.83 10.35 9.94
11/5/2020 3:15:00 PM 7.83 46.094 0.561 7.91 10.76 9.95
11/5/2020 3:30:00 PM 8.02 46.436 0.558 7.93 10.92 10.39
11/5/2020 3:45:00 PM 7.96 46.328 0.561 7.86 12.91 9.76
11/5/2020 4:00:00 PM 8.07 46.526 0.561 7.85 13.98 10.1
11/5/2020 4:15:00 PM 8.1 46.58 0.556 7.93 13.81 10.74
11/5/2020 4:30:00 PM 8.08 46.544 0.557 7.88 12.68 10.41
11/5/2020 4:45:00 PM 8.16 46.688 0.556 7.9 12.36 10.82
11/5/2020 5:00:00 PM 8.2 46.76 0.555 7.89 12.08 10.69
11/5/2020 5:15:00 PM 8.19 46.742 0.555 7.9 11.34 10.16
11/5/2020 5:30:00 PM 8.15 46.67 0.556 7.83 13.2 9.77
11/5/2020 5:45:00 PM 8.19 46.742 0.555 7.88 12.07 9.81
11/5/2020 6:00:00 PM 8.16 46.688 0.557 7.78 10.85 9.31
11/5/2020 6:15:00 PM 8.15 46.67 0.557 7.73 10.88 8.39
11/5/2020 6:30:00 PM 8.14 46.652 0.558 7.7 10.93 7.71
11/5/2020 6:45:00 PM 8.14 46.652 0.559 7.64 11.71 6.89
11/5/2020 7:00:00 PM 8.14 46.652 0.56 7.59 11.36 6.07
11/5/2020 7:15:00 PM 8.15 46.67 0.563 7.57 10.82 5.35
11/5/2020 7:30:00 PM 8.15 46.67 0.564 7.54 11.47 4.57
11/5/2020 7:45:00 PM 8.15 46.67 0.568 7.52 11.13 3.97
11/5/2020 8:00:00 PM 8.16 46.688 0.568 7.49 11.82 3.86
11/5/2020 8:15:00 PM 8.16 46.688 0.57 7.49 10.86 3.54
11/5/2020 8:30:00 PM 8.16 46.688 0.573 7.48 11.25 3.21
11/5/2020 8:45:00 PM 8.16 46.688 0.569 7.46 11.51 3.08
11/5/2020 9:00:00 PM 8.15 46.67 0.573 7.45 10.94 2.95
11/5/2020 9:15:00 PM 8.15 46.67 0.574 7.44 10.96 2.65
11/5/2020 9:30:00 PM 8.15 46.67 0.575 7.43 10.84 2.36
11/5/2020 9:45:00 PM 8.14 46.652 0.576 7.42 10.95 2.4
11/5/2020 10:00:00 PM 8.13 46.634 0.579 7.43 10.92 2.5
11/5/2020 10:15:00 PM 8.12 46.616 0.578 7.42 11.71 2.45
11/5/2020 10:30:00 PM 8.12 46.616 0.578 7.42 11.07 2.25
11/5/2020 10:45:00 PM 8.11 46.598 0.576 7.42 10.96 2.43
11/5/2020 11:00:00 PM 8.1 46.58 0.578 7.41 11.13 2.12
11/5/2020 11:15:00 PM 8.1 46.58 0.585 7.41 11.11 2.06
11/5/2020 11:30:00 PM 8.09 46.562 0.583 7.4 11.05 1.97
11/5/2020 11:45:00 PM 8.08 46.544 0.582 7.41 11.42 2.13
11/6/2020 12:00:00 AM 8.07 46.526 0.582 7.42 11.46 2.22
11/6/2020 12:15:00 AM 8.06 46.508 0.576 7.43 11.35 2.52
11/6/2020 12:30:00 AM 8.06 46.508 0.578 7.45 11.31 2.9
11/6/2020 12:45:00 AM 8.06 46.508 0.581 7.45 11.71 2.92
11/6/2020 1:00:00 AM 8.07 46.526 0.585 7.45 11.84 2.78
11/6/2020 1:15:00 AM 8.07 46.526 0.58 7.45 11.72 2.9
11/6/2020 1:30:00 AM 8.07 46.526 0.576 7.44 11.42 2.8
11/6/2020 1:45:00 AM 8.07 46.526 0.582 7.44 11.47 2.62
11/6/2020 2:00:00 AM 8.08 46.544 0.585 7.43 11.54 2.62
11/6/2020 2:15:00 AM 8.08 46.544 0.583 7.44 11.22 2.53
11/6/2020 2:30:00 AM 8.08 46.544 0.581 7.44 11.43 2.66
11/6/2020 2:45:00 AM 8.08 46.544 0.584 7.45 11.21 2.49
11/6/2020 3:00:00 AM 8.07 46.526 0.578 7.44 11.23 2.9
11/6/2020 3:15:00 AM 8.08 46.544 0.582 7.45 11.3 2.32
11/6/2020 3:30:00 AM 8.09 46.562 0.591 7.44 11.46 2.08
11/6/2020 3:45:00 AM 8.08 46.544 0.585 7.44 11.37 1.85
11/6/2020 4:00:00 AM 8.07 46.526 0.585 7.42 11.21 1.66
11/6/2020 4:15:00 AM 8.07 46.526 0.591 7.41 11.08 1.73
11/6/2020 4:30:00 AM 8.06 46.508 0.588 7.41 11.19 1.56
11/6/2020 4:45:00 AM 8.05 46.49 0.597 7.41 13.41 1.91
11/6/2020 5:00:00 AM 8 46.4 0.589 7.43 11.05 2.18
11/6/2020 5:15:00 AM 7.95 46.31 0.585 7.44 11.24 2.73
11/6/2020 5:30:00 AM 7.89 46.202 0.588 7.55 11.23 3.72
11/6/2020 5:45:00 AM 7.81 46.058 0.581 7.62 11.04 4.94
11/6/2020 6:00:00 AM 7.77 45.986 0.579 7.66 11.4 5.81
11/6/2020 6:15:00 AM 7.65 45.77 0.576 7.7 11.38 7.02
11/6/2020 6:30:00 AM 7.66 45.788 0.584 7.66 12.45 6.2
11/6/2020 6:45:00 AM 7.63 45.734 0.578 7.67 11.22 6.31
11/6/2020 7:00:00 AM 7.59 45.662 0.577 7.68 11.21 6.62
11/6/2020 7:15:00 AM 7.53 45.554 0.574 7.71 10.86 7.21
11/6/2020 7:30:00 AM 7.48 45.464 0.573 7.69 11.81 7.11
11/6/2020 7:45:00 AM 7.46 45.428 0.571 7.71 10.66 7.15
11/6/2020 8:00:00 AM 7.46 45.428 0.576 7.66 10.99 6.67
11/6/2020 8:15:00 AM 7.45 45.41 0.573 7.68 10.96 6.61
11/6/2020 8:30:00 AM 7.45 45.41 0.576 7.67 11.03 6.41
11/6/2020 8:45:00 AM 7.34 45.212 0.572 7.69 11.51 7.12
11/6/2020 9:00:00 AM 7.33 45.194 0.571 7.72 11.11 6.94
11/6/2020 9:15:00 AM 7.4 45.32 0.578 7.64 12.27 6.26
11/6/2020 9:30:00 AM 7.43 45.374 0.579 7.58 11.5 5.29
11/6/2020 9:45:00 AM 7.43 45.374 0.585 7.55 12.39 5.02
11/6/2020 10:00:00 AM 7.41 45.338 0.585 7.61 11.23 5.91
11/6/2020 10:15:00 AM 7.42 45.356 0.583 7.61 11.99 5.58
11/6/2020 10:30:00 AM 7.43 45.374 0.581 7.62 11.09 5.49
11/6/2020 10:45:00 AM 7.46 45.428 0.581 7.57 11.32 5.26
11/6/2020 11:00:00 AM 7.46 45.428 0.579 7.65 11.3 5.74
11/6/2020 11:15:00 AM 7.47 45.446 0.575 7.67 12.12 6.24
11/6/2020 11:30:00 AM 7.51 45.518 0.574 7.67 11.13 6.54
11/6/2020 11:45:00 AM 7.54 45.572 0.573 7.66 11.33 6.9
11/6/2020 12:00:00 PM 7.6 45.68 0.572 7.68 11.33 7.02
11/6/2020 12:15:00 PM 7.66 45.788 0.572 7.69 10.63 6.88
11/6/2020 12:30:00 PM 7.71 45.878 0.568 7.68 10.59 7.29
11/6/2020 12:45:00 PM 7.81 46.058 0.57 7.73 10.82 7.28
11/6/2020 1:00:00 PM 8.08 46.544 0.567 7.76 19.01 7.88
11/6/2020 1:15:00 PM 8.1 46.58 0.569 7.77 14.4 7.73
11/6/2020 1:30:00 PM 8.24 46.832 0.568 7.77 15.9 8.04
11/6/2020 1:45:00 PM 8.42 47.156 0.566 7.76 14.61 8.09
11/6/2020 2:00:00 PM 8.46 47.228 0.566 7.73 11.71 7.69
11/6/2020 2:15:00 PM 8.49 47.282 0.566 7.71 11.72 6.87
11/6/2020 2:30:00 PM 8.55 47.39 0.566 7.69 12.06 6.69
11/6/2020 2:45:00 PM 8.91 48.038 0.565 7.77 13.33 7.73
11/6/2020 3:00:00 PM 8.82 47.876 0.566 7.72 12.53 6.91
11/6/2020 3:15:00 PM 9.13 48.434 0.561 7.77 11.77 8.61
11/6/2020 3:30:00 PM 9.21 48.578 0.561 7.85 12 9.97
11/6/2020 3:45:00 PM 9.3 48.74 0.56 7.89 11.65 10.35
11/6/2020 4:00:00 PM 9.17 48.506 0.562 7.84 11.76 9.27
11/6/2020 4:15:00 PM 9.17 48.506 0.562 7.76 11.42 8.41
11/6/2020 4:30:00 PM 9.16 48.488 0.563 7.73 11.45 7.6
11/6/2020 4:45:00 PM 9.18 48.524 0.563 7.71 11.59 6.94
11/6/2020 5:00:00 PM 9.29 48.722 0.562 7.74 11.2 7.21
11/6/2020 5:15:00 PM 9.26 48.668 0.564 7.71 11.17 7.13
11/6/2020 5:30:00 PM 9.22 48.596 0.564 7.67 11.45 6.47
11/6/2020 5:45:00 PM 9.21 48.578 0.564 7.64 11.24 6.15
11/6/2020 6:00:00 PM 9.19 48.542 0.565 7.62 11.41 5.38
11/6/2020 6:15:00 PM 9.17 48.506 0.567 7.58 11.93 4.94
11/6/2020 6:30:00 PM 9.18 48.524 0.567 7.56 11.31 4.59
11/6/2020 6:45:00 PM 9.18 48.524 0.567 7.54 11.22 3.88
11/6/2020 7:00:00 PM 9.18 48.524 0.569 7.52 11.45 3.46
11/6/2020 7:15:00 PM 9.18 48.524 0.57 7.5 11.53 2.97
11/6/2020 7:30:00 PM 9.18 48.524 0.57 7.49 11.29 2.58
11/6/2020 7:45:00 PM 9.19 48.542 0.57 7.48 11.42 2.28
11/6/2020 8:00:00 PM 9.19 48.542 0.571 7.47 11.55 1.93
11/6/2020 8:15:00 PM 9.19 48.542 0.571 7.46 11.4 1.75
11/6/2020 8:30:00 PM 9.18 48.524 0.573 7.45 11.88 1.44
11/6/2020 8:45:00 PM 9.18 48.524 0.573 7.44 11.41 1.26
11/6/2020 9:00:00 PM 9.18 48.524 0.573 7.44 12.57 1.16
11/6/2020 9:15:00 PM 9.17 48.506 0.575 7.44 11.75 1.07
11/6/2020 9:30:00 PM 9.16 48.488 0.573 7.45 11.66 1.04
11/6/2020 9:45:00 PM 9.15 48.47 0.575 7.44 11.53 1.08
11/6/2020 10:00:00 PM 9.14 48.452 0.575 7.43 12.04 1.12
11/6/2020 10:15:00 PM 9.12 48.416 0.578 7.44 11.45 1.25
11/6/2020 10:30:00 PM 9.11 48.398 0.58 7.44 11.93 1.28
11/6/2020 10:45:00 PM 9.09 48.362 0.58 7.44 11.43 1.25
11/6/2020 11:00:00 PM 9.07 48.326 0.577 7.44 11.39 1.59
11/6/2020 11:15:00 PM 9.05 48.29 0.58 7.45 11.33 1.74
11/6/2020 11:30:00 PM 9.03 48.254 0.582 7.46 11.79 1.78
11/6/2020 11:45:00 PM 9.01 48.218 0.584 7.45 11.62 1.76
11/7/2020 12:00:00 AM 8.99 48.182 0.582 7.45 11.47 1.82
11/7/2020 12:15:00 AM 8.97 48.146 0.582 7.45 11.48 2
11/7/2020 12:30:00 AM 8.95 48.11 0.583 7.45 11.84 1.91
11/7/2020 12:45:00 AM 8.94 48.092 0.585 7.45 11.57 1.75
11/7/2020 1:00:00 AM 8.92 48.056 0.582 7.44 12.26 1.66
11/7/2020 1:15:00 AM 8.91 48.038 0.584 7.43 11.66 1.39
11/7/2020 1:30:00 AM 8.9 48.02 0.589 7.43 12.49 1.37
11/7/2020 1:45:00 AM 8.9 48.02 0.589 7.41 11.65 1.22
11/7/2020 2:00:00 AM 8.89 48.002 0.593 7.41 11.52 1.13
11/7/2020 2:15:00 AM 8.88 47.984 0.595 7.41 12.3 1.06
11/7/2020 2:30:00 AM 8.87 47.966 0.598 7.4 12.12 1.01
11/7/2020 2:45:00 AM 8.86 47.948 0.6 7.4 11.82 0.98
11/7/2020 3:00:00 AM 8.85 47.93 0.597 7.4 12.67 1.04
11/7/2020 3:15:00 AM 8.83 47.894 0.598 7.41 11.98 1.02
11/7/2020 3:30:00 AM 8.82 47.876 0.597 7.4 11.9 0.94
11/7/2020 3:45:00 AM 8.81 47.858 0.6 7.4 12.23 0.88
11/7/2020 4:00:00 AM 8.79 47.822 0.6 7.4 11.97 0.92
11/7/2020 4:15:00 AM 8.77 47.786 0.598 7.4 11.78 0.82
11/7/2020 4:30:00 AM 8.75 47.75 0.597 7.4 12.01 0.76
11/7/2020 4:45:00 AM 8.73 47.714 0.599 7.41 11.83 0.9
11/7/2020 5:00:00 AM 8.69 47.642 0.598 7.41 11.91 1.07
11/7/2020 5:15:00 AM 8.64 47.552 0.594 7.42 11.53 1.31
11/7/2020 5:30:00 AM 8.58 47.444 0.59 7.47 11.73 2.52
11/7/2020 5:45:00 AM 8.45 47.21 0.581 7.62 13.16 4.32
11/7/2020 6:00:00 AM 8.34 47.012 0.575 7.67 11.9 5.92
11/7/2020 6:15:00 AM 8.32 46.976 0.58 7.69 11.41 6.24
11/7/2020 6:30:00 AM 8.21 46.778 0.575 7.7 11.02 7.19
11/7/2020 6:45:00 AM 8.16 46.688 0.574 7.69 10.97 7.23
11/7/2020 7:00:00 AM 7.98 46.364 0.574 7.74 11.53 7.28
11/7/2020 7:15:00 AM 8.03 46.454 0.578 7.71 12.51 7.27
11/7/2020 7:30:00 AM 7.97 46.346 0.578 7.66 12.84 6.88
11/7/2020 7:45:00 AM 7.98 46.364 0.576 7.66 13.4 6.94
11/7/2020 8:00:00 AM 7.9 46.22 0.574 7.71 11.54 7.17
11/7/2020 8:15:00 AM 7.83 46.094 0.573 7.72 12.37 7.3
11/7/2020 8:30:00 AM 7.83 46.094 0.573 7.75 11.45 7.46
11/7/2020 8:45:00 AM 7.69 45.842 0.574 7.73 11.3 7.44
11/7/2020 9:00:00 AM 7.71 45.878 0.574 7.78 11.21 8.1
11/7/2020 9:15:00 AM 7.75 45.95 0.576 7.73 12.08 7.5
11/7/2020 9:30:00 AM 7.74 45.932 0.574 7.74 11.77 7.57
11/7/2020 9:45:00 AM 7.65 45.77 0.572 7.81 11.31 8.66
11/7/2020 10:00:00 AM 7.72 45.896 0.574 7.81 11.51 8.26
11/7/2020 10:15:00 AM 7.72 45.896 0.573 7.75 11.39 7.92
11/7/2020 10:30:00 AM 7.74 45.932 0.572 7.76 11.33 8.13
11/7/2020 10:45:00 AM 7.78 46.004 0.571 7.77 11.5 8.45
11/7/2020 11:00:00 AM 7.84 46.112 0.573 7.77 10.98 8.2
11/7/2020 11:15:00 AM 7.89 46.202 0.573 7.73 12.1 7.75
11/7/2020 11:30:00 AM 7.93 46.274 0.573 7.72 11.46 7.4
11/7/2020 11:45:00 AM 8.01 46.418 0.576 7.69 11.34 6.63
11/7/2020 12:00:00 PM 8.06 46.508 0.576 7.66 11.39 6.12
11/7/2020 12:15:00 PM 8.11 46.598 0.575 7.66 11.1 6.33
11/7/2020 12:30:00 PM 8.17 46.706 0.574 7.67 11 5.93
11/7/2020 12:45:00 PM 8.25 46.85 0.573 7.67 11.01 6.1
11/7/2020 1:00:00 PM 8.32 46.976 0.573 7.68 10.8 6.64
11/7/2020 1:15:00 PM 8.46 47.228 0.572 7.7 11.81 6.87
11/7/2020 1:30:00 PM 8.55 47.39 0.571 7.69 11.07 6.96
11/7/2020 1:45:00 PM 8.62 47.516 0.572 7.69 11.52 6.64
11/7/2020 2:00:00 PM 8.68 47.624 0.571 7.68 11.85 6.79
11/7/2020 2:15:00 PM 8.77 47.786 0.57 7.69 11.37 6.53
11/7/2020 2:30:00 PM 8.83 47.894 0.571 7.68 11.11 6.44
11/7/2020 2:45:00 PM 8.91 48.038 0.57 7.66 11.43 6.01
11/7/2020 3:00:00 PM 8.96 48.128 0.572 7.66 11.39 5.97
11/7/2020 3:15:00 PM 9.04 48.272 0.571 7.64 12.1 6.23
11/7/2020 3:30:00 PM 9.57 49.226 0.566 7.76 14.7 8.43
11/7/2020 3:45:00 PM 9.42 48.956 0.568 7.8 11.9 8.41
11/7/2020 4:00:00 PM 9.48 49.064 0.567 7.77 12.12 8.51
11/7/2020 4:15:00 PM 9.48 49.064 0.567 7.77 11.76 8.13
11/7/2020 4:30:00 PM 9.43 48.974 0.568 7.72 10.92 7.35
11/7/2020 4:45:00 PM 9.42 48.956 0.57 7.68 12.01 6.66
11/7/2020 5:00:00 PM 9.48 49.064 0.57 7.66 12.76 6.64
11/7/2020 5:15:00 PM 9.5 49.1 0.572 7.66 12.46 6.84
11/7/2020 5:30:00 PM 9.49 49.082 0.572 7.66 11.67 7.08
11/7/2020 5:45:00 PM 9.47 49.046 0.573 7.64 14.14 6.61
11/7/2020 6:00:00 PM 9.45 49.01 0.573 7.61 13.41 6.02
11/7/2020 6:15:00 PM 9.44 48.992 0.576 7.59 13.03 5.29
11/7/2020 6:30:00 PM 9.43 48.974 0.576 7.55 14.01 4.62
11/7/2020 6:45:00 PM 9.43 48.974 0.577 7.53 12.21 3.95
11/7/2020 7:00:00 PM 9.41 48.938 0.579 7.51 13.9 3.4
11/7/2020 7:15:00 PM 9.41 48.938 0.579 7.49 12.06 2.79
11/7/2020 7:30:00 PM 9.4 48.92 0.582 7.47 12.22 2.46
11/7/2020 7:45:00 PM 9.39 48.902 0.583 7.45 11.85 1.87
11/7/2020 8:00:00 PM 9.38 48.884 0.582 7.44 12.16 1.6
11/7/2020 8:15:00 PM 9.37 48.866 0.583 7.43 12.71 1.4
11/7/2020 8:30:00 PM 9.35 48.83 0.581 7.43 12.49 1.28
11/7/2020 8:45:00 PM 9.33 48.794 0.584 7.43 12.51 1.44
11/7/2020 9:00:00 PM 9.31 48.758 0.582 7.43 12.83 1.41
11/7/2020 9:15:00 PM 9.29 48.722 0.585 7.43 12.08 1.39
11/7/2020 9:30:00 PM 9.26 48.668 0.587 7.42 12.45 1.38
11/7/2020 9:45:00 PM 9.23 48.614 0.583 7.43 11.81 1.44
11/7/2020 10:00:00 PM 9.2 48.56 0.587 7.43 11.81 1.8
11/7/2020 10:15:00 PM 9.17 48.506 0.588 7.44 11.51 1.75
11/7/2020 10:30:00 PM 9.13 48.434 0.583 7.44 11.95 1.87
11/7/2020 10:45:00 PM 9.09 48.362 0.586 7.46 11.15 2.56
11/7/2020 11:00:00 PM 9.05 48.29 0.585 7.47 12.58 2.79
11/7/2020 11:15:00 PM 9.02 48.236 0.584 7.47 11.35 2.89
11/7/2020 11:30:00 PM 8.98 48.164 0.585 7.46 11.1 3.19
11/7/2020 11:45:00 PM 8.93 48.074 0.58 7.48 11.35 3.27
11/8/2020 12:00:00 AM 8.92 48.056 0.583 7.48 11.34 3.51
11/8/2020 12:15:00 AM 8.88 47.984 0.582 7.5 11.13 3.65
11/8/2020 12:30:00 AM 8.85 47.93 0.581 7.51 11.05 4.3
11/8/2020 12:45:00 AM 8.82 47.876 0.582 7.52 11.3 3.96
11/8/2020 1:00:00 AM 8.79 47.822 0.582 7.54 10.95 4.2
11/8/2020 1:15:00 AM 8.74 47.732 0.583 7.54 10.72 4.41
11/8/2020 1:30:00 AM 8.72 47.696 0.58 7.55 11.17 4.67
11/8/2020 1:45:00 AM 8.7 47.66 0.584 7.53 11.35 4.51
11/8/2020 2:00:00 AM 8.67 47.606 0.585 7.57 12.2 4.77
11/8/2020 2:15:00 AM 8.62 47.516 0.579 7.57 10.89 5.23
11/8/2020 2:30:00 AM 8.61 47.498 0.579 7.59 11.87 5.29
11/8/2020 2:45:00 AM 8.58 47.444 0.579 7.62 11.95 5.37
11/8/2020 3:00:00 AM 8.55 47.39 0.578 7.6 11.9 5.38
11/8/2020 3:15:00 AM 8.55 47.39 0.583 7.6 11.2 5.26
11/8/2020 3:30:00 AM 8.53 47.354 0.579 7.58 11.68 4.9
11/8/2020 3:45:00 AM 8.5 47.3 0.58 7.61 11.38 5.27
11/8/2020 4:00:00 AM 8.43 47.174 0.577 7.61 11.45 5.83
11/8/2020 4:15:00 AM 8.36 47.048 0.579 7.67 11.34 6.62
11/8/2020 4:30:00 AM 8.33 46.994 0.577 7.73 11.32 6.93
11/8/2020 4:45:00 AM 8.29 46.922 0.579 7.69 11.58 6.86
11/8/2020 5:00:00 AM 8.24 46.832 0.578 7.7 11.04 6.57
11/8/2020 5:15:00 AM 8.18 46.724 0.579 7.74 11.08 7.02
11/8/2020 5:30:00 AM 8.08 46.544 0.578 7.77 11.54 7.49
11/8/2020 5:45:00 AM 8.06 46.508 0.576 7.76 11.27 7.55
11/8/2020 6:00:00 AM 7.98 46.364 0.579 7.78 12.57 7.69
11/8/2020 6:15:00 AM 7.93 46.274 0.577 7.79 11.5 7.76
11/8/2020 6:30:00 AM 7.88 46.184 0.577 7.78 12.37 7.68
11/8/2020 6:45:00 AM 7.87 46.166 0.577 7.76 11.4 7.53
11/8/2020 7:00:00 AM 7.85 46.13 0.583 7.75 11.45 7.22
11/8/2020 7:15:00 AM 7.81 46.058 0.586 7.67 11.48 6.17
11/8/2020 7:30:00 AM 7.75 45.95 0.58 7.7 11.7 6.68
11/8/2020 7:45:00 AM 7.72 45.896 0.58 7.68 11.64 6.71
11/8/2020 8:00:00 AM 7.6 45.68 0.579 7.75 11.22 7.25
11/8/2020 8:15:00 AM 7.6 45.68 0.58 7.74 11.7 7.12
11/8/2020 8:30:00 AM 7.47 45.446 0.578 7.74 12.08 7.44
11/8/2020 8:45:00 AM 7.46 45.428 0.578 7.76 14.92 7.86
11/8/2020 9:00:00 AM 7.41 45.338 0.576 7.8 12.02 8.34
11/8/2020 9:15:00 AM 7.43 45.374 0.576 7.8 13.55 8.14
11/8/2020 9:30:00 AM 7.45 45.41 0.575 7.78 13.85 7.99
11/8/2020 9:45:00 AM 7.32 45.176 0.575 7.81 14.95 8.75
11/8/2020 10:00:00 AM 7.37 45.266 0.573 7.82 17.28 8.54
11/8/2020 10:15:00 AM 7.33 45.194 0.574 7.81 58.03 8.79
11/8/2020 10:30:00 AM 7.4 45.32 0.574 7.81 24.85 8.85
11/8/2020 10:45:00 AM 7.46 45.428 0.575 7.81 20.45 8.73
11/8/2020 11:00:00 AM 7.53 45.554 0.574 7.83 17.29 8.83
11/8/2020 11:15:00 AM 7.6 45.68 0.575 7.82 14.65 8.29
11/8/2020 11:30:00 AM 7.66 45.788 0.575 7.76 14.39 7.77
11/8/2020 11:45:00 AM 7.74 45.932 0.576 7.73 15.17 7.24
11/8/2020 12:00:00 PM 7.93 46.274 0.573 7.78 15.97 8.44
11/8/2020 12:15:00 PM 7.94 46.292 0.574 7.77 13.38 7.72
11/8/2020 12:30:00 PM 7.99 46.382 0.575 7.73 13.69 6.73
11/8/2020 12:45:00 PM 8.06 46.508 0.575 7.69 12.84 6.3
11/8/2020 1:00:00 PM 8.16 46.688 0.576 7.67 14.69 5.76
11/8/2020 1:15:00 PM 8.28 46.904 0.576 7.66 12.96 5.79
11/8/2020 1:30:00 PM 8.34 47.012 0.575 7.64 13.13 5.31
11/8/2020 1:45:00 PM 8.45 47.21 0.576 7.63 13.58 5.36
11/8/2020 2:00:00 PM 8.53 47.354 0.576 7.64 13.59 5.3
11/8/2020 2:15:00 PM 8.61 47.498 0.575 7.61 12.69 5.03
11/8/2020 2:30:00 PM 8.68 47.624 0.575 7.61 12.28 5.1
11/8/2020 2:45:00 PM 8.76 47.768 0.576 7.6 12.29 4.95
11/8/2020 3:00:00 PM 8.82 47.876 0.576 7.6 12.98 4.66
11/8/2020 3:15:00 PM 8.9 48.02 0.576 7.58 12.85 4.45
11/8/2020 3:30:00 PM 8.95 48.11 0.576 7.58 12.75 4.5
11/8/2020 3:45:00 PM 9.04 48.272 0.576 7.58 12.8 4.73
11/8/2020 4:00:00 PM 9.06 48.308 0.576 7.56 13.02 4.29
11/8/2020 4:15:00 PM 9.1 48.38 0.577 7.55 12.56 4.01
11/8/2020 4:30:00 PM 9.15 48.47 0.576 7.53 12.57 4.26
11/8/2020 4:45:00 PM 9.18 48.524 0.577 7.53 13.12 4.16
11/8/2020 5:00:00 PM 9.2 48.56 0.576 7.54 12.46 3.63
11/8/2020 5:15:00 PM 9.2 48.56 0.577 7.52 12.57 3.69
11/8/2020 5:30:00 PM 9.2 48.56 0.578 7.51 12.21 3.23
11/8/2020 5:45:00 PM 9.2 48.56 0.577 7.5 13.19 3.01
11/8/2020 6:00:00 PM 9.2 48.56 0.578 7.49 13.11 2.72
11/8/2020 6:15:00 PM 9.2 48.56 0.578 7.49 12.97 2.71
11/8/2020 6:30:00 PM 9.19 48.542 0.577 7.49 12.62 3.26
11/8/2020 6:45:00 PM 9.18 48.524 0.578 7.5 13.5 2.87
11/8/2020 7:00:00 PM 9.16 48.488 0.577 7.53 12.17 3.37
11/8/2020 7:15:00 PM 9.13 48.434 0.576 7.54 13.33 4.42
11/8/2020 7:30:00 PM 9.11 48.398 0.574 7.59 12.58 5.23
11/8/2020 7:45:00 PM 9.08 48.344 0.573 7.62 12.23 6.23
11/8/2020 8:00:00 PM 9.05 48.29 0.572 7.67 12.05 6.87
11/8/2020 8:15:00 PM 8.98 48.164 0.569 7.74 14.73 7.93
11/8/2020 8:30:00 PM 8.93 48.074 0.569 7.83 15.47 9.12
11/8/2020 8:45:00 PM 8.86 47.948 0.567 7.91 13.84 10.02
11/8/2020 9:00:00 PM 8.82 47.876 0.568 7.92 13.56 10.21
11/8/2020 9:15:00 PM 8.76 47.768 0.567 7.92 14.05 10.2
11/8/2020 9:30:00 PM 8.69 47.642 0.568 7.94 12.78 10.24
11/8/2020 9:45:00 PM 8.65 47.57 0.57 7.95 12.79 10.17
11/8/2020 10:00:00 PM 8.61 47.498 0.569 7.94 12.88 10.06
11/8/2020 10:15:00 PM 8.53 47.354 0.569 7.94 13.08 10.07
11/8/2020 10:30:00 PM 8.51 47.318 0.571 7.94 12.45 9.97
11/8/2020 10:45:00 PM 8.45 47.21 0.571 7.94 12.61 9.93
11/8/2020 11:00:00 PM 8.4 47.12 0.57 7.94 13.41 9.98
11/8/2020 11:15:00 PM 8.39 47.102 0.571 7.93 12.5 9.87
11/8/2020 11:30:00 PM 8.34 47.012 0.571 7.93 14.24 9.66
11/8/2020 11:45:00 PM 8.32 46.976 0.571 7.93 14.66 9.74
11/9/2020 12:00:00 AM 8.29 46.922 0.572 7.93 13.12 9.71
11/9/2020 12:15:00 AM 8.27 46.886 0.572 7.93 13 9.69
11/9/2020 12:30:00 AM 8.23 46.814 0.572 7.93 13.92 9.62
11/9/2020 12:45:00 AM 8.21 46.778 0.573 7.93 12.82 9.49
11/9/2020 1:00:00 AM 8.21 46.778 0.574 7.93 13.56 9.35
11/9/2020 1:15:00 AM 8.18 46.724 0.574 7.93 14.1 9.47
11/9/2020 1:30:00 AM 8.15 46.67 0.573 7.93 13.41 9.46
11/9/2020 1:45:00 AM 8.13 46.634 0.573 7.92 12.78 9.5
11/9/2020 2:00:00 AM 8.13 46.634 0.574 7.93 13.14 9.58
11/9/2020 2:15:00 AM 8.11 46.598 0.574 7.93 13.9 9.55
11/9/2020 2:30:00 AM 8.09 46.562 0.574 7.92 13.51 9.38
11/9/2020 2:45:00 AM 8.08 46.544 0.576 7.92 13.23 9.36
11/9/2020 3:00:00 AM 8.04 46.472 0.576 7.92 12.63 9.28
11/9/2020 3:15:00 AM 8.03 46.454 0.576 7.93 12.75 9.42
11/9/2020 3:30:00 AM 8 46.4 0.578 7.93 12.85 9.39
11/9/2020 3:45:00 AM 7.98 46.364 0.578 7.92 12.82 9.2
11/9/2020 4:00:00 AM 7.93 46.274 0.578 7.91 12.94 9.14
11/9/2020 4:15:00 AM 7.88 46.184 0.578 7.92 12.37 9.35
11/9/2020 4:30:00 AM 7.86 46.148 0.578 7.92 12.63 9.35
11/9/2020 4:45:00 AM 7.81 46.058 0.578 7.92 12.8 9.52
11/9/2020 5:00:00 AM 7.76 45.968 0.577 7.92 12.79 9.49
11/9/2020 5:15:00 AM 7.77 45.986 0.581 7.84 14.27 8.44
11/9/2020 5:30:00 AM 7.75 45.95 0.579 7.84 14.1 8.5
11/9/2020 5:45:00 AM 7.61 45.698 0.577 7.9 13.57 9.17
11/9/2020 6:00:00 AM 7.56 45.608 0.578 7.91 13.59 9.49
11/9/2020 6:15:00 AM 7.52 45.536 0.578 7.92 13.13 9.37
11/9/2020 6:30:00 AM 7.49 45.482 0.578 7.91 13.33 9.53
11/9/2020 6:45:00 AM 7.43 45.374 0.578 7.91 13.57 9.5
11/9/2020 7:00:00 AM 7.41 45.338 0.583 7.9 13.97 9.38
11/9/2020 7:15:00 AM 7.43 45.374 0.581 7.88 12.76 9.02
11/9/2020 7:30:00 AM 7.36 45.248 0.58 7.88 12.78 9.09
11/9/2020 7:45:00 AM 7.28 45.104 0.58 7.89 13.33 9.22
11/9/2020 8:00:00 AM 7.31 45.158 0.583 7.85 12.9 8.69
11/9/2020 8:15:00 AM 7.31 45.158 0.581 7.8 13.05 7.9
11/9/2020 8:30:00 AM 7.27 45.086 0.581 7.8 13.7 7.83
11/9/2020 8:45:00 AM 7.2 44.96 0.58 7.84 12.75 8.66
11/9/2020 9:00:00 AM 7.18 44.924 0.58 7.88 12.51 9.1
11/9/2020 9:15:00 AM 7.21 44.978 0.58 7.85 12.94 8.9
11/9/2020 9:30:00 AM 7.17 44.906 0.58 7.88 13.17 9.07
11/9/2020 9:45:00 AM 7.1 44.78 0.579 7.91 12.62 9.69
11/9/2020 10:00:00 AM 7.16 44.888 0.58 7.89 13.09 9.47
11/9/2020 10:15:00 AM 7.21 44.978 0.581 7.85 12.56 8.75
11/9/2020 10:30:00 AM 7.24 45.032 0.58 7.83 12.62 8.83
11/9/2020 10:45:00 AM 7.29 45.122 0.579 7.85 13.42 9.06
11/9/2020 11:00:00 AM 7.37 45.266 0.581 7.83 12.42 8.78
11/9/2020 11:15:00 AM 7.44 45.392 0.581 7.81 13.32 8.36
11/9/2020 11:30:00 AM 7.55 45.59 0.58 7.8 13.08 8.38
11/9/2020 11:45:00 AM 7.62 45.716 0.58 7.79 12.25 8.35
11/9/2020 12:00:00 PM 7.67 45.806 0.579 7.79 12.52 8.17
11/9/2020 12:15:00 PM 7.75 45.95 0.579 7.77 14.17 8.02
11/9/2020 12:30:00 PM 7.87 46.166 0.578 7.77 12.98 8.01
11/9/2020 12:45:00 PM 7.97 46.346 0.578 7.77 12.6 8.12
11/9/2020 1:00:00 PM 8.1 46.58 0.578 7.77 12.31 8.23
11/9/2020 1:15:00 PM 8.25 46.85 0.577 7.78 12.43 8.14
11/9/2020 1:30:00 PM 8.32 46.976 0.578 7.76 12.27 7.86
11/9/2020 1:45:00 PM 8.42 47.156 0.577 7.74 13.17 7.45
11/9/2020 2:00:00 PM 8.5 47.3 0.578 7.73 12.35 6.9
11/9/2020 2:15:00 PM 8.56 47.408 0.577 7.7 12.36 6.53
11/9/2020 2:30:00 PM 8.67 47.606 0.579 7.67 12.33 6.21
11/9/2020 2:45:00 PM 8.79 47.822 0.577 7.68 12.26 6.45
11/9/2020 3:00:00 PM 8.87 47.966 0.576 7.67 12.38 6.43
11/9/2020 3:15:00 PM 8.93 48.074 0.577 7.66 12.49 7.07
11/9/2020 3:30:00 PM 9 48.2 0.578 7.67 12.99 6.16
11/9/2020 3:45:00 PM 9.04 48.272 0.577 7.65 15.06 6.15
11/9/2020 4:00:00 PM 9.08 48.344 0.578 7.65 12.5 5.98
11/9/2020 4:15:00 PM 9.1 48.38 0.578 7.65 12.08 6.08
11/9/2020 4:30:00 PM 9.16 48.488 0.577 7.66 12.3 6.58
11/9/2020 4:45:00 PM 9.19 48.542 0.576 7.67 12.75 6.45
11/9/2020 5:00:00 PM 9.2 48.56 0.576 7.65 13.46 6.25
11/9/2020 5:15:00 PM 9.19 48.542 0.576 7.64 12.64 5.95
11/9/2020 5:30:00 PM 9.19 48.542 0.578 7.62 12.27 5.56
11/9/2020 5:45:00 PM 9.18 48.524 0.578 7.6 12.64 5.06
11/9/2020 6:00:00 PM 9.18 48.524 0.578 7.58 12.87 5.23
11/9/2020 6:15:00 PM 9.17 48.506 0.577 7.58 12.73 4.9
11/9/2020 6:30:00 PM 9.16 48.488 0.579 7.57 12.92 4.83
11/9/2020 6:45:00 PM 9.15 48.47 0.579 7.56 12.54 4.32
11/9/2020 7:00:00 PM 9.14 48.452 0.579 7.54 13.48 3.67
11/9/2020 7:15:00 PM 9.12 48.416 0.578 7.52 13.44 3.78
11/9/2020 7:30:00 PM 9.11 48.398 0.578 7.54 12.65 4.05
11/9/2020 7:45:00 PM 9.09 48.362 0.577 7.55 12.97 4.74
11/9/2020 8:00:00 PM 9.06 48.308 0.577 7.58 13.07 5.27
11/9/2020 8:15:00 PM 9.03 48.254 0.576 7.61 13.09 6.03
11/9/2020 8:30:00 PM 9 48.2 0.576 7.65 12.9 6.66
11/9/2020 8:45:00 PM 8.97 48.146 0.574 7.67 12.71 7.02
11/9/2020 9:00:00 PM 8.93 48.074 0.574 7.7 12.89 7.45
11/9/2020 9:15:00 PM 8.91 48.038 0.574 7.73 12.54 7.39
11/9/2020 9:30:00 PM 8.9 48.02 0.575 7.7 13.21 6.9
11/9/2020 9:45:00 PM 8.85 47.93 0.575 7.7 12.23 7.09
11/9/2020 10:00:00 PM 8.81 47.858 0.575 7.72 12.27 7.42
11/9/2020 10:15:00 PM 8.77 47.786 0.574 7.78 12.3 7.89
11/9/2020 10:30:00 PM 8.71 47.678 0.574 7.85 12.44 8.16
11/9/2020 10:45:00 PM 8.67 47.606 0.574 7.86 12.77 8.35
11/9/2020 11:00:00 PM 8.63 47.534 0.574 7.88 12.44 8.51
11/9/2020 11:15:00 PM 8.55 47.39 0.573 7.8 22.97 8.41
11/9/2020 11:30:00 PM 8.53 47.354 0.577 7.81 66.24 8.53
11/9/2020 11:45:00 PM 8.46 47.228 0.573 7.84 24.9 8.96
11/10/2020 12:00:00 AM 8.4 47.12 0.573 7.89 21.3 9.51
11/10/2020 12:15:00 AM 8.38 47.084 0.573 7.92 18.32 9.69
11/10/2020 12:30:00 AM 8.36 47.048 0.573 7.92 13.87 9.7
11/10/2020 12:45:00 AM 8.34 47.012 0.573 7.93 13.8 9.64
11/10/2020 1:00:00 AM 8.31 46.958 0.574 7.94 14.88 9.67
11/10/2020 1:15:00 AM 8.31 46.958 0.574 7.94 13.8 9.73
11/10/2020 1:30:00 AM 8.28 46.904 0.574 7.94 14.88 9.7
11/10/2020 1:45:00 AM 8.29 46.922 0.575 7.94 13.88 9.65
11/10/2020 2:00:00 AM 8.27 46.886 0.575 7.94 13.58 9.56
11/10/2020 2:15:00 AM 8.28 46.904 0.575 7.94 13.21 9.51
11/10/2020 2:30:00 AM 8.27 46.886 0.576 7.93 13.21 9.44
11/10/2020 2:45:00 AM 8.26 46.868 0.576 7.93 12.39 9.41
11/10/2020 3:00:00 AM 8.24 46.832 0.576 7.93 12.85 9.47
11/10/2020 3:15:00 AM 8.22 46.796 0.577 7.93 12.59 9.4
11/10/2020 3:30:00 AM 8.21 46.778 0.577 7.93 13.28 9.42
11/10/2020 3:45:00 AM 8.18 46.724 0.578 7.93 14.56 9.37
11/10/2020 4:00:00 AM 8.17 46.706 0.578 7.93 12.19 9.3
11/10/2020 4:15:00 AM 8.18 46.724 0.579 7.92 13 9.22
11/10/2020 4:30:00 AM 8.18 46.724 0.579 7.91 13.18 9.03
11/10/2020 4:45:00 AM 8.13 46.634 0.58 7.9 12.92 9.11
11/10/2020 5:00:00 AM 8.12 46.616 0.58 7.9 12.35 8.87
11/10/2020 5:15:00 AM 8.08 46.544 0.58 7.91 12.72 9.03
11/10/2020 5:30:00 AM 8.06 46.508 0.579 7.9 37.15 8.76
11/10/2020 5:45:00 AM 8.07 46.526 0.58 7.86 15.86 8.6
11/10/2020 6:00:00 AM 7.97 46.346 0.58 7.9 14.66 8.9
11/10/2020 6:15:00 AM 7.93 46.274 0.58 7.91 14.34 9.16
11/10/2020 6:30:00 AM 7.9 46.22 0.581 7.9 13.19 9.25
11/10/2020 6:45:00 AM 7.87 46.166 0.581 7.9 14.05 9.21
11/10/2020 7:00:00 AM 7.85 46.13 0.581 7.89 15.16 9.15
11/10/2020 7:15:00 AM 7.86 46.148 0.581 7.89 12.59 8.98
11/10/2020 7:30:00 AM 7.84 46.112 0.581 7.86 12.89 8.65
11/10/2020 7:45:00 AM 7.8 46.04 0.581 7.86 13.01 8.74
11/10/2020 8:00:00 AM 7.82 46.076 0.582 7.84 14.96 8.16
11/10/2020 8:15:00 AM 7.81 46.058 0.582 7.83 12.24 8.08
11/10/2020 8:30:00 AM 7.8 46.04 0.582 7.81 12.55 8
11/10/2020 8:45:00 AM 7.73 45.914 0.582 7.86 13.02 8.51
11/10/2020 9:00:00 AM 7.71 45.878 0.582 7.87 12.84 8.88
11/10/2020 9:15:00 AM 7.74 45.932 0.583 7.87 13.49 9.02
11/10/2020 9:30:00 AM 7.71 45.878 0.582 7.83 18.58 8.64
11/10/2020 9:45:00 AM 7.72 45.896 0.584 7.85 16.98 9.01
11/10/2020 10:00:00 AM 7.78 46.004 0.585 7.82 17.68 8.48
11/10/2020 10:15:00 AM 7.78 46.004 0.584 7.8 15.16 8.36
11/10/2020 10:30:00 AM 7.85 46.13 0.584 7.81 17.75 8.44
11/10/2020 10:45:00 AM 7.91 46.238 0.584 7.8 17.63 8.15
11/10/2020 11:00:00 AM 7.96 46.328 0.584 7.8 15.66 7.88
11/10/2020 11:15:00 AM 8.04 46.472 0.583 7.77 23.37 7.83
11/10/2020 11:30:00 AM 8.14 46.652 0.583 7.81 15.16 8.45
11/10/2020 11:45:00 AM 8.22 46.796 0.583 7.8 14.53 8.09
11/10/2020 12:00:00 PM 8.32 46.976 0.583 7.79 14.77 7.94
11/10/2020 12:15:00 PM 8.44 47.192 0.583 7.77 14.09 8.11
11/10/2020 12:30:00 PM 8.59 47.462 0.584 7.78 14.26 8.19
11/10/2020 12:45:00 PM 8.75 47.75 0.585 7.8 14.12 8.07
11/10/2020 1:00:00 PM 8.88 47.984 0.584 7.75 15.36 7.49
11/10/2020 1:15:00 PM 8.97 48.146 0.583 7.78 13.01 7.27
11/10/2020 1:30:00 PM 9.05 48.29 0.582 7.74 13.69 6.99
11/10/2020 1:45:00 PM 9.14 48.452 0.584 7.71 14.29 6.67
11/10/2020 2:00:00 PM 9.25 48.65 0.582 7.7 14.06 6.69
11/10/2020 2:15:00 PM 9.34 48.812 0.582 7.72 13.22 6.83
11/10/2020 2:30:00 PM 9.43 48.974 0.583 7.71 14.34 6.66
11/10/2020 2:45:00 PM 9.49 49.082 0.582 7.68 13.7 6.28
11/10/2020 3:00:00 PM 9.58 49.244 0.583 7.65 13.37 6.05
11/10/2020 3:15:00 PM 9.65 49.37 0.582 7.66 14.67 6.21
11/10/2020 3:30:00 PM 9.73 49.514 0.582 7.65 13.24 6.29
11/10/2020 3:45:00 PM 9.79 49.622 0.581 7.66 13.05 6.53
11/10/2020 4:00:00 PM 9.9 49.82 0.581 7.68 13.44 6.76
11/10/2020 4:15:00 PM 9.96 49.928 0.58 7.69 12.54 6.76
11/10/2020 4:30:00 PM 9.96 49.928 0.581 7.7 13.07 6.72
11/10/2020 4:45:00 PM 9.94 49.892 0.582 7.66 13.39 6.26
11/10/2020 5:00:00 PM 9.97 49.946 0.583 7.64 13.27 5.76
11/10/2020 5:15:00 PM 9.99 49.982 0.581 7.62 13.11 5.62
11/10/2020 5:30:00 PM 10.11 50.198 0.581 7.64 481.22 7.09
11/10/2020 5:45:00 PM 10.13 50.234 0.578 7.72 21.74 7.34
11/10/2020 6:00:00 PM 10.13 50.234 0.577 7.77 17.78 8.04
11/10/2020 6:15:00 PM 10.07 50.126 0.578 7.72 15.05 7.13
11/10/2020 6:30:00 PM 10.08 50.144 0.578 7.69 13.33 6.65
11/10/2020 6:45:00 PM 10.12 50.216 0.576 7.74 14.08 7.12
11/10/2020 7:00:00 PM 10.11 50.198 0.576 7.73 14.67 7.26
11/10/2020 7:15:00 PM 10.07 50.126 0.578 7.69 12.61 6.28
11/10/2020 7:30:00 PM 10.08 50.144 0.577 7.66 12.38 6
11/10/2020 7:45:00 PM 10.08 50.144 0.577 7.66 12.63 5.74
11/10/2020 8:00:00 PM 10.06 50.108 0.578 7.64 11.86 5.26
11/10/2020 8:15:00 PM 10.06 50.108 0.578 7.61 11.29 5.04
11/10/2020 8:30:00 PM 10.06 50.108 0.579 7.61 11.71 4.82
11/10/2020 8:45:00 PM 10.06 50.108 0.579 7.6 11.09 4.59
11/10/2020 9:00:00 PM 10.06 50.108 0.58 7.61 11.41 4.46
11/10/2020 9:15:00 PM 10.07 50.126 0.579 7.6 11.88 4.63
11/10/2020 9:30:00 PM 10.06 50.108 0.579 7.6 10.96 4.36
11/10/2020 9:45:00 PM 10.06 50.108 0.58 7.59 11.94 3.96
11/10/2020 10:00:00 PM 10.06 50.108 0.58 7.59 11.28 4.3
11/10/2020 10:15:00 PM 10.07 50.126 0.579 7.61 11.39 4.88
11/10/2020 10:30:00 PM 10.05 50.09 0.58 7.62 11.78 4.46
11/10/2020 10:45:00 PM 10.06 50.108 0.579 7.61 10.59 4.5
11/10/2020 11:00:00 PM 10.05 50.09 0.579 7.62 12.27 4.54
11/10/2020 11:15:00 PM 10.06 50.108 0.579 7.61 10.82 4.5
11/10/2020 11:30:00 PM 10.05 50.09 0.58 7.62 10.88 4.57
11/10/2020 11:45:00 PM 10.05 50.09 0.58 7.6 10.96 4.31
11/11/2020 12:00:00 AM 10.06 50.108 0.579 7.59 11.88 4.14
11/11/2020 12:15:00 AM 10.06 50.108 0.581 7.6 10.75 4.2
11/11/2020 12:30:00 AM 10.08 50.144 0.58 7.6 10.56 4.54
11/11/2020 12:45:00 AM 10.08 50.144 0.58 7.62 11.71 4.55
11/11/2020 1:00:00 AM 10.09 50.162 0.58 7.61 10.68 4.47
11/11/2020 1:15:00 AM 10.11 50.198 0.58 7.61 10.53 4.71
11/11/2020 1:30:00 AM 10.12 50.216 0.579 7.63 10.45 4.72
11/11/2020 1:45:00 AM 10.14 50.252 0.58 7.63 12.09 4.81
11/11/2020 2:00:00 AM 10.14 50.252 0.581 7.63 10.85 4.74
11/11/2020 2:15:00 AM 10.15 50.27 0.581 7.62 10.71 4.58
11/11/2020 2:30:00 AM 10.2 50.36 0.58 7.64 13.18 5.23
11/11/2020 2:45:00 AM 10.21 50.378 0.581 7.67 11.35 5.38
11/11/2020 3:00:00 AM 10.24 50.432 0.58 7.66 14.69 5.48
11/11/2020 3:15:00 AM 10.34 50.612 0.579 7.79 18.25 7.42
11/11/2020 3:30:00 AM 10.32 50.576 0.579 7.8 12.65 7.48
11/11/2020 3:45:00 AM 10.31 50.558 0.58 7.76 13.2 6.85
11/11/2020 4:00:00 AM 10.3 50.54 0.582 7.73 12.07 6.06
11/11/2020 4:15:00 AM 10.29 50.522 0.582 7.7 13.15 5.35
11/11/2020 4:30:00 AM 10.28 50.504 0.582 7.67 12.01 5
11/11/2020 4:45:00 AM 10.27 50.486 0.583 7.62 13.5 4.31
11/11/2020 5:00:00 AM 10.28 50.504 0.583 7.61 12.27 4.03
11/11/2020 5:15:00 AM 10.29 50.522 0.584 7.6 11.85 3.75
11/11/2020 5:30:00 AM 10.29 50.522 0.584 7.58 11.76 3.5
11/11/2020 5:45:00 AM 10.28 50.504 0.585 7.57 11.48 3.24
11/11/2020 6:00:00 AM 10.3 50.54 0.584 7.57 13.21 3.12
11/11/2020 6:15:00 AM 10.31 50.558 0.585 7.6 12.35 3.31
11/11/2020 6:30:00 AM 10.31 50.558 0.585 7.57 11.83 3.24
11/11/2020 6:45:00 AM 10.37 50.666 0.584 7.7 14.51 4.85
11/11/2020 7:00:00 AM 10.37 50.666 0.584 7.68 12.61 5.33
11/11/2020 7:15:00 AM 10.35 50.63 0.585 7.66 11.36 4.86
11/11/2020 7:30:00 AM 10.35 50.63 0.585 7.65 11.7 4.31
11/11/2020 7:45:00 AM 10.42 50.756 0.583 7.72 17.58 6.2
11/11/2020 8:00:00 AM 10.4 50.72 0.583 7.71 14.36 5.86
11/11/2020 8:15:00 AM 10.4 50.72 0.583 7.67 13.61 5.21
11/11/2020 8:30:00 AM 10.41 50.738 0.584 7.66 12.87 4.84
11/11/2020 8:45:00 AM 10.42 50.756 0.583 7.64 12.52 4.73
11/11/2020 9:00:00 AM 10.45 50.81 0.581 7.63 12.63 4.59
11/11/2020 9:15:00 AM 10.48 50.864 0.579 7.64 12.73 4.5
11/11/2020 9:30:00 AM 10.5 50.9 0.578 7.64 12.43 4.68
11/11/2020 9:45:00 AM 10.54 50.972 0.576 7.65 12.35 4.89
11/11/2020 10:00:00 AM 10.56 51.008 0.576 7.65 12.3 4.99
11/11/2020 10:15:00 AM 10.6 51.08 0.573 7.63 13.85 4.99
11/11/2020 10:30:00 AM 10.65 51.17 0.572 7.63 12.7 4.79
11/11/2020 10:45:00 AM 10.69 51.242 0.571 7.64 12.38 4.68
11/11/2020 11:00:00 AM 10.84 51.512 0.567 7.71 13.58 5.34
11/11/2020 11:15:00 AM 10.8 51.44 0.569 7.68 12.55 4.98
11/11/2020 11:30:00 AM 10.86 51.548 0.568 7.68 12.32 5.05
11/11/2020 11:45:00 AM 10.87 51.566 0.568 7.65 13.5 4.85
11/11/2020 12:00:00 PM 10.94 51.692 0.565 7.65 12.77 4.88
11/11/2020 12:15:00 PM 10.98 51.764 0.567 7.63 12.75 4.95
11/11/2020 12:30:00 PM 11.05 51.89 0.569 7.64 13.74 4.66
11/11/2020 12:45:00 PM 11.04 51.872 0.573 7.59 17.89 4.2
11/11/2020 1:00:00 PM 11.07 51.926 0.577 7.54 20.22 3.86
11/11/2020 1:15:00 PM 11.09 51.962 0.58 7.52 20.4 3.51
11/11/2020 1:30:00 PM 11.12 52.016 0.577 7.5 20.46 3.35
11/11/2020 1:45:00 PM 11.15 52.07 0.578 7.49 19.87 3.31
11/11/2020 2:00:00 PM 11.19 52.142 0.577 7.51 19.23 3.19
11/11/2020 2:15:00 PM 11.26 52.268 0.569 7.53 17.1 3.69
11/11/2020 2:30:00 PM 11.3 52.34 0.571 7.55 16.65 3.76
11/11/2020 2:45:00 PM 11.36 52.448 0.567 7.58 15.75 4.43
11/11/2020 3:00:00 PM 11.37 52.466 0.57 7.57 15.08 4.45
11/11/2020 3:15:00 PM 11.44 52.592 0.563 7.59 14.07 4.44
11/11/2020 3:30:00 PM 11.45 52.61 0.562 7.59 13.36 4.28
11/11/2020 3:45:00 PM 11.47 52.646 0.563 7.6 13.52 4.5
11/11/2020 4:00:00 PM 11.58 52.844 0.561 7.69 13.87 5.14
11/11/2020 4:15:00 PM 11.66 52.988 0.556 7.77 13.56 6.06
11/11/2020 4:30:00 PM 11.77 53.186 0.554 7.86 13.62 7.8
11/11/2020 4:45:00 PM 11.85 53.33 0.555 7.93 15.52 8.99
11/11/2020 5:00:00 PM 11.86 53.348 0.557 7.92 13.83 9.07
11/11/2020 5:15:00 PM 11.88 53.384 0.556 7.94 13.65 8.93
11/11/2020 5:30:00 PM 11.91 53.438 0.554 7.94 14.48 8.99
11/11/2020 5:45:00 PM 11.94 53.492 0.553 7.92 16 8.84
11/11/2020 6:00:00 PM 12 53.6 0.551 7.93 13.77 8.83
11/11/2020 6:15:00 PM 12.03 53.654 0.55 7.94 13.77 8.7
11/11/2020 6:30:00 PM 12.05 53.69 0.551 7.94 14.56 8.6
11/11/2020 6:45:00 PM 12.07 53.726 0.551 7.95 14.7 8.6
11/11/2020 7:00:00 PM 12.05 53.69 0.553 7.94 14.06 8.5
11/11/2020 7:15:00 PM 12.03 53.654 0.554 7.93 14.49 8.5
11/11/2020 7:30:00 PM 12 53.6 0.555 7.92 14.06 8.47
11/11/2020 7:45:00 PM 11.96 53.528 0.556 7.93 13.3 8.44
11/11/2020 8:00:00 PM 11.93 53.474 0.557 7.94 14.28 8.5
11/11/2020 8:15:00 PM 11.92 53.456 0.557 7.93 14.12 8.35
11/11/2020 8:30:00 PM 11.91 53.438 0.557 7.93 13.9 8.31
11/11/2020 8:45:00 PM 11.91 53.438 0.557 7.93 13.31 8.34
11/11/2020 9:00:00 PM 11.9 53.42 0.557 7.92 13.35 8.26
11/11/2020 9:15:00 PM 11.89 53.402 0.556 7.93 13.63 8.24
11/11/2020 9:30:00 PM 11.88 53.384 0.555 7.9 13.61 8.13
11/11/2020 9:45:00 PM 11.86 53.348 0.554 7.92 13.37 8.17
11/11/2020 10:00:00 PM 11.85 53.33 0.553 7.92 13.31 8.14
11/11/2020 10:15:00 PM 11.83 53.294 0.553 7.92 13.67 8.14
11/11/2020 10:30:00 PM 11.82 53.276 0.551 7.91 13.16 8.04
11/11/2020 10:45:00 PM 11.81 53.258 0.55 7.9 13.16 8.1
11/11/2020 11:00:00 PM 11.8 53.24 0.549 7.9 13.54 7.98
11/11/2020 11:15:00 PM 11.8 53.24 0.548 7.9 12.87 8.03
11/11/2020 11:30:00 PM 11.79 53.222 0.547 7.9 12.77 8.04
11/11/2020 11:45:00 PM 11.79 53.222 0.546 7.9 13.27 8.18
11/12/2020 12:00:00 AM 11.78 53.204 0.545 7.9 15.95 8
11/12/2020 12:15:00 AM 11.78 53.204 0.544 7.89 12.94 7.95
11/12/2020 12:30:00 AM 11.77 53.186 0.542 7.89 13.07 7.91
11/12/2020 12:45:00 AM 11.77 53.186 0.541 7.89 14.5 7.95
11/12/2020 1:00:00 AM 11.75 53.15 0.541 7.89 12.96 7.83
11/12/2020 1:15:00 AM 11.73 53.114 0.539 7.89 12.98 7.89
11/12/2020 1:30:00 AM 11.71 53.078 0.539 7.9 12.4 7.98
11/12/2020 1:45:00 AM 11.69 53.042 0.538 7.88 12.56 7.91
11/12/2020 2:00:00 AM 11.67 53.006 0.537 7.87 12.96 7.86
11/12/2020 2:15:00 AM 11.65 52.97 0.536 7.88 12.9 7.97
11/12/2020 2:30:00 AM 11.63 52.934 0.537 7.9 13.29 7.92
11/12/2020 2:45:00 AM 11.6 52.88 0.538 7.89 12.81 7.66
11/12/2020 3:00:00 AM 11.56 52.808 0.541 7.9 13.22 7.59
11/12/2020 3:15:00 AM 11.52 52.736 0.543 7.88 14.05 7.43
11/12/2020 3:30:00 AM 11.48 52.664 0.544 7.89 13.18 7.58
11/12/2020 3:45:00 AM 11.44 52.592 0.546 7.89 13.09 7.53
11/12/2020 4:00:00 AM 11.39 52.502 0.547 7.89 13.64 7.52
11/12/2020 4:15:00 AM 11.34 52.412 0.548 7.9 13.49 7.39
11/12/2020 4:30:00 AM 11.29 52.322 0.548 7.9 13.26 7.89
11/12/2020 4:45:00 AM 11.24 52.232 0.548 7.89 13.54 7.79
11/12/2020 5:00:00 AM 11.2 52.16 0.546 7.9 14 7.79
11/12/2020 5:15:00 AM 11.17 52.106 0.543 7.89 14.24 7.75
11/12/2020 5:30:00 AM 11.14 52.052 0.539 7.89 14.11 7.79
11/12/2020 5:45:00 AM 11.12 52.016 0.534 7.88 14.88 7.85
11/12/2020 6:00:00 AM 11.09 51.962 0.527 7.87 14.89 8.01
11/12/2020 6:15:00 AM 11.06 51.908 0.52 7.86 14.26 8.27
11/12/2020 6:30:00 AM 11.03 51.854 0.511 7.87 13.97 8.3
11/12/2020 6:45:00 AM 11.01 51.818 0.505 7.87 14.28 8.34
11/12/2020 7:00:00 AM 10.97 51.746 0.492 7.86 30.04 8.49
11/12/2020 7:15:00 AM 10.94 51.692 0.482 7.86 20.75 8.68
11/12/2020 7:30:00 AM 10.91 51.638 0.473 7.86 21.41 8.69
11/12/2020 7:45:00 AM 10.88 51.584 0.464 7.86 17.9 8.64
11/12/2020 8:00:00 AM 10.85 51.53 0.457 7.84 18.94 8.67
11/12/2020 8:15:00 AM 10.83 51.494 0.448 7.84 17.25 8.71
11/12/2020 8:30:00 AM 10.8 51.44 0.442 7.84 17.28 8.75
11/12/2020 8:45:00 AM 10.78 51.404 0.436 7.83 17.77 8.8
11/12/2020 9:00:00 AM 10.76 51.368 0.432 7.83 17.14 8.82
11/12/2020 9:15:00 AM 10.75 51.35 0.428 7.83 17.3 8.79
11/12/2020 9:30:00 AM 10.73 51.314 0.427 7.82 17.28 8.89
11/12/2020 9:45:00 AM 10.72 51.296 0.424 7.82 17.37 8.87
11/12/2020 10:00:00 AM 10.72 51.296 0.422 7.83 16.64 8.86
11/12/2020 10:15:00 AM 10.72 51.296 0.419 7.83 19.29 9
11/12/2020 10:30:00 AM 10.71 51.278 0.415 7.82 21.11 9.06
11/12/2020 10:45:00 AM 10.71 51.278 0.412 7.82 21.89 9.06
11/12/2020 11:00:00 AM 10.71 51.278 0.407 7.84 22.44 8.83
11/12/2020 11:15:00 AM 10.71 51.278 0.4 7.85 19.16 8.54
11/12/2020 11:30:00 AM 10.71 51.278 0.393 7.86 18.46 8.47
11/12/2020 11:45:00 AM 10.71 51.278 0.386 7.86 18.96 8.57
11/12/2020 12:00:00 PM 10.72 51.296 0.376 7.86 19.3 8.69
11/12/2020 12:15:00 PM 10.74 51.332 0.368 7.86 18.28 8.91
11/12/2020 12:30:00 PM 10.76 51.368 0.363 7.86 18.31 8.92
11/12/2020 12:45:00 PM 10.79 51.422 0.353 7.88 18.96 9.05
11/12/2020 1:00:00 PM 10.83 51.494 0.349 7.9 17.94 9.16
11/12/2020 1:15:00 PM 10.87 51.566 0.343 7.9 25.07 9.4
11/12/2020 1:30:00 PM 10.88 51.584 0.338 7.96 20.21 10.15
11/12/2020 1:45:00 PM 10.89 51.602 0.338 7.95 17.76 10.06
11/12/2020 2:00:00 PM 10.89 51.602 0.337 7.96 18.37 10.06
11/12/2020 2:15:00 PM 10.87 51.566 0.338 7.97 17.4 9.77
11/12/2020 2:30:00 PM 10.85 51.53 0.339 7.98 17.26 9.76
11/12/2020 2:45:00 PM 10.84 51.512 0.342 7.99 17.45 10.05
11/12/2020 3:00:00 PM 10.82 51.476 0.346 8 17.64 10
11/12/2020 3:15:00 PM 10.79 51.422 0.352 8.02 17.14 9.84
11/12/2020 3:30:00 PM 10.74 51.332 0.356 8.02 17.44 9.7
11/12/2020 3:45:00 PM 10.69 51.242 0.363 7.99 17.13 9.92
11/12/2020 4:00:00 PM 10.63 51.134 0.369 8.01 16.53 9.87
11/12/2020 4:15:00 PM 10.57 51.026 0.374 8 17.79 9.86
11/12/2020 4:30:00 PM 10.52 50.936 0.38 7.97 16.48 9.7
11/12/2020 4:45:00 PM 10.45 50.81 0.386 7.97 17.33 9.52
11/12/2020 5:00:00 PM 10.38 50.684 0.392 7.98 16.63 9.97
11/12/2020 5:15:00 PM 10.31 50.558 0.397 7.97 17.03 9.95
11/12/2020 5:30:00 PM 10.25 50.45 0.402 7.96 17.19 9.82
11/12/2020 5:45:00 PM 10.18 50.324 0.406 7.96 16.97 9.72
11/12/2020 6:00:00 PM 10.1 50.18 0.41 7.95 17.12 9.75
11/12/2020 6:15:00 PM 10.03 50.054 0.413 7.94 17.24 9.53
11/12/2020 6:30:00 PM 9.98 49.964 0.415 7.93 18.77 9.63
11/12/2020 6:45:00 PM 9.91 49.838 0.417 7.92 16.77 9.23
11/12/2020 7:00:00 PM 9.85 49.73 0.419 7.94 17.68 10.01
11/12/2020 7:15:00 PM 9.78 49.604 0.419 7.94 17.16 10.01
11/12/2020 7:30:00 PM 9.72 49.496 0.419 7.95 16.9 10.04
11/12/2020 7:45:00 PM 9.64 49.352 0.419 7.95 17.82 9.99
11/12/2020 8:00:00 PM 9.59 49.262 0.419 7.94 20.02 9.46
11/12/2020 8:15:00 PM 9.52 49.136 0.418 7.94 18.13 9.57
11/12/2020 8:30:00 PM 9.46 49.028 0.418 7.88 17.95 9.35
11/12/2020 8:45:00 PM 9.39 48.902 0.417 7.9 19.11 9.58
11/12/2020 9:00:00 PM 9.33 48.794 0.416 7.91 18.92 9.61
11/12/2020 9:15:00 PM 9.26 48.668 0.416 7.91 20.14 9.58
11/12/2020 9:30:00 PM 9.2 48.56 0.415 7.88 25.06 8.59
11/12/2020 9:45:00 PM 9.14 48.452 0.415 7.94 21.71 9.89
11/12/2020 10:00:00 PM 9.08 48.344 0.415 7.94 20.41 10.08
11/12/2020 10:15:00 PM 9.02 48.236 0.415 7.94 20.32 10.06
11/12/2020 10:30:00 PM 8.97 48.146 0.415 7.94 18.66 10.14
11/12/2020 10:45:00 PM 8.92 48.056 0.415 7.95 18.86 10.06
11/12/2020 11:00:00 PM 8.85 47.93 0.415 7.95 20.07 10.08
11/12/2020 11:15:00 PM 8.81 47.858 0.416 7.95 18.09 9.97
11/12/2020 11:30:00 PM 8.76 47.768 0.416 7.94 20.16 10.06
11/12/2020 11:45:00 PM 8.72 47.696 0.416 7.94 18.39 10.12
11/13/2020 12:00:00 AM 8.67 47.606 0.416 7.94 18.61 10.04
11/13/2020 12:15:00 AM 8.63 47.534 0.416 7.94 19.45 10.05
11/13/2020 12:30:00 AM 8.57 47.426 0.417 7.93 18.27 9.87
11/13/2020 12:45:00 AM 8.52 47.336 0.417 7.93 18.26 9.94
11/13/2020 1:00:00 AM 8.46 47.228 0.417 7.93 17.89 9.83
11/13/2020 1:15:00 AM 8.42 47.156 0.417 7.93 17.84 9.82
11/13/2020 1:30:00 AM 8.36 47.048 0.417 7.92 19.19 9.89
11/13/2020 1:45:00 AM 8.32 46.976 0.417 7.91 17.67 9.81
11/13/2020 2:00:00 AM 8.27 46.886 0.416 7.92 17.62 9.82
11/13/2020 2:15:00 AM 8.23 46.814 0.416 7.92 17.85 9.88
11/13/2020 2:30:00 AM 8.2 46.76 0.416 7.91 17.11 9.84
11/13/2020 2:45:00 AM 8.15 46.67 0.416 7.91 17.53 9.74
11/13/2020 3:00:00 AM 8.1 46.58 0.415 7.9 17.55 9.75
11/13/2020 3:15:00 AM 8.06 46.508 0.415 7.9 17.35 9.67
11/13/2020 3:30:00 AM 8.01 46.418 0.414 7.89 17.59 9.64
11/13/2020 3:45:00 AM 7.97 46.346 0.414 7.88 18.15 9.57
11/13/2020 4:00:00 AM 7.91 46.238 0.413 7.87 18.41 9.53
11/13/2020 4:15:00 AM 7.86 46.148 0.412 7.87 18.37 9.62
11/13/2020 4:30:00 AM 7.82 46.076 0.41 7.87 18.26 9.61
11/13/2020 4:45:00 AM 7.76 45.968 0.41 7.86 18.4 9.58
11/13/2020 5:00:00 AM 7.73 45.914 0.409 7.86 18.3 9.53
11/13/2020 5:15:00 AM 7.67 45.806 0.408 7.85 17.87 9.47
11/13/2020 5:30:00 AM 7.62 45.716 0.407 7.85 18.82 9.47
11/13/2020 5:45:00 AM 7.57 45.626 0.407 7.83 20.04 9.52
11/13/2020 6:00:00 AM 7.51 45.518 0.407 7.84 17.46 9.51
11/13/2020 6:15:00 AM 7.45 45.41 0.405 7.84 17.14 9.55
11/13/2020 6:30:00 AM 7.4 45.32 0.405 7.84 17.45 9.58
11/13/2020 6:45:00 AM 7.35 45.23 0.405 7.84 17.07 9.54
11/13/2020 7:00:00 AM 7.3 45.14 0.404 7.84 17.09 9.45
11/13/2020 7:15:00 AM 7.26 45.068 0.404 7.83 17.2 9.51
11/13/2020 7:30:00 AM 7.25 45.05 0.403 7.83 16.51 9.6
11/13/2020 7:45:00 AM 7.25 45.05 0.403 7.83 16.75 9.59
11/13/2020 8:00:00 AM 7.22 44.996 0.403 7.83 16.72 9.64
11/13/2020 8:15:00 AM 7.2 44.96 0.402 7.84 16.5 9.75
11/13/2020 8:30:00 AM 7.18 44.924 0.402 7.84 16.16 9.76
11/13/2020 8:45:00 AM 7.15 44.87 0.402 7.84 16.48 9.83
11/13/2020 9:00:00 AM 7.16 44.888 0.402 7.84 16.77 9.77
11/13/2020 9:15:00 AM 7.13 44.834 0.402 7.85 16.34 9.61
11/13/2020 9:30:00 AM 7.14 44.852 0.402 7.85 16.36 9.76
11/13/2020 9:45:00 AM 7.18 44.924 0.402 7.84 16.17 9.79
11/13/2020 1